<?xml version="1.0" encoding="UTF-8" standalone="no" ?>
<gpx xmlns="http://www.topografix.com/GPX/1/1" xmlns:xsi="http://www.w3.org/2001/XMLSchema-instance" xsi:schemaLocation="http://www.topografix.com/GPX/1/1 http://www.topografix.com/GPX/1/1/gpx.xsd" version="1.1" creator="VisuGPX - https://www.visugpx.com">
  <metadata>
    <name>VTT Chailly en Bière </name>
    <desc><![CDATA[34 Km de VTT en forêt de Fontainebleau]]></desc>
  </metadata>
  <trk>
    <name><![CDATA[2016-09-11 08:53]]></name>
    <desc><![CDATA[<p>Heure de départ: 09/11/2016 07:50</p><p>Heure d'arrivée: 09/11/2016 10:47</p><p>Distance: 34,1 km (02:57)</p><p>Temps déplacement: 02:23</p><p>Vitesse moyenne: 11,56 km/h</p><p>Vitesse moyenne mouv.: 14,28 km/h</p><p>Vitesse Max.: 28,48km/h</p><p>Altitude minimale: 5 m</p><p>Altitude maximale: 155 m</p><p>Vitesse de montée: 609,5 m/h</p><p>Vitesse de descente: -675,1 m/h</p><p>Gain d'altitude: 794 m</p><p>Perte d'altitude: -795 m</p><p>Temps de montée: 01:18</p><p>Temps de descente: 01:10</p><hr align="center" width="480" style="height: 2px; width: 517px"/>]]></desc>
    <trkseg>
      <trkpt lat="48.46439" lon="2.60477">
        <ele>79.786</ele>
        <time>2016-09-11T05:50:52Z</time>
      </trkpt>
      <trkpt lat="48.46452" lon="2.60496">
        <ele>80</ele>
        <time>2016-09-11T05:51:23Z</time>
      </trkpt>
      <trkpt lat="48.46438" lon="2.60514">
        <ele>79.756</ele>
        <time>2016-09-11T05:54:51Z</time>
      </trkpt>
      <trkpt lat="48.46437" lon="2.60543">
        <ele>79.596</ele>
        <time>2016-09-11T05:54:58Z</time>
      </trkpt>
      <trkpt lat="48.4644" lon="2.6057">
        <ele>79.142</ele>
        <time>2016-09-11T05:55:05Z</time>
      </trkpt>
      <trkpt lat="48.46445" lon="2.60598">
        <ele>78.534</ele>
        <time>2016-09-11T05:55:15Z</time>
      </trkpt>
      <trkpt lat="48.46462" lon="2.60607">
        <ele>79.989</ele>
        <time>2016-09-11T05:55:23Z</time>
      </trkpt>
      <trkpt lat="48.46481" lon="2.6061">
        <ele>81</ele>
        <time>2016-09-11T05:55:30Z</time>
      </trkpt>
      <trkpt lat="48.46499" lon="2.60619">
        <ele>81</ele>
        <time>2016-09-11T05:55:37Z</time>
      </trkpt>
      <trkpt lat="48.46512" lon="2.6064">
        <ele>80.966</ele>
        <time>2016-09-11T05:55:44Z</time>
      </trkpt>
      <trkpt lat="48.46515" lon="2.60669">
        <ele>80</ele>
        <time>2016-09-11T05:55:51Z</time>
      </trkpt>
      <trkpt lat="48.46518" lon="2.60696">
        <ele>80</ele>
        <time>2016-09-11T05:56:01Z</time>
      </trkpt>
      <trkpt lat="48.46534" lon="2.60709">
        <ele>80.212</ele>
        <time>2016-09-11T05:56:19Z</time>
      </trkpt>
      <trkpt lat="48.46552" lon="2.60704">
        <ele>80.86</ele>
        <time>2016-09-11T05:56:27Z</time>
      </trkpt>
      <trkpt lat="48.46571" lon="2.60701">
        <ele>81.544</ele>
        <time>2016-09-11T05:56:42Z</time>
      </trkpt>
      <trkpt lat="48.46586" lon="2.60716">
        <ele>82</ele>
        <time>2016-09-11T05:56:51Z</time>
      </trkpt>
      <trkpt lat="48.46583" lon="2.60746">
        <ele>82</ele>
        <time>2016-09-11T05:56:57Z</time>
      </trkpt>
      <trkpt lat="48.46577" lon="2.60775">
        <ele>81.972</ele>
        <time>2016-09-11T05:57:03Z</time>
      </trkpt>
      <trkpt lat="48.46571" lon="2.60801">
        <ele>82</ele>
        <time>2016-09-11T05:57:08Z</time>
      </trkpt>
      <trkpt lat="48.46562" lon="2.60825">
        <ele>82.158</ele>
        <time>2016-09-11T05:57:13Z</time>
      </trkpt>
      <trkpt lat="48.46551" lon="2.60853">
        <ele>81.848</ele>
        <time>2016-09-11T05:57:18Z</time>
      </trkpt>
      <trkpt lat="48.46541" lon="2.60876">
        <ele>80.94</ele>
        <time>2016-09-11T05:57:22Z</time>
      </trkpt>
      <trkpt lat="48.46529" lon="2.60897">
        <ele>79.752</ele>
        <time>2016-09-11T05:57:26Z</time>
      </trkpt>
      <trkpt lat="48.46517" lon="2.60918">
        <ele>79.394</ele>
        <time>2016-09-11T05:57:30Z</time>
      </trkpt>
      <trkpt lat="48.46506" lon="2.60941">
        <ele>79.79</ele>
        <time>2016-09-11T05:57:34Z</time>
      </trkpt>
      <trkpt lat="48.46495" lon="2.60967">
        <ele>79.194</ele>
        <time>2016-09-11T05:57:39Z</time>
      </trkpt>
      <trkpt lat="48.46487" lon="2.60995">
        <ele>78.614</ele>
        <time>2016-09-11T05:57:45Z</time>
      </trkpt>
      <trkpt lat="48.46486" lon="2.61024">
        <ele>78.063</ele>
        <time>2016-09-11T05:57:51Z</time>
      </trkpt>
      <trkpt lat="48.46494" lon="2.61057">
        <ele>78.009</ele>
        <time>2016-09-11T05:57:56Z</time>
      </trkpt>
      <trkpt lat="48.46501" lon="2.61086">
        <ele>78.145</ele>
        <time>2016-09-11T05:58:00Z</time>
      </trkpt>
      <trkpt lat="48.4651" lon="2.61115">
        <ele>79</ele>
        <time>2016-09-11T05:58:04Z</time>
      </trkpt>
      <trkpt lat="48.46523" lon="2.6114">
        <ele>79.005</ele>
        <time>2016-09-11T05:58:08Z</time>
      </trkpt>
      <trkpt lat="48.46539" lon="2.61162">
        <ele>78.666</ele>
        <time>2016-09-11T05:58:12Z</time>
      </trkpt>
      <trkpt lat="48.46554" lon="2.61185">
        <ele>78.122</ele>
        <time>2016-09-11T05:58:16Z</time>
      </trkpt>
      <trkpt lat="48.46562" lon="2.61213">
        <ele>78.522</ele>
        <time>2016-09-11T05:58:20Z</time>
      </trkpt>
      <trkpt lat="48.46568" lon="2.61242">
        <ele>79.27</ele>
        <time>2016-09-11T05:58:24Z</time>
      </trkpt>
      <trkpt lat="48.46574" lon="2.6127">
        <ele>79.33</ele>
        <time>2016-09-11T05:58:28Z</time>
      </trkpt>
      <trkpt lat="48.46577" lon="2.613">
        <ele>79.24</ele>
        <time>2016-09-11T05:58:32Z</time>
      </trkpt>
      <trkpt lat="48.46579" lon="2.6133">
        <ele>79.901</ele>
        <time>2016-09-11T05:58:36Z</time>
      </trkpt>
      <trkpt lat="48.46579" lon="2.6136">
        <ele>80</ele>
        <time>2016-09-11T05:58:40Z</time>
      </trkpt>
      <trkpt lat="48.46575" lon="2.61389">
        <ele>79.696</ele>
        <time>2016-09-11T05:58:44Z</time>
      </trkpt>
      <trkpt lat="48.46564" lon="2.61414">
        <ele>78.406</ele>
        <time>2016-09-11T05:58:48Z</time>
      </trkpt>
      <trkpt lat="48.46553" lon="2.61439">
        <ele>78</ele>
        <time>2016-09-11T05:58:52Z</time>
      </trkpt>
      <trkpt lat="48.46541" lon="2.61462">
        <ele>78</ele>
        <time>2016-09-11T05:58:56Z</time>
      </trkpt>
      <trkpt lat="48.46528" lon="2.61486">
        <ele>78.49</ele>
        <time>2016-09-11T05:59:00Z</time>
      </trkpt>
      <trkpt lat="48.46516" lon="2.6151">
        <ele>79.79</ele>
        <time>2016-09-11T05:59:04Z</time>
      </trkpt>
      <trkpt lat="48.46503" lon="2.61534">
        <ele>80.916</ele>
        <time>2016-09-11T05:59:08Z</time>
      </trkpt>
      <trkpt lat="48.46493" lon="2.61561">
        <ele>80.95</ele>
        <time>2016-09-11T05:59:12Z</time>
      </trkpt>
      <trkpt lat="48.46485" lon="2.61589">
        <ele>80.373</ele>
        <time>2016-09-11T05:59:16Z</time>
      </trkpt>
      <trkpt lat="48.46479" lon="2.61617">
        <ele>80</ele>
        <time>2016-09-11T05:59:20Z</time>
      </trkpt>
      <trkpt lat="48.46474" lon="2.61643">
        <ele>80</ele>
        <time>2016-09-11T05:59:24Z</time>
      </trkpt>
      <trkpt lat="48.4647" lon="2.61671">
        <ele>80.138</ele>
        <time>2016-09-11T05:59:28Z</time>
      </trkpt>
      <trkpt lat="48.46466" lon="2.61704">
        <ele>81.256</ele>
        <time>2016-09-11T05:59:33Z</time>
      </trkpt>
      <trkpt lat="48.46462" lon="2.61731">
        <ele>81.82</ele>
        <time>2016-09-11T05:59:37Z</time>
      </trkpt>
      <trkpt lat="48.46458" lon="2.61758">
        <ele>82.137</ele>
        <time>2016-09-11T05:59:41Z</time>
      </trkpt>
      <trkpt lat="48.46455" lon="2.61786">
        <ele>82.555</ele>
        <time>2016-09-11T05:59:45Z</time>
      </trkpt>
      <trkpt lat="48.46451" lon="2.61815">
        <ele>82.678</ele>
        <time>2016-09-11T05:59:49Z</time>
      </trkpt>
      <trkpt lat="48.46447" lon="2.61843">
        <ele>81.64</ele>
        <time>2016-09-11T05:59:53Z</time>
      </trkpt>
      <trkpt lat="48.46443" lon="2.61872">
        <ele>80.211</ele>
        <time>2016-09-11T05:59:57Z</time>
      </trkpt>
      <trkpt lat="48.4644" lon="2.61902">
        <ele>78.616</ele>
        <time>2016-09-11T06:00:01Z</time>
      </trkpt>
      <trkpt lat="48.46437" lon="2.61932">
        <ele>77.722</ele>
        <time>2016-09-11T06:00:05Z</time>
      </trkpt>
      <trkpt lat="48.46436" lon="2.61961">
        <ele>77.122</ele>
        <time>2016-09-11T06:00:09Z</time>
      </trkpt>
      <trkpt lat="48.46436" lon="2.6199">
        <ele>77</ele>
        <time>2016-09-11T06:00:13Z</time>
      </trkpt>
      <trkpt lat="48.46436" lon="2.6202">
        <ele>77.476</ele>
        <time>2016-09-11T06:00:17Z</time>
      </trkpt>
      <trkpt lat="48.46435" lon="2.62049">
        <ele>79.212</ele>
        <time>2016-09-11T06:00:21Z</time>
      </trkpt>
      <trkpt lat="48.46434" lon="2.6208">
        <ele>80.504</ele>
        <time>2016-09-11T06:00:25Z</time>
      </trkpt>
      <trkpt lat="48.46434" lon="2.6211">
        <ele>80.985</ele>
        <time>2016-09-11T06:00:29Z</time>
      </trkpt>
      <trkpt lat="48.46433" lon="2.62139">
        <ele>81.992</ele>
        <time>2016-09-11T06:00:33Z</time>
      </trkpt>
      <trkpt lat="48.4643" lon="2.62173">
        <ele>82.216</ele>
        <time>2016-09-11T06:00:38Z</time>
      </trkpt>
      <trkpt lat="48.46428" lon="2.62202">
        <ele>82.954</ele>
        <time>2016-09-11T06:00:42Z</time>
      </trkpt>
      <trkpt lat="48.46426" lon="2.62233">
        <ele>82.559</ele>
        <time>2016-09-11T06:00:46Z</time>
      </trkpt>
      <trkpt lat="48.46426" lon="2.62266">
        <ele>82.495</ele>
        <time>2016-09-11T06:00:50Z</time>
      </trkpt>
      <trkpt lat="48.46424" lon="2.62297">
        <ele>83.061</ele>
        <time>2016-09-11T06:00:54Z</time>
      </trkpt>
      <trkpt lat="48.46424" lon="2.62327">
        <ele>83.439</ele>
        <time>2016-09-11T06:00:58Z</time>
      </trkpt>
      <trkpt lat="48.46423" lon="2.62356">
        <ele>84.069</ele>
        <time>2016-09-11T06:01:02Z</time>
      </trkpt>
      <trkpt lat="48.46421" lon="2.62384">
        <ele>84.162</ele>
        <time>2016-09-11T06:01:06Z</time>
      </trkpt>
      <trkpt lat="48.46421" lon="2.62413">
        <ele>83.312</ele>
        <time>2016-09-11T06:01:10Z</time>
      </trkpt>
      <trkpt lat="48.46421" lon="2.62441">
        <ele>82.4</ele>
        <time>2016-09-11T06:01:14Z</time>
      </trkpt>
      <trkpt lat="48.46421" lon="2.62469">
        <ele>82.166</ele>
        <time>2016-09-11T06:01:18Z</time>
      </trkpt>
      <trkpt lat="48.46421" lon="2.62497">
        <ele>82.902</ele>
        <time>2016-09-11T06:01:22Z</time>
      </trkpt>
      <trkpt lat="48.4642" lon="2.62529">
        <ele>83</ele>
        <time>2016-09-11T06:01:27Z</time>
      </trkpt>
      <trkpt lat="48.46419" lon="2.6256">
        <ele>82.84</ele>
        <time>2016-09-11T06:01:32Z</time>
      </trkpt>
      <trkpt lat="48.46416" lon="2.62589">
        <ele>81.982</ele>
        <time>2016-09-11T06:01:37Z</time>
      </trkpt>
      <trkpt lat="48.46412" lon="2.62616">
        <ele>81.838</ele>
        <time>2016-09-11T06:01:41Z</time>
      </trkpt>
      <trkpt lat="48.46406" lon="2.62649">
        <ele>81.974</ele>
        <time>2016-09-11T06:01:46Z</time>
      </trkpt>
      <trkpt lat="48.46402" lon="2.62676">
        <ele>82.62</ele>
        <time>2016-09-11T06:01:50Z</time>
      </trkpt>
      <trkpt lat="48.46398" lon="2.62703">
        <ele>82.533</ele>
        <time>2016-09-11T06:01:54Z</time>
      </trkpt>
      <trkpt lat="48.46392" lon="2.62735">
        <ele>81.711</ele>
        <time>2016-09-11T06:01:59Z</time>
      </trkpt>
      <trkpt lat="48.46388" lon="2.62767">
        <ele>81</ele>
        <time>2016-09-11T06:02:04Z</time>
      </trkpt>
      <trkpt lat="48.46385" lon="2.62796">
        <ele>81</ele>
        <time>2016-09-11T06:02:08Z</time>
      </trkpt>
      <trkpt lat="48.46381" lon="2.62825">
        <ele>81.497</ele>
        <time>2016-09-11T06:02:12Z</time>
      </trkpt>
      <trkpt lat="48.46378" lon="2.62854">
        <ele>81.888</ele>
        <time>2016-09-11T06:02:16Z</time>
      </trkpt>
      <trkpt lat="48.46374" lon="2.62882">
        <ele>82.746</ele>
        <time>2016-09-11T06:02:20Z</time>
      </trkpt>
      <trkpt lat="48.46371" lon="2.6291">
        <ele>83.264</ele>
        <time>2016-09-11T06:02:24Z</time>
      </trkpt>
      <trkpt lat="48.46367" lon="2.62938">
        <ele>83.049</ele>
        <time>2016-09-11T06:02:28Z</time>
      </trkpt>
      <trkpt lat="48.46364" lon="2.62966">
        <ele>82.218</ele>
        <time>2016-09-11T06:02:32Z</time>
      </trkpt>
      <trkpt lat="48.46362" lon="2.62993">
        <ele>82</ele>
        <time>2016-09-11T06:02:36Z</time>
      </trkpt>
      <trkpt lat="48.46359" lon="2.6302">
        <ele>81.978</ele>
        <time>2016-09-11T06:02:40Z</time>
      </trkpt>
      <trkpt lat="48.46355" lon="2.63047">
        <ele>82.698</ele>
        <time>2016-09-11T06:02:44Z</time>
      </trkpt>
      <trkpt lat="48.46352" lon="2.6308">
        <ele>83</ele>
        <time>2016-09-11T06:02:49Z</time>
      </trkpt>
      <trkpt lat="48.46348" lon="2.63112">
        <ele>84.012</ele>
        <time>2016-09-11T06:02:54Z</time>
      </trkpt>
      <trkpt lat="48.46345" lon="2.63143">
        <ele>84.672</ele>
        <time>2016-09-11T06:02:59Z</time>
      </trkpt>
      <trkpt lat="48.46343" lon="2.63172">
        <ele>85.175</ele>
        <time>2016-09-11T06:03:04Z</time>
      </trkpt>
      <trkpt lat="48.46341" lon="2.63204">
        <ele>84.893</ele>
        <time>2016-09-11T06:03:09Z</time>
      </trkpt>
      <trkpt lat="48.4634" lon="2.63237">
        <ele>85.262</ele>
        <time>2016-09-11T06:03:14Z</time>
      </trkpt>
      <trkpt lat="48.46339" lon="2.63269">
        <ele>85.352</ele>
        <time>2016-09-11T06:03:19Z</time>
      </trkpt>
      <trkpt lat="48.46343" lon="2.63298">
        <ele>86.178</ele>
        <time>2016-09-11T06:03:24Z</time>
      </trkpt>
      <trkpt lat="48.46346" lon="2.63328">
        <ele>87.35</ele>
        <time>2016-09-11T06:03:29Z</time>
      </trkpt>
      <trkpt lat="48.46352" lon="2.63356">
        <ele>87.836</ele>
        <time>2016-09-11T06:03:34Z</time>
      </trkpt>
      <trkpt lat="48.46357" lon="2.63386">
        <ele>87.554</ele>
        <time>2016-09-11T06:03:39Z</time>
      </trkpt>
      <trkpt lat="48.46361" lon="2.63416">
        <ele>87.962</ele>
        <time>2016-09-11T06:03:44Z</time>
      </trkpt>
      <trkpt lat="48.46367" lon="2.63446">
        <ele>88.832</ele>
        <time>2016-09-11T06:03:49Z</time>
      </trkpt>
      <trkpt lat="48.46371" lon="2.63478">
        <ele>89.644</ele>
        <time>2016-09-11T06:03:54Z</time>
      </trkpt>
      <trkpt lat="48.46373" lon="2.63507">
        <ele>89.59</ele>
        <time>2016-09-11T06:03:59Z</time>
      </trkpt>
      <trkpt lat="48.46371" lon="2.63536">
        <ele>89.741</ele>
        <time>2016-09-11T06:04:06Z</time>
      </trkpt>
      <trkpt lat="48.46371" lon="2.63567">
        <ele>90.274</ele>
        <time>2016-09-11T06:04:12Z</time>
      </trkpt>
      <trkpt lat="48.46375" lon="2.63593">
        <ele>91.372</ele>
        <time>2016-09-11T06:04:19Z</time>
      </trkpt>
      <trkpt lat="48.46386" lon="2.63618">
        <ele>92.995</ele>
        <time>2016-09-11T06:04:26Z</time>
      </trkpt>
      <trkpt lat="48.46394" lon="2.63643">
        <ele>94.405</ele>
        <time>2016-09-11T06:04:34Z</time>
      </trkpt>
      <trkpt lat="48.464" lon="2.63669">
        <ele>95.208</ele>
        <time>2016-09-11T06:04:41Z</time>
      </trkpt>
      <trkpt lat="48.46407" lon="2.63695">
        <ele>96.295</ele>
        <time>2016-09-11T06:04:47Z</time>
      </trkpt>
      <trkpt lat="48.46408" lon="2.63723">
        <ele>96.725</ele>
        <time>2016-09-11T06:04:53Z</time>
      </trkpt>
      <trkpt lat="48.46412" lon="2.63753">
        <ele>98.628</ele>
        <time>2016-09-11T06:04:59Z</time>
      </trkpt>
      <trkpt lat="48.46415" lon="2.63782">
        <ele>98.856</ele>
        <time>2016-09-11T06:05:06Z</time>
      </trkpt>
      <trkpt lat="48.46418" lon="2.63812">
        <ele>99.036</ele>
        <time>2016-09-11T06:05:13Z</time>
      </trkpt>
      <trkpt lat="48.46422" lon="2.6384">
        <ele>99.432</ele>
        <time>2016-09-11T06:05:20Z</time>
      </trkpt>
      <trkpt lat="48.46422" lon="2.63869">
        <ele>100.18</ele>
        <time>2016-09-11T06:05:28Z</time>
      </trkpt>
      <trkpt lat="48.46426" lon="2.63896">
        <ele>100.58</ele>
        <time>2016-09-11T06:05:51Z</time>
      </trkpt>
      <trkpt lat="48.46417" lon="2.6392">
        <ele>101.131</ele>
        <time>2016-09-11T06:05:57Z</time>
      </trkpt>
      <trkpt lat="48.46407" lon="2.63943">
        <ele>101.626</ele>
        <time>2016-09-11T06:06:03Z</time>
      </trkpt>
      <trkpt lat="48.46396" lon="2.6397">
        <ele>102.164</ele>
        <time>2016-09-11T06:06:09Z</time>
      </trkpt>
      <trkpt lat="48.46387" lon="2.63994">
        <ele>102.859</ele>
        <time>2016-09-11T06:06:14Z</time>
      </trkpt>
      <trkpt lat="48.46376" lon="2.64018">
        <ele>104.124</ele>
        <time>2016-09-11T06:06:20Z</time>
      </trkpt>
      <trkpt lat="48.46365" lon="2.64046">
        <ele>104.872</ele>
        <time>2016-09-11T06:06:26Z</time>
      </trkpt>
      <trkpt lat="48.46354" lon="2.6407">
        <ele>105.127</ele>
        <time>2016-09-11T06:06:31Z</time>
      </trkpt>
      <trkpt lat="48.46341" lon="2.64096">
        <ele>104.532</ele>
        <time>2016-09-11T06:06:36Z</time>
      </trkpt>
      <trkpt lat="48.4633" lon="2.64119">
        <ele>103.406</ele>
        <time>2016-09-11T06:06:40Z</time>
      </trkpt>
      <trkpt lat="48.46319" lon="2.64147">
        <ele>102.356</ele>
        <time>2016-09-11T06:06:45Z</time>
      </trkpt>
      <trkpt lat="48.46308" lon="2.64173">
        <ele>102.832</ele>
        <time>2016-09-11T06:06:50Z</time>
      </trkpt>
      <trkpt lat="48.46297" lon="2.64198">
        <ele>103.314</ele>
        <time>2016-09-11T06:06:56Z</time>
      </trkpt>
      <trkpt lat="48.46291" lon="2.64225">
        <ele>103.491</ele>
        <time>2016-09-11T06:07:39Z</time>
      </trkpt>
      <trkpt lat="48.46272" lon="2.64222">
        <ele>104.003</ele>
        <time>2016-09-11T06:07:52Z</time>
      </trkpt>
      <trkpt lat="48.46254" lon="2.64219">
        <ele>104.096</ele>
        <time>2016-09-11T06:08:01Z</time>
      </trkpt>
      <trkpt lat="48.46234" lon="2.64217">
        <ele>104.77</ele>
        <time>2016-09-11T06:08:07Z</time>
      </trkpt>
      <trkpt lat="48.46215" lon="2.64214">
        <ele>105.496</ele>
        <time>2016-09-11T06:08:14Z</time>
      </trkpt>
      <trkpt lat="48.46196" lon="2.64211">
        <ele>105.963</ele>
        <time>2016-09-11T06:08:19Z</time>
      </trkpt>
      <trkpt lat="48.46178" lon="2.64208">
        <ele>105.711</ele>
        <time>2016-09-11T06:08:25Z</time>
      </trkpt>
      <trkpt lat="48.46163" lon="2.6419">
        <ele>105.478</ele>
        <time>2016-09-11T06:08:32Z</time>
      </trkpt>
      <trkpt lat="48.46147" lon="2.64171">
        <ele>104.089</ele>
        <time>2016-09-11T06:08:38Z</time>
      </trkpt>
      <trkpt lat="48.46132" lon="2.64151">
        <ele>103.312</ele>
        <time>2016-09-11T06:08:43Z</time>
      </trkpt>
      <trkpt lat="48.46124" lon="2.64126">
        <ele>103.264</ele>
        <time>2016-09-11T06:08:48Z</time>
      </trkpt>
      <trkpt lat="48.46115" lon="2.64099">
        <ele>103.866</ele>
        <time>2016-09-11T06:08:54Z</time>
      </trkpt>
      <trkpt lat="48.46108" lon="2.64073">
        <ele>103.71</ele>
        <time>2016-09-11T06:09:00Z</time>
      </trkpt>
      <trkpt lat="48.46102" lon="2.64047">
        <ele>103.038</ele>
        <time>2016-09-11T06:09:06Z</time>
      </trkpt>
      <trkpt lat="48.46096" lon="2.64019">
        <ele>102.544</ele>
        <time>2016-09-11T06:09:12Z</time>
      </trkpt>
      <trkpt lat="48.46091" lon="2.6399">
        <ele>102.736</ele>
        <time>2016-09-11T06:09:19Z</time>
      </trkpt>
      <trkpt lat="48.46085" lon="2.6396">
        <ele>103.356</ele>
        <time>2016-09-11T06:09:26Z</time>
      </trkpt>
      <trkpt lat="48.4608" lon="2.63934">
        <ele>104.216</ele>
        <time>2016-09-11T06:09:34Z</time>
      </trkpt>
      <trkpt lat="48.46064" lon="2.6392">
        <ele>105.404</ele>
        <time>2016-09-11T06:10:34Z</time>
      </trkpt>
      <trkpt lat="48.46048" lon="2.63906">
        <ele>105.803</ele>
        <time>2016-09-11T06:10:39Z</time>
      </trkpt>
      <trkpt lat="48.46029" lon="2.6389">
        <ele>105.079</ele>
        <time>2016-09-11T06:10:43Z</time>
      </trkpt>
      <trkpt lat="48.46009" lon="2.63875">
        <ele>105.164</ele>
        <time>2016-09-11T06:10:47Z</time>
      </trkpt>
      <trkpt lat="48.45991" lon="2.63861">
        <ele>105.324</ele>
        <time>2016-09-11T06:10:51Z</time>
      </trkpt>
      <trkpt lat="48.45975" lon="2.63847">
        <ele>105.894</ele>
        <time>2016-09-11T06:10:56Z</time>
      </trkpt>
      <trkpt lat="48.4596" lon="2.63833">
        <ele>105.542</ele>
        <time>2016-09-11T06:11:01Z</time>
      </trkpt>
      <trkpt lat="48.45941" lon="2.63819">
        <ele>104.614</ele>
        <time>2016-09-11T06:11:06Z</time>
      </trkpt>
      <trkpt lat="48.45923" lon="2.63807">
        <ele>104.794</ele>
        <time>2016-09-11T06:11:11Z</time>
      </trkpt>
      <trkpt lat="48.45905" lon="2.63794">
        <ele>106.525</ele>
        <time>2016-09-11T06:11:17Z</time>
      </trkpt>
      <trkpt lat="48.45887" lon="2.63779">
        <ele>108.218</ele>
        <time>2016-09-11T06:11:24Z</time>
      </trkpt>
      <trkpt lat="48.45869" lon="2.63762">
        <ele>108.612</ele>
        <time>2016-09-11T06:11:31Z</time>
      </trkpt>
      <trkpt lat="48.45851" lon="2.63748">
        <ele>108.607</ele>
        <time>2016-09-11T06:11:37Z</time>
      </trkpt>
      <trkpt lat="48.45831" lon="2.63736">
        <ele>108.723</ele>
        <time>2016-09-11T06:11:43Z</time>
      </trkpt>
      <trkpt lat="48.45813" lon="2.63721">
        <ele>109.126</ele>
        <time>2016-09-11T06:11:50Z</time>
      </trkpt>
      <trkpt lat="48.45795" lon="2.63707">
        <ele>109.279</ele>
        <time>2016-09-11T06:11:57Z</time>
      </trkpt>
      <trkpt lat="48.45779" lon="2.63693">
        <ele>108.767</ele>
        <time>2016-09-11T06:12:03Z</time>
      </trkpt>
      <trkpt lat="48.45761" lon="2.6368">
        <ele>107.518</ele>
        <time>2016-09-11T06:12:08Z</time>
      </trkpt>
      <trkpt lat="48.45743" lon="2.63666">
        <ele>106.723</ele>
        <time>2016-09-11T06:12:13Z</time>
      </trkpt>
      <trkpt lat="48.45725" lon="2.63655">
        <ele>107.793</ele>
        <time>2016-09-11T06:12:19Z</time>
      </trkpt>
      <trkpt lat="48.45708" lon="2.63642">
        <ele>108.814</ele>
        <time>2016-09-11T06:12:27Z</time>
      </trkpt>
      <trkpt lat="48.4569" lon="2.63628">
        <ele>109.133</ele>
        <time>2016-09-11T06:12:34Z</time>
      </trkpt>
      <trkpt lat="48.45672" lon="2.63612">
        <ele>107.31</ele>
        <time>2016-09-11T06:12:39Z</time>
      </trkpt>
      <trkpt lat="48.45655" lon="2.63598">
        <ele>105.858</ele>
        <time>2016-09-11T06:12:43Z</time>
      </trkpt>
      <trkpt lat="48.45638" lon="2.63585">
        <ele>104.176</ele>
        <time>2016-09-11T06:12:48Z</time>
      </trkpt>
      <trkpt lat="48.45618" lon="2.63571">
        <ele>103.992</ele>
        <time>2016-09-11T06:12:53Z</time>
      </trkpt>
      <trkpt lat="48.45599" lon="2.63557">
        <ele>104.398</ele>
        <time>2016-09-11T06:12:59Z</time>
      </trkpt>
      <trkpt lat="48.45582" lon="2.63545">
        <ele>105.306</ele>
        <time>2016-09-11T06:13:04Z</time>
      </trkpt>
      <trkpt lat="48.45564" lon="2.63532">
        <ele>105.018</ele>
        <time>2016-09-11T06:13:10Z</time>
      </trkpt>
      <trkpt lat="48.45546" lon="2.63519">
        <ele>104.678</ele>
        <time>2016-09-11T06:13:15Z</time>
      </trkpt>
      <trkpt lat="48.45529" lon="2.63506">
        <ele>104.222</ele>
        <time>2016-09-11T06:13:19Z</time>
      </trkpt>
      <trkpt lat="48.45512" lon="2.6349">
        <ele>105.536</ele>
        <time>2016-09-11T06:13:24Z</time>
      </trkpt>
      <trkpt lat="48.45496" lon="2.63473">
        <ele>106.43</ele>
        <time>2016-09-11T06:13:29Z</time>
      </trkpt>
      <trkpt lat="48.45482" lon="2.6345">
        <ele>106.923</ele>
        <time>2016-09-11T06:13:34Z</time>
      </trkpt>
      <trkpt lat="48.45469" lon="2.63428">
        <ele>107.328</ele>
        <time>2016-09-11T06:13:38Z</time>
      </trkpt>
      <trkpt lat="48.45456" lon="2.63406">
        <ele>107.533</ele>
        <time>2016-09-11T06:13:42Z</time>
      </trkpt>
      <trkpt lat="48.45443" lon="2.63381">
        <ele>107.094</ele>
        <time>2016-09-11T06:13:47Z</time>
      </trkpt>
      <trkpt lat="48.45429" lon="2.63357">
        <ele>104.728</ele>
        <time>2016-09-11T06:13:53Z</time>
      </trkpt>
      <trkpt lat="48.45415" lon="2.6334">
        <ele>103.54</ele>
        <time>2016-09-11T06:14:00Z</time>
      </trkpt>
      <trkpt lat="48.45398" lon="2.63353">
        <ele>105.064</ele>
        <time>2016-09-11T06:14:09Z</time>
      </trkpt>
      <trkpt lat="48.45384" lon="2.6337">
        <ele>107.335</ele>
        <time>2016-09-11T06:14:18Z</time>
      </trkpt>
      <trkpt lat="48.45368" lon="2.63388">
        <ele>110.431</ele>
        <time>2016-09-11T06:14:27Z</time>
      </trkpt>
      <trkpt lat="48.45352" lon="2.63407">
        <ele>112.72</ele>
        <time>2016-09-11T06:14:38Z</time>
      </trkpt>
      <trkpt lat="48.45338" lon="2.63424">
        <ele>114.154</ele>
        <time>2016-09-11T06:14:48Z</time>
      </trkpt>
      <trkpt lat="48.45324" lon="2.63445">
        <ele>115.075</ele>
        <time>2016-09-11T06:14:59Z</time>
      </trkpt>
      <trkpt lat="48.4531" lon="2.63464">
        <ele>115.921</ele>
        <time>2016-09-11T06:15:12Z</time>
      </trkpt>
      <trkpt lat="48.45297" lon="2.63484">
        <ele>117.893</ele>
        <time>2016-09-11T06:15:24Z</time>
      </trkpt>
      <trkpt lat="48.45284" lon="2.63504">
        <ele>120.202</ele>
        <time>2016-09-11T06:15:37Z</time>
      </trkpt>
      <trkpt lat="48.4527" lon="2.63523">
        <ele>123.489</ele>
        <time>2016-09-11T06:15:48Z</time>
      </trkpt>
      <trkpt lat="48.45256" lon="2.63543">
        <ele>127.121</ele>
        <time>2016-09-11T06:16:00Z</time>
      </trkpt>
      <trkpt lat="48.45243" lon="2.63562">
        <ele>130.426</ele>
        <time>2016-09-11T06:16:14Z</time>
      </trkpt>
      <trkpt lat="48.45225" lon="2.63569">
        <ele>132.762</ele>
        <time>2016-09-11T06:16:29Z</time>
      </trkpt>
      <trkpt lat="48.45206" lon="2.63566">
        <ele>133.944</ele>
        <time>2016-09-11T06:16:44Z</time>
      </trkpt>
      <trkpt lat="48.45188" lon="2.63573">
        <ele>135.494</ele>
        <time>2016-09-11T06:17:31Z</time>
      </trkpt>
      <trkpt lat="48.45183" lon="2.63602">
        <ele>137.72</ele>
        <time>2016-09-11T06:17:43Z</time>
      </trkpt>
      <trkpt lat="48.4517" lon="2.63624">
        <ele>139.35</ele>
        <time>2016-09-11T06:17:52Z</time>
      </trkpt>
      <trkpt lat="48.45151" lon="2.63638">
        <ele>139.364</ele>
        <time>2016-09-11T06:17:59Z</time>
      </trkpt>
      <trkpt lat="48.45135" lon="2.63655">
        <ele>139.115</ele>
        <time>2016-09-11T06:18:05Z</time>
      </trkpt>
      <trkpt lat="48.45124" lon="2.6368">
        <ele>138.604</ele>
        <time>2016-09-11T06:18:11Z</time>
      </trkpt>
      <trkpt lat="48.45111" lon="2.63701">
        <ele>137.928</ele>
        <time>2016-09-11T06:18:16Z</time>
      </trkpt>
      <trkpt lat="48.45102" lon="2.63728">
        <ele>137.061</ele>
        <time>2016-09-11T06:18:21Z</time>
      </trkpt>
      <trkpt lat="48.45095" lon="2.6376">
        <ele>137.188</ele>
        <time>2016-09-11T06:18:26Z</time>
      </trkpt>
      <trkpt lat="48.4509" lon="2.63793">
        <ele>137.58</ele>
        <time>2016-09-11T06:18:31Z</time>
      </trkpt>
      <trkpt lat="48.45087" lon="2.63825">
        <ele>137.396</ele>
        <time>2016-09-11T06:18:36Z</time>
      </trkpt>
      <trkpt lat="48.45087" lon="2.63858">
        <ele>136.49</ele>
        <time>2016-09-11T06:18:41Z</time>
      </trkpt>
      <trkpt lat="48.45088" lon="2.63892">
        <ele>135.407</ele>
        <time>2016-09-11T06:18:46Z</time>
      </trkpt>
      <trkpt lat="48.45089" lon="2.63925">
        <ele>134.864</ele>
        <time>2016-09-11T06:18:51Z</time>
      </trkpt>
      <trkpt lat="48.45095" lon="2.63955">
        <ele>136.072</ele>
        <time>2016-09-11T06:18:56Z</time>
      </trkpt>
      <trkpt lat="48.45102" lon="2.63981">
        <ele>137.748</ele>
        <time>2016-09-11T06:19:01Z</time>
      </trkpt>
      <trkpt lat="48.45104" lon="2.64009">
        <ele>138.28</ele>
        <time>2016-09-11T06:19:06Z</time>
      </trkpt>
      <trkpt lat="48.45095" lon="2.64039">
        <ele>138.062</ele>
        <time>2016-09-11T06:19:10Z</time>
      </trkpt>
      <trkpt lat="48.45086" lon="2.64067">
        <ele>138.143</ele>
        <time>2016-09-11T06:19:14Z</time>
      </trkpt>
      <trkpt lat="48.45075" lon="2.64094">
        <ele>138.359</ele>
        <time>2016-09-11T06:19:20Z</time>
      </trkpt>
      <trkpt lat="48.45062" lon="2.64113">
        <ele>138.607</ele>
        <time>2016-09-11T06:19:26Z</time>
      </trkpt>
      <trkpt lat="48.45047" lon="2.64133">
        <ele>139.214</ele>
        <time>2016-09-11T06:19:31Z</time>
      </trkpt>
      <trkpt lat="48.45032" lon="2.64153">
        <ele>140.18</ele>
        <time>2016-09-11T06:19:36Z</time>
      </trkpt>
      <trkpt lat="48.45018" lon="2.64172">
        <ele>141.306</ele>
        <time>2016-09-11T06:19:41Z</time>
      </trkpt>
      <trkpt lat="48.45003" lon="2.64195">
        <ele>142.137</ele>
        <time>2016-09-11T06:19:47Z</time>
      </trkpt>
      <trkpt lat="48.4499" lon="2.64218">
        <ele>142.836</ele>
        <time>2016-09-11T06:19:52Z</time>
      </trkpt>
      <trkpt lat="48.44977" lon="2.64239">
        <ele>143</ele>
        <time>2016-09-11T06:19:57Z</time>
      </trkpt>
      <trkpt lat="48.44964" lon="2.6426">
        <ele>142.889</ele>
        <time>2016-09-11T06:20:02Z</time>
      </trkpt>
      <trkpt lat="48.44951" lon="2.64279">
        <ele>142.218</ele>
        <time>2016-09-11T06:20:06Z</time>
      </trkpt>
      <trkpt lat="48.44939" lon="2.643">
        <ele>141.608</ele>
        <time>2016-09-11T06:20:10Z</time>
      </trkpt>
      <trkpt lat="48.44935" lon="2.64333">
        <ele>140.988</ele>
        <time>2016-09-11T06:20:15Z</time>
      </trkpt>
      <trkpt lat="48.44944" lon="2.6436">
        <ele>141.038</ele>
        <time>2016-09-11T06:20:20Z</time>
      </trkpt>
      <trkpt lat="48.44955" lon="2.64386">
        <ele>141.748</ele>
        <time>2016-09-11T06:20:25Z</time>
      </trkpt>
      <trkpt lat="48.44957" lon="2.64415">
        <ele>141.837</ele>
        <time>2016-09-11T06:20:30Z</time>
      </trkpt>
      <trkpt lat="48.44955" lon="2.64446">
        <ele>141.79</ele>
        <time>2016-09-11T06:20:35Z</time>
      </trkpt>
      <trkpt lat="48.44953" lon="2.64476">
        <ele>141.179</ele>
        <time>2016-09-11T06:20:40Z</time>
      </trkpt>
      <trkpt lat="48.44955" lon="2.64509">
        <ele>140.839</ele>
        <time>2016-09-11T06:20:46Z</time>
      </trkpt>
      <trkpt lat="48.44956" lon="2.64536">
        <ele>140.484</ele>
        <time>2016-09-11T06:20:51Z</time>
      </trkpt>
      <trkpt lat="48.44957" lon="2.64564">
        <ele>139.962</ele>
        <time>2016-09-11T06:20:56Z</time>
      </trkpt>
      <trkpt lat="48.44956" lon="2.64594">
        <ele>139.214</ele>
        <time>2016-09-11T06:21:01Z</time>
      </trkpt>
      <trkpt lat="48.44954" lon="2.64623">
        <ele>139.75</ele>
        <time>2016-09-11T06:21:06Z</time>
      </trkpt>
      <trkpt lat="48.44954" lon="2.64653">
        <ele>141.416</ele>
        <time>2016-09-11T06:21:12Z</time>
      </trkpt>
      <trkpt lat="48.44951" lon="2.6468">
        <ele>141.992</ele>
        <time>2016-09-11T06:21:21Z</time>
      </trkpt>
      <trkpt lat="48.44943" lon="2.64655">
        <ele>140.048</ele>
        <time>2016-09-11T06:21:32Z</time>
      </trkpt>
      <trkpt lat="48.44926" lon="2.64639">
        <ele>137.668</ele>
        <time>2016-09-11T06:21:38Z</time>
      </trkpt>
      <trkpt lat="48.4491" lon="2.64616">
        <ele>134.947</ele>
        <time>2016-09-11T06:21:44Z</time>
      </trkpt>
      <trkpt lat="48.44903" lon="2.6459">
        <ele>132.532</ele>
        <time>2016-09-11T06:21:49Z</time>
      </trkpt>
      <trkpt lat="48.44893" lon="2.64562">
        <ele>130.805</ele>
        <time>2016-09-11T06:21:55Z</time>
      </trkpt>
      <trkpt lat="48.44888" lon="2.64537">
        <ele>130.572</ele>
        <time>2016-09-11T06:22:00Z</time>
      </trkpt>
      <trkpt lat="48.4487" lon="2.64525">
        <ele>129.025</ele>
        <time>2016-09-11T06:22:06Z</time>
      </trkpt>
      <trkpt lat="48.44856" lon="2.64547">
        <ele>126.547</ele>
        <time>2016-09-11T06:22:12Z</time>
      </trkpt>
      <trkpt lat="48.44841" lon="2.64562">
        <ele>124.52</ele>
        <time>2016-09-11T06:22:17Z</time>
      </trkpt>
      <trkpt lat="48.44822" lon="2.64558">
        <ele>121.568</ele>
        <time>2016-09-11T06:22:25Z</time>
      </trkpt>
      <trkpt lat="48.44813" lon="2.64535">
        <ele>120.072</ele>
        <time>2016-09-11T06:22:32Z</time>
      </trkpt>
      <trkpt lat="48.44795" lon="2.64527">
        <ele>117.45</ele>
        <time>2016-09-11T06:22:38Z</time>
      </trkpt>
      <trkpt lat="48.44776" lon="2.6453">
        <ele>114.962</ele>
        <time>2016-09-11T06:22:43Z</time>
      </trkpt>
      <trkpt lat="48.44759" lon="2.64515">
        <ele>113.636</ele>
        <time>2016-09-11T06:22:49Z</time>
      </trkpt>
      <trkpt lat="48.44741" lon="2.64502">
        <ele>112.4</ele>
        <time>2016-09-11T06:22:56Z</time>
      </trkpt>
      <trkpt lat="48.44723" lon="2.64486">
        <ele>111.544</ele>
        <time>2016-09-11T06:23:03Z</time>
      </trkpt>
      <trkpt lat="48.44707" lon="2.64473">
        <ele>109.856</ele>
        <time>2016-09-11T06:23:09Z</time>
      </trkpt>
      <trkpt lat="48.44688" lon="2.64467">
        <ele>107.048</ele>
        <time>2016-09-11T06:23:15Z</time>
      </trkpt>
      <trkpt lat="48.4467" lon="2.64464">
        <ele>104.432</ele>
        <time>2016-09-11T06:23:22Z</time>
      </trkpt>
      <trkpt lat="48.44653" lon="2.64449">
        <ele>102.59</ele>
        <time>2016-09-11T06:23:27Z</time>
      </trkpt>
      <trkpt lat="48.44654" lon="2.64422">
        <ele>102.974</ele>
        <time>2016-09-11T06:23:33Z</time>
      </trkpt>
      <trkpt lat="48.44652" lon="2.64393">
        <ele>103.786</ele>
        <time>2016-09-11T06:23:39Z</time>
      </trkpt>
      <trkpt lat="48.44637" lon="2.64377">
        <ele>102.647</ele>
        <time>2016-09-11T06:23:44Z</time>
      </trkpt>
      <trkpt lat="48.4462" lon="2.64367">
        <ele>101.59</ele>
        <time>2016-09-11T06:23:49Z</time>
      </trkpt>
      <trkpt lat="48.446" lon="2.64375">
        <ele>99.4</ele>
        <time>2016-09-11T06:23:55Z</time>
      </trkpt>
      <trkpt lat="48.44581" lon="2.64373">
        <ele>98.65</ele>
        <time>2016-09-11T06:24:01Z</time>
      </trkpt>
      <trkpt lat="48.44563" lon="2.64367">
        <ele>99.532</ele>
        <time>2016-09-11T06:24:08Z</time>
      </trkpt>
      <trkpt lat="48.44548" lon="2.64345">
        <ele>100.841</ele>
        <time>2016-09-11T06:24:15Z</time>
      </trkpt>
      <trkpt lat="48.44545" lon="2.64316">
        <ele>101.252</ele>
        <time>2016-09-11T06:24:21Z</time>
      </trkpt>
      <trkpt lat="48.44541" lon="2.64286">
        <ele>100.976</ele>
        <time>2016-09-11T06:24:27Z</time>
      </trkpt>
      <trkpt lat="48.44545" lon="2.64259">
        <ele>100.564</ele>
        <time>2016-09-11T06:24:32Z</time>
      </trkpt>
      <trkpt lat="48.44547" lon="2.64231">
        <ele>99.646</ele>
        <time>2016-09-11T06:24:37Z</time>
      </trkpt>
      <trkpt lat="48.44542" lon="2.64202">
        <ele>98.314</ele>
        <time>2016-09-11T06:24:42Z</time>
      </trkpt>
      <trkpt lat="48.44545" lon="2.64172">
        <ele>98.216</ele>
        <time>2016-09-11T06:24:47Z</time>
      </trkpt>
      <trkpt lat="48.44548" lon="2.64139">
        <ele>98.209</ele>
        <time>2016-09-11T06:24:52Z</time>
      </trkpt>
      <trkpt lat="48.44557" lon="2.64109">
        <ele>98.134</ele>
        <time>2016-09-11T06:24:57Z</time>
      </trkpt>
      <trkpt lat="48.44563" lon="2.64082">
        <ele>98.518</ele>
        <time>2016-09-11T06:25:01Z</time>
      </trkpt>
      <trkpt lat="48.44568" lon="2.6405">
        <ele>97.696</ele>
        <time>2016-09-11T06:25:06Z</time>
      </trkpt>
      <trkpt lat="48.44573" lon="2.64019">
        <ele>96.964</ele>
        <time>2016-09-11T06:25:11Z</time>
      </trkpt>
      <trkpt lat="48.4458" lon="2.63988">
        <ele>95.969</ele>
        <time>2016-09-11T06:25:16Z</time>
      </trkpt>
      <trkpt lat="48.44586" lon="2.63958">
        <ele>94.572</ele>
        <time>2016-09-11T06:25:21Z</time>
      </trkpt>
      <trkpt lat="48.44592" lon="2.63928">
        <ele>94.3</ele>
        <time>2016-09-11T06:25:26Z</time>
      </trkpt>
      <trkpt lat="48.44597" lon="2.63902">
        <ele>94.486</ele>
        <time>2016-09-11T06:25:31Z</time>
      </trkpt>
      <trkpt lat="48.44603" lon="2.63875">
        <ele>93.858</ele>
        <time>2016-09-11T06:25:36Z</time>
      </trkpt>
      <trkpt lat="48.44608" lon="2.63849">
        <ele>92.546</ele>
        <time>2016-09-11T06:25:41Z</time>
      </trkpt>
      <trkpt lat="48.4461" lon="2.6382">
        <ele>91.502</ele>
        <time>2016-09-11T06:25:47Z</time>
      </trkpt>
      <trkpt lat="48.44607" lon="2.63792">
        <ele>90.436</ele>
        <time>2016-09-11T06:25:54Z</time>
      </trkpt>
      <trkpt lat="48.44595" lon="2.63769">
        <ele>89.098</ele>
        <time>2016-09-11T06:26:01Z</time>
      </trkpt>
      <trkpt lat="48.44583" lon="2.63747">
        <ele>87.886</ele>
        <time>2016-09-11T06:26:07Z</time>
      </trkpt>
      <trkpt lat="48.44565" lon="2.63748">
        <ele>87.91</ele>
        <time>2016-09-11T06:26:14Z</time>
      </trkpt>
      <trkpt lat="48.44547" lon="2.63742">
        <ele>88.31</ele>
        <time>2016-09-11T06:26:20Z</time>
      </trkpt>
      <trkpt lat="48.44527" lon="2.63744">
        <ele>89.85</ele>
        <time>2016-09-11T06:26:32Z</time>
      </trkpt>
      <trkpt lat="48.44527" lon="2.63713">
        <ele>89.122</ele>
        <time>2016-09-11T06:26:42Z</time>
      </trkpt>
      <trkpt lat="48.44535" lon="2.63687">
        <ele>88.758</ele>
        <time>2016-09-11T06:26:49Z</time>
      </trkpt>
      <trkpt lat="48.44529" lon="2.63658">
        <ele>88.956</ele>
        <time>2016-09-11T06:26:57Z</time>
      </trkpt>
      <trkpt lat="48.44519" lon="2.63632">
        <ele>88.941</ele>
        <time>2016-09-11T06:27:04Z</time>
      </trkpt>
      <trkpt lat="48.44508" lon="2.63608">
        <ele>88.387</ele>
        <time>2016-09-11T06:27:10Z</time>
      </trkpt>
      <trkpt lat="48.44497" lon="2.63581">
        <ele>89.306</ele>
        <time>2016-09-11T06:27:16Z</time>
      </trkpt>
      <trkpt lat="48.44488" lon="2.63557">
        <ele>89.834</ele>
        <time>2016-09-11T06:27:22Z</time>
      </trkpt>
      <trkpt lat="48.44476" lon="2.63531">
        <ele>90.531</ele>
        <time>2016-09-11T06:27:28Z</time>
      </trkpt>
      <trkpt lat="48.44466" lon="2.63506">
        <ele>91.004</ele>
        <time>2016-09-11T06:27:34Z</time>
      </trkpt>
      <trkpt lat="48.44455" lon="2.6348">
        <ele>90.956</ele>
        <time>2016-09-11T06:27:40Z</time>
      </trkpt>
      <trkpt lat="48.44446" lon="2.63453">
        <ele>90.447</ele>
        <time>2016-09-11T06:27:46Z</time>
      </trkpt>
      <trkpt lat="48.44437" lon="2.63428">
        <ele>90.689</ele>
        <time>2016-09-11T06:27:51Z</time>
      </trkpt>
      <trkpt lat="48.4443" lon="2.634">
        <ele>90.761</ele>
        <time>2016-09-11T06:27:57Z</time>
      </trkpt>
      <trkpt lat="48.4442" lon="2.63372">
        <ele>91.767</ele>
        <time>2016-09-11T06:28:02Z</time>
      </trkpt>
      <trkpt lat="48.44414" lon="2.63342">
        <ele>91.689</ele>
        <time>2016-09-11T06:28:07Z</time>
      </trkpt>
      <trkpt lat="48.44409" lon="2.63315">
        <ele>91.402</ele>
        <time>2016-09-11T06:28:12Z</time>
      </trkpt>
      <trkpt lat="48.44404" lon="2.63285">
        <ele>90.356</ele>
        <time>2016-09-11T06:28:18Z</time>
      </trkpt>
      <trkpt lat="48.44397" lon="2.63257">
        <ele>90.555</ele>
        <time>2016-09-11T06:28:23Z</time>
      </trkpt>
      <trkpt lat="48.44391" lon="2.63229">
        <ele>91.679</ele>
        <time>2016-09-11T06:28:28Z</time>
      </trkpt>
      <trkpt lat="48.44383" lon="2.63202">
        <ele>92.096</ele>
        <time>2016-09-11T06:28:33Z</time>
      </trkpt>
      <trkpt lat="48.44374" lon="2.63177">
        <ele>92.159</ele>
        <time>2016-09-11T06:28:38Z</time>
      </trkpt>
      <trkpt lat="48.44365" lon="2.63152">
        <ele>91.488</ele>
        <time>2016-09-11T06:28:44Z</time>
      </trkpt>
      <trkpt lat="48.44355" lon="2.63124">
        <ele>90.493</ele>
        <time>2016-09-11T06:28:50Z</time>
      </trkpt>
      <trkpt lat="48.44347" lon="2.63098">
        <ele>90.056</ele>
        <time>2016-09-11T06:28:56Z</time>
      </trkpt>
      <trkpt lat="48.44338" lon="2.63075">
        <ele>90.289</ele>
        <time>2016-09-11T06:29:04Z</time>
      </trkpt>
      <trkpt lat="48.44327" lon="2.6305">
        <ele>90.545</ele>
        <time>2016-09-11T06:29:10Z</time>
      </trkpt>
      <trkpt lat="48.44312" lon="2.63029">
        <ele>92.867</ele>
        <time>2016-09-11T06:29:16Z</time>
      </trkpt>
      <trkpt lat="48.44298" lon="2.63009">
        <ele>93.183</ele>
        <time>2016-09-11T06:29:22Z</time>
      </trkpt>
      <trkpt lat="48.44287" lon="2.62985">
        <ele>92.287</ele>
        <time>2016-09-11T06:29:28Z</time>
      </trkpt>
      <trkpt lat="48.44274" lon="2.62961">
        <ele>91.017</ele>
        <time>2016-09-11T06:29:35Z</time>
      </trkpt>
      <trkpt lat="48.44261" lon="2.62936">
        <ele>90.277</ele>
        <time>2016-09-11T06:29:42Z</time>
      </trkpt>
      <trkpt lat="48.4425" lon="2.6291">
        <ele>90.634</ele>
        <time>2016-09-11T06:29:49Z</time>
      </trkpt>
      <trkpt lat="48.4424" lon="2.62882">
        <ele>90.483</ele>
        <time>2016-09-11T06:29:55Z</time>
      </trkpt>
      <trkpt lat="48.44232" lon="2.62858">
        <ele>90.294</ele>
        <time>2016-09-11T06:30:01Z</time>
      </trkpt>
      <trkpt lat="48.44226" lon="2.62831">
        <ele>88.3</ele>
        <time>2016-09-11T06:30:07Z</time>
      </trkpt>
      <trkpt lat="48.44219" lon="2.62801">
        <ele>86.303</ele>
        <time>2016-09-11T06:30:13Z</time>
      </trkpt>
      <trkpt lat="48.44212" lon="2.62774">
        <ele>86.077</ele>
        <time>2016-09-11T06:30:18Z</time>
      </trkpt>
      <trkpt lat="48.44203" lon="2.62748">
        <ele>86.636</ele>
        <time>2016-09-11T06:30:23Z</time>
      </trkpt>
      <trkpt lat="48.44194" lon="2.62724">
        <ele>86.33</ele>
        <time>2016-09-11T06:30:28Z</time>
      </trkpt>
      <trkpt lat="48.44183" lon="2.62696">
        <ele>87.559</ele>
        <time>2016-09-11T06:30:34Z</time>
      </trkpt>
      <trkpt lat="48.44172" lon="2.6267">
        <ele>89.777</ele>
        <time>2016-09-11T06:30:40Z</time>
      </trkpt>
      <trkpt lat="48.44163" lon="2.62642">
        <ele>90.466</ele>
        <time>2016-09-11T06:30:47Z</time>
      </trkpt>
      <trkpt lat="48.44154" lon="2.62614">
        <ele>91.422</ele>
        <time>2016-09-11T06:30:54Z</time>
      </trkpt>
      <trkpt lat="48.44145" lon="2.62589">
        <ele>91.731</ele>
        <time>2016-09-11T06:31:01Z</time>
      </trkpt>
      <trkpt lat="48.44135" lon="2.62562">
        <ele>92.17</ele>
        <time>2016-09-11T06:31:07Z</time>
      </trkpt>
      <trkpt lat="48.44125" lon="2.62534">
        <ele>92.119</ele>
        <time>2016-09-11T06:31:13Z</time>
      </trkpt>
      <trkpt lat="48.44117" lon="2.62506">
        <ele>91.204</ele>
        <time>2016-09-11T06:31:19Z</time>
      </trkpt>
      <trkpt lat="48.44108" lon="2.62482">
        <ele>90.352</ele>
        <time>2016-09-11T06:31:25Z</time>
      </trkpt>
      <trkpt lat="48.44099" lon="2.62458">
        <ele>89.921</ele>
        <time>2016-09-11T06:31:30Z</time>
      </trkpt>
      <trkpt lat="48.44082" lon="2.62449">
        <ele>90.962</ele>
        <time>2016-09-11T06:31:35Z</time>
      </trkpt>
      <trkpt lat="48.44061" lon="2.62447">
        <ele>93.314</ele>
        <time>2016-09-11T06:31:41Z</time>
      </trkpt>
      <trkpt lat="48.44041" lon="2.62444">
        <ele>95.618</ele>
        <time>2016-09-11T06:31:48Z</time>
      </trkpt>
      <trkpt lat="48.44023" lon="2.6244">
        <ele>97.137</ele>
        <time>2016-09-11T06:31:55Z</time>
      </trkpt>
      <trkpt lat="48.44004" lon="2.62437">
        <ele>97.042</ele>
        <time>2016-09-11T06:32:03Z</time>
      </trkpt>
      <trkpt lat="48.43985" lon="2.62431">
        <ele>96.448</ele>
        <time>2016-09-11T06:32:10Z</time>
      </trkpt>
      <trkpt lat="48.43963" lon="2.62425">
        <ele>95.898</ele>
        <time>2016-09-11T06:32:16Z</time>
      </trkpt>
      <trkpt lat="48.43943" lon="2.62422">
        <ele>95.796</ele>
        <time>2016-09-11T06:32:21Z</time>
      </trkpt>
      <trkpt lat="48.43922" lon="2.62417">
        <ele>95.988</ele>
        <time>2016-09-11T06:32:26Z</time>
      </trkpt>
      <trkpt lat="48.43904" lon="2.62414">
        <ele>95.052</ele>
        <time>2016-09-11T06:32:30Z</time>
      </trkpt>
      <trkpt lat="48.43882" lon="2.6241">
        <ele>94.254</ele>
        <time>2016-09-11T06:32:35Z</time>
      </trkpt>
      <trkpt lat="48.43861" lon="2.62407">
        <ele>95</ele>
        <time>2016-09-11T06:32:40Z</time>
      </trkpt>
      <trkpt lat="48.43842" lon="2.62405">
        <ele>95</ele>
        <time>2016-09-11T06:32:45Z</time>
      </trkpt>
      <trkpt lat="48.43822" lon="2.62405">
        <ele>95</ele>
        <time>2016-09-11T06:32:51Z</time>
      </trkpt>
      <trkpt lat="48.438" lon="2.62402">
        <ele>95</ele>
        <time>2016-09-11T06:32:57Z</time>
      </trkpt>
      <trkpt lat="48.43781" lon="2.62398">
        <ele>95</ele>
        <time>2016-09-11T06:33:02Z</time>
      </trkpt>
      <trkpt lat="48.43763" lon="2.62398">
        <ele>95.173</ele>
        <time>2016-09-11T06:33:06Z</time>
      </trkpt>
      <trkpt lat="48.43744" lon="2.62401">
        <ele>95.902</ele>
        <time>2016-09-11T06:33:10Z</time>
      </trkpt>
      <trkpt lat="48.43725" lon="2.62404">
        <ele>97.262</ele>
        <time>2016-09-11T06:33:14Z</time>
      </trkpt>
      <trkpt lat="48.43705" lon="2.62405">
        <ele>97.775</ele>
        <time>2016-09-11T06:33:18Z</time>
      </trkpt>
      <trkpt lat="48.43686" lon="2.62408">
        <ele>98</ele>
        <time>2016-09-11T06:33:22Z</time>
      </trkpt>
      <trkpt lat="48.43667" lon="2.6241">
        <ele>98</ele>
        <time>2016-09-11T06:33:26Z</time>
      </trkpt>
      <trkpt lat="48.43646" lon="2.62411">
        <ele>98</ele>
        <time>2016-09-11T06:33:30Z</time>
      </trkpt>
      <trkpt lat="48.43628" lon="2.62413">
        <ele>98.349</ele>
        <time>2016-09-11T06:33:35Z</time>
      </trkpt>
      <trkpt lat="48.43609" lon="2.62417">
        <ele>99.018</ele>
        <time>2016-09-11T06:33:40Z</time>
      </trkpt>
      <trkpt lat="48.43587" lon="2.6242">
        <ele>99.126</ele>
        <time>2016-09-11T06:33:45Z</time>
      </trkpt>
      <trkpt lat="48.43567" lon="2.62423">
        <ele>98.513</ele>
        <time>2016-09-11T06:33:50Z</time>
      </trkpt>
      <trkpt lat="48.43546" lon="2.62425">
        <ele>97.898</ele>
        <time>2016-09-11T06:33:55Z</time>
      </trkpt>
      <trkpt lat="48.43526" lon="2.62428">
        <ele>97.656</ele>
        <time>2016-09-11T06:34:00Z</time>
      </trkpt>
      <trkpt lat="48.43508" lon="2.62429">
        <ele>98.268</ele>
        <time>2016-09-11T06:34:05Z</time>
      </trkpt>
      <trkpt lat="48.43489" lon="2.62426">
        <ele>99.48</ele>
        <time>2016-09-11T06:34:12Z</time>
      </trkpt>
      <trkpt lat="48.43471" lon="2.62421">
        <ele>100.962</ele>
        <time>2016-09-11T06:34:19Z</time>
      </trkpt>
      <trkpt lat="48.43453" lon="2.62413">
        <ele>102.42</ele>
        <time>2016-09-11T06:34:26Z</time>
      </trkpt>
      <trkpt lat="48.43433" lon="2.62407">
        <ele>103.836</ele>
        <time>2016-09-11T06:34:34Z</time>
      </trkpt>
      <trkpt lat="48.43415" lon="2.62404">
        <ele>105.132</ele>
        <time>2016-09-11T06:34:42Z</time>
      </trkpt>
      <trkpt lat="48.43397" lon="2.62402">
        <ele>106.452</ele>
        <time>2016-09-11T06:35:09Z</time>
      </trkpt>
      <trkpt lat="48.43378" lon="2.62401">
        <ele>108.733</ele>
        <time>2016-09-11T06:35:18Z</time>
      </trkpt>
      <trkpt lat="48.4336" lon="2.62402">
        <ele>111.747</ele>
        <time>2016-09-11T06:35:26Z</time>
      </trkpt>
      <trkpt lat="48.43343" lon="2.62408">
        <ele>115.119</ele>
        <time>2016-09-11T06:35:37Z</time>
      </trkpt>
      <trkpt lat="48.43323" lon="2.62413">
        <ele>119.21</ele>
        <time>2016-09-11T06:35:46Z</time>
      </trkpt>
      <trkpt lat="48.43304" lon="2.62415">
        <ele>123.232</ele>
        <time>2016-09-11T06:35:56Z</time>
      </trkpt>
      <trkpt lat="48.43285" lon="2.62406">
        <ele>125.879</ele>
        <time>2016-09-11T06:36:07Z</time>
      </trkpt>
      <trkpt lat="48.43268" lon="2.62392">
        <ele>128.599</ele>
        <time>2016-09-11T06:36:16Z</time>
      </trkpt>
      <trkpt lat="48.43253" lon="2.62374">
        <ele>129.409</ele>
        <time>2016-09-11T06:36:25Z</time>
      </trkpt>
      <trkpt lat="48.4324" lon="2.62352">
        <ele>129.746</ele>
        <time>2016-09-11T06:36:34Z</time>
      </trkpt>
      <trkpt lat="48.43226" lon="2.62336">
        <ele>130.736</ele>
        <time>2016-09-11T06:36:44Z</time>
      </trkpt>
      <trkpt lat="48.43214" lon="2.62313">
        <ele>131.838</ele>
        <time>2016-09-11T06:36:56Z</time>
      </trkpt>
      <trkpt lat="48.43199" lon="2.62294">
        <ele>133.954</ele>
        <time>2016-09-11T06:37:06Z</time>
      </trkpt>
      <trkpt lat="48.43181" lon="2.62282">
        <ele>135.216</ele>
        <time>2016-09-11T06:37:20Z</time>
      </trkpt>
      <trkpt lat="48.43163" lon="2.62272">
        <ele>136.478</ele>
        <time>2016-09-11T06:37:33Z</time>
      </trkpt>
      <trkpt lat="48.43145" lon="2.62261">
        <ele>138.684</ele>
        <time>2016-09-11T06:37:43Z</time>
      </trkpt>
      <trkpt lat="48.43126" lon="2.62245">
        <ele>139.178</ele>
        <time>2016-09-11T06:37:49Z</time>
      </trkpt>
      <trkpt lat="48.4311" lon="2.6223">
        <ele>138.608</ele>
        <time>2016-09-11T06:37:55Z</time>
      </trkpt>
      <trkpt lat="48.43095" lon="2.62213">
        <ele>137.681</ele>
        <time>2016-09-11T06:38:02Z</time>
      </trkpt>
      <trkpt lat="48.43081" lon="2.62194">
        <ele>136.132</ele>
        <time>2016-09-11T06:38:08Z</time>
      </trkpt>
      <trkpt lat="48.43064" lon="2.62176">
        <ele>136.25</ele>
        <time>2016-09-11T06:38:13Z</time>
      </trkpt>
      <trkpt lat="48.43047" lon="2.6216">
        <ele>135.908</ele>
        <time>2016-09-11T06:38:18Z</time>
      </trkpt>
      <trkpt lat="48.43031" lon="2.62145">
        <ele>135.374</ele>
        <time>2016-09-11T06:38:23Z</time>
      </trkpt>
      <trkpt lat="48.43015" lon="2.62128">
        <ele>135.619</ele>
        <time>2016-09-11T06:38:28Z</time>
      </trkpt>
      <trkpt lat="48.42998" lon="2.62113">
        <ele>136.388</ele>
        <time>2016-09-11T06:38:33Z</time>
      </trkpt>
      <trkpt lat="48.4298" lon="2.62098">
        <ele>137.816</ele>
        <time>2016-09-11T06:38:38Z</time>
      </trkpt>
      <trkpt lat="48.42964" lon="2.6208">
        <ele>138.55</ele>
        <time>2016-09-11T06:38:44Z</time>
      </trkpt>
      <trkpt lat="48.42946" lon="2.62064">
        <ele>139.849</ele>
        <time>2016-09-11T06:38:50Z</time>
      </trkpt>
      <trkpt lat="48.42929" lon="2.62051">
        <ele>140.163</ele>
        <time>2016-09-11T06:38:58Z</time>
      </trkpt>
      <trkpt lat="48.42911" lon="2.62047">
        <ele>140.154</ele>
        <time>2016-09-11T06:39:08Z</time>
      </trkpt>
      <trkpt lat="48.42891" lon="2.62056">
        <ele>139.152</ele>
        <time>2016-09-11T06:39:54Z</time>
      </trkpt>
      <trkpt lat="48.42874" lon="2.62068">
        <ele>139</ele>
        <time>2016-09-11T06:40:01Z</time>
      </trkpt>
      <trkpt lat="48.42857" lon="2.6208">
        <ele>139</ele>
        <time>2016-09-11T06:40:07Z</time>
      </trkpt>
      <trkpt lat="48.4284" lon="2.62094">
        <ele>139</ele>
        <time>2016-09-11T06:40:11Z</time>
      </trkpt>
      <trkpt lat="48.42825" lon="2.62108">
        <ele>139</ele>
        <time>2016-09-11T06:40:15Z</time>
      </trkpt>
      <trkpt lat="48.42809" lon="2.62122">
        <ele>139</ele>
        <time>2016-09-11T06:40:20Z</time>
      </trkpt>
      <trkpt lat="48.42793" lon="2.6214">
        <ele>138.083</ele>
        <time>2016-09-11T06:40:25Z</time>
      </trkpt>
      <trkpt lat="48.42775" lon="2.62157">
        <ele>136.906</ele>
        <time>2016-09-11T06:40:30Z</time>
      </trkpt>
      <trkpt lat="48.42758" lon="2.62166">
        <ele>136.282</ele>
        <time>2016-09-11T06:40:34Z</time>
      </trkpt>
      <trkpt lat="48.42739" lon="2.62166">
        <ele>135.208</ele>
        <time>2016-09-11T06:40:39Z</time>
      </trkpt>
      <trkpt lat="48.42721" lon="2.62154">
        <ele>133.832</ele>
        <time>2016-09-11T06:40:45Z</time>
      </trkpt>
      <trkpt lat="48.42704" lon="2.62141">
        <ele>132.032</ele>
        <time>2016-09-11T06:40:49Z</time>
      </trkpt>
      <trkpt lat="48.42683" lon="2.62129">
        <ele>130.096</ele>
        <time>2016-09-11T06:40:54Z</time>
      </trkpt>
      <trkpt lat="48.42664" lon="2.62127">
        <ele>128.17</ele>
        <time>2016-09-11T06:40:58Z</time>
      </trkpt>
      <trkpt lat="48.42644" lon="2.62128">
        <ele>125.938</ele>
        <time>2016-09-11T06:41:02Z</time>
      </trkpt>
      <trkpt lat="48.42623" lon="2.62128">
        <ele>123.73</ele>
        <time>2016-09-11T06:41:06Z</time>
      </trkpt>
      <trkpt lat="48.42602" lon="2.62124">
        <ele>121.26</ele>
        <time>2016-09-11T06:41:10Z</time>
      </trkpt>
      <trkpt lat="48.42581" lon="2.62118">
        <ele>118.53</ele>
        <time>2016-09-11T06:41:14Z</time>
      </trkpt>
      <trkpt lat="48.42559" lon="2.62112">
        <ele>116.334</ele>
        <time>2016-09-11T06:41:18Z</time>
      </trkpt>
      <trkpt lat="48.42537" lon="2.62107">
        <ele>114.609</ele>
        <time>2016-09-11T06:41:22Z</time>
      </trkpt>
      <trkpt lat="48.42515" lon="2.62101">
        <ele>112.184</ele>
        <time>2016-09-11T06:41:26Z</time>
      </trkpt>
      <trkpt lat="48.42496" lon="2.62096">
        <ele>109.511</ele>
        <time>2016-09-11T06:41:29Z</time>
      </trkpt>
      <trkpt lat="48.42477" lon="2.62092">
        <ele>107</ele>
        <time>2016-09-11T06:41:32Z</time>
      </trkpt>
      <trkpt lat="48.42458" lon="2.62088">
        <ele>105.052</ele>
        <time>2016-09-11T06:41:35Z</time>
      </trkpt>
      <trkpt lat="48.42439" lon="2.62082">
        <ele>103.804</ele>
        <time>2016-09-11T06:41:38Z</time>
      </trkpt>
      <trkpt lat="48.42421" lon="2.62077">
        <ele>103.162</ele>
        <time>2016-09-11T06:41:41Z</time>
      </trkpt>
      <trkpt lat="48.42403" lon="2.62072">
        <ele>102.496</ele>
        <time>2016-09-11T06:41:44Z</time>
      </trkpt>
      <trkpt lat="48.42385" lon="2.62066">
        <ele>102</ele>
        <time>2016-09-11T06:41:47Z</time>
      </trkpt>
      <trkpt lat="48.42362" lon="2.62061">
        <ele>102</ele>
        <time>2016-09-11T06:41:51Z</time>
      </trkpt>
      <trkpt lat="48.42342" lon="2.62063">
        <ele>102.676</ele>
        <time>2016-09-11T06:41:55Z</time>
      </trkpt>
      <trkpt lat="48.42326" lon="2.62075">
        <ele>103</ele>
        <time>2016-09-11T06:42:00Z</time>
      </trkpt>
      <trkpt lat="48.4231" lon="2.62093">
        <ele>102.768</ele>
        <time>2016-09-11T06:42:06Z</time>
      </trkpt>
      <trkpt lat="48.42297" lon="2.62115">
        <ele>100.87</ele>
        <time>2016-09-11T06:42:11Z</time>
      </trkpt>
      <trkpt lat="48.42283" lon="2.62137">
        <ele>98.584</ele>
        <time>2016-09-11T06:42:16Z</time>
      </trkpt>
      <trkpt lat="48.4227" lon="2.62157">
        <ele>97.714</ele>
        <time>2016-09-11T06:42:21Z</time>
      </trkpt>
      <trkpt lat="48.42256" lon="2.6218">
        <ele>97.204</ele>
        <time>2016-09-11T06:42:26Z</time>
      </trkpt>
      <trkpt lat="48.42242" lon="2.62201">
        <ele>97.23</ele>
        <time>2016-09-11T06:42:32Z</time>
      </trkpt>
      <trkpt lat="48.42227" lon="2.62221">
        <ele>97.968</ele>
        <time>2016-09-11T06:42:38Z</time>
      </trkpt>
      <trkpt lat="48.42213" lon="2.62243">
        <ele>98.742</ele>
        <time>2016-09-11T06:42:43Z</time>
      </trkpt>
      <trkpt lat="48.422" lon="2.62263">
        <ele>99.456</ele>
        <time>2016-09-11T06:42:48Z</time>
      </trkpt>
      <trkpt lat="48.42185" lon="2.62282">
        <ele>99.88</ele>
        <time>2016-09-11T06:42:53Z</time>
      </trkpt>
      <trkpt lat="48.42172" lon="2.62306">
        <ele>101.01</ele>
        <time>2016-09-11T06:43:00Z</time>
      </trkpt>
      <trkpt lat="48.42158" lon="2.62326">
        <ele>101.921</ele>
        <time>2016-09-11T06:43:05Z</time>
      </trkpt>
      <trkpt lat="48.42145" lon="2.62346">
        <ele>102.34</ele>
        <time>2016-09-11T06:43:10Z</time>
      </trkpt>
      <trkpt lat="48.42132" lon="2.62368">
        <ele>102.22</ele>
        <time>2016-09-11T06:43:15Z</time>
      </trkpt>
      <trkpt lat="48.4212" lon="2.62393">
        <ele>101.048</ele>
        <time>2016-09-11T06:43:22Z</time>
      </trkpt>
      <trkpt lat="48.42108" lon="2.62414">
        <ele>100.916</ele>
        <time>2016-09-11T06:43:26Z</time>
      </trkpt>
      <trkpt lat="48.42099" lon="2.62439">
        <ele>101</ele>
        <time>2016-09-11T06:43:30Z</time>
      </trkpt>
      <trkpt lat="48.42094" lon="2.6247">
        <ele>101.902</ele>
        <time>2016-09-11T06:43:36Z</time>
      </trkpt>
      <trkpt lat="48.42091" lon="2.62501">
        <ele>103</ele>
        <time>2016-09-11T06:43:43Z</time>
      </trkpt>
      <trkpt lat="48.42087" lon="2.62529">
        <ele>103.027</ele>
        <time>2016-09-11T06:43:50Z</time>
      </trkpt>
      <trkpt lat="48.42083" lon="2.62556">
        <ele>103.998</ele>
        <time>2016-09-11T06:43:56Z</time>
      </trkpt>
      <trkpt lat="48.42082" lon="2.62584">
        <ele>104.001</ele>
        <time>2016-09-11T06:44:02Z</time>
      </trkpt>
      <trkpt lat="48.42079" lon="2.62612">
        <ele>104.166</ele>
        <time>2016-09-11T06:44:09Z</time>
      </trkpt>
      <trkpt lat="48.42077" lon="2.6264">
        <ele>104.978</ele>
        <time>2016-09-11T06:44:15Z</time>
      </trkpt>
      <trkpt lat="48.42075" lon="2.62671">
        <ele>104.312</ele>
        <time>2016-09-11T06:44:23Z</time>
      </trkpt>
      <trkpt lat="48.42073" lon="2.62699">
        <ele>104.214</ele>
        <time>2016-09-11T06:44:29Z</time>
      </trkpt>
      <trkpt lat="48.42071" lon="2.62728">
        <ele>103.464</ele>
        <time>2016-09-11T06:44:36Z</time>
      </trkpt>
      <trkpt lat="48.42071" lon="2.62758">
        <ele>103.676</ele>
        <time>2016-09-11T06:44:44Z</time>
      </trkpt>
      <trkpt lat="48.42068" lon="2.62786">
        <ele>104.136</ele>
        <time>2016-09-11T06:44:52Z</time>
      </trkpt>
      <trkpt lat="48.42065" lon="2.62817">
        <ele>104.468</ele>
        <time>2016-09-11T06:44:59Z</time>
      </trkpt>
      <trkpt lat="48.42059" lon="2.62846">
        <ele>105.24</ele>
        <time>2016-09-11T06:45:07Z</time>
      </trkpt>
      <trkpt lat="48.42058" lon="2.62874">
        <ele>105.79</ele>
        <time>2016-09-11T06:45:14Z</time>
      </trkpt>
      <trkpt lat="48.42055" lon="2.62904">
        <ele>106.157</ele>
        <time>2016-09-11T06:45:22Z</time>
      </trkpt>
      <trkpt lat="48.42054" lon="2.62934">
        <ele>107.59</ele>
        <time>2016-09-11T06:45:30Z</time>
      </trkpt>
      <trkpt lat="48.42051" lon="2.62961">
        <ele>109.865</ele>
        <time>2016-09-11T06:45:38Z</time>
      </trkpt>
      <trkpt lat="48.42049" lon="2.6299">
        <ele>111.615</ele>
        <time>2016-09-11T06:45:47Z</time>
      </trkpt>
      <trkpt lat="48.42043" lon="2.63016">
        <ele>112.808</ele>
        <time>2016-09-11T06:45:55Z</time>
      </trkpt>
      <trkpt lat="48.42041" lon="2.63046">
        <ele>113.716</ele>
        <time>2016-09-11T06:46:02Z</time>
      </trkpt>
      <trkpt lat="48.42039" lon="2.63074">
        <ele>115.27</ele>
        <time>2016-09-11T06:46:10Z</time>
      </trkpt>
      <trkpt lat="48.42032" lon="2.631">
        <ele>117.162</ele>
        <time>2016-09-11T06:46:48Z</time>
      </trkpt>
      <trkpt lat="48.42013" lon="2.63106">
        <ele>119.358</ele>
        <time>2016-09-11T06:46:59Z</time>
      </trkpt>
      <trkpt lat="48.41995" lon="2.63112">
        <ele>121.405</ele>
        <time>2016-09-11T06:47:10Z</time>
      </trkpt>
      <trkpt lat="48.41976" lon="2.63114">
        <ele>122.843</ele>
        <time>2016-09-11T06:47:21Z</time>
      </trkpt>
      <trkpt lat="48.41957" lon="2.63118">
        <ele>126.332</ele>
        <time>2016-09-11T06:47:33Z</time>
      </trkpt>
      <trkpt lat="48.41937" lon="2.63123">
        <ele>129.382</ele>
        <time>2016-09-11T06:47:45Z</time>
      </trkpt>
      <trkpt lat="48.41918" lon="2.63127">
        <ele>131.272</ele>
        <time>2016-09-11T06:47:58Z</time>
      </trkpt>
      <trkpt lat="48.419" lon="2.63131">
        <ele>131.709</ele>
        <time>2016-09-11T06:48:09Z</time>
      </trkpt>
      <trkpt lat="48.41881" lon="2.63135">
        <ele>132.29</ele>
        <time>2016-09-11T06:48:20Z</time>
      </trkpt>
      <trkpt lat="48.41861" lon="2.63136">
        <ele>133.004</ele>
        <time>2016-09-11T06:48:30Z</time>
      </trkpt>
      <trkpt lat="48.41842" lon="2.63139">
        <ele>133.7</ele>
        <time>2016-09-11T06:48:38Z</time>
      </trkpt>
      <trkpt lat="48.41822" lon="2.63141">
        <ele>134.416</ele>
        <time>2016-09-11T06:48:46Z</time>
      </trkpt>
      <trkpt lat="48.41803" lon="2.63143">
        <ele>134.87</ele>
        <time>2016-09-11T06:49:32Z</time>
      </trkpt>
      <trkpt lat="48.41785" lon="2.63145">
        <ele>134.774</ele>
        <time>2016-09-11T06:49:38Z</time>
      </trkpt>
      <trkpt lat="48.41766" lon="2.63149">
        <ele>134.792</ele>
        <time>2016-09-11T06:49:43Z</time>
      </trkpt>
      <trkpt lat="48.41747" lon="2.63153">
        <ele>135.301</ele>
        <time>2016-09-11T06:49:48Z</time>
      </trkpt>
      <trkpt lat="48.41727" lon="2.63159">
        <ele>137.267</ele>
        <time>2016-09-11T06:49:53Z</time>
      </trkpt>
      <trkpt lat="48.41707" lon="2.63166">
        <ele>137.989</ele>
        <time>2016-09-11T06:49:59Z</time>
      </trkpt>
      <trkpt lat="48.41686" lon="2.63169">
        <ele>137.412</ele>
        <time>2016-09-11T06:50:04Z</time>
      </trkpt>
      <trkpt lat="48.41666" lon="2.63173">
        <ele>136.203</ele>
        <time>2016-09-11T06:50:09Z</time>
      </trkpt>
      <trkpt lat="48.41648" lon="2.63176">
        <ele>135.238</ele>
        <time>2016-09-11T06:50:14Z</time>
      </trkpt>
      <trkpt lat="48.41638" lon="2.63199">
        <ele>136.32</ele>
        <time>2016-09-11T06:50:26Z</time>
      </trkpt>
      <trkpt lat="48.41652" lon="2.63222">
        <ele>138.004</ele>
        <time>2016-09-11T06:50:34Z</time>
      </trkpt>
      <trkpt lat="48.41665" lon="2.63245">
        <ele>138.097</ele>
        <time>2016-09-11T06:50:40Z</time>
      </trkpt>
      <trkpt lat="48.41678" lon="2.63264">
        <ele>137.463</ele>
        <time>2016-09-11T06:50:45Z</time>
      </trkpt>
      <trkpt lat="48.41691" lon="2.63284">
        <ele>136.604</ele>
        <time>2016-09-11T06:50:50Z</time>
      </trkpt>
      <trkpt lat="48.41705" lon="2.63304">
        <ele>135.839</ele>
        <time>2016-09-11T06:50:55Z</time>
      </trkpt>
      <trkpt lat="48.41719" lon="2.63326">
        <ele>135.737</ele>
        <time>2016-09-11T06:51:00Z</time>
      </trkpt>
      <trkpt lat="48.41733" lon="2.63346">
        <ele>136.569</ele>
        <time>2016-09-11T06:51:05Z</time>
      </trkpt>
      <trkpt lat="48.41746" lon="2.63365">
        <ele>137.78</ele>
        <time>2016-09-11T06:51:10Z</time>
      </trkpt>
      <trkpt lat="48.41759" lon="2.63385">
        <ele>138.306</ele>
        <time>2016-09-11T06:51:15Z</time>
      </trkpt>
      <trkpt lat="48.41773" lon="2.63406">
        <ele>137.968</ele>
        <time>2016-09-11T06:51:20Z</time>
      </trkpt>
      <trkpt lat="48.41787" lon="2.63426">
        <ele>138.032</ele>
        <time>2016-09-11T06:51:25Z</time>
      </trkpt>
      <trkpt lat="48.41804" lon="2.63448">
        <ele>138.493</ele>
        <time>2016-09-11T06:51:31Z</time>
      </trkpt>
      <trkpt lat="48.41819" lon="2.6347">
        <ele>139.865</ele>
        <time>2016-09-11T06:51:36Z</time>
      </trkpt>
      <trkpt lat="48.41834" lon="2.63493">
        <ele>139.688</ele>
        <time>2016-09-11T06:51:41Z</time>
      </trkpt>
      <trkpt lat="48.41849" lon="2.63514">
        <ele>138.449</ele>
        <time>2016-09-11T06:51:46Z</time>
      </trkpt>
      <trkpt lat="48.41865" lon="2.63533">
        <ele>137.32</ele>
        <time>2016-09-11T06:51:51Z</time>
      </trkpt>
      <trkpt lat="48.4188" lon="2.63553">
        <ele>138.412</ele>
        <time>2016-09-11T06:51:56Z</time>
      </trkpt>
      <trkpt lat="48.41895" lon="2.63577">
        <ele>139.537</ele>
        <time>2016-09-11T06:52:02Z</time>
      </trkpt>
      <trkpt lat="48.4191" lon="2.63595">
        <ele>139.007</ele>
        <time>2016-09-11T06:52:07Z</time>
      </trkpt>
      <trkpt lat="48.41925" lon="2.63616">
        <ele>138.276</ele>
        <time>2016-09-11T06:52:12Z</time>
      </trkpt>
      <trkpt lat="48.4194" lon="2.63638">
        <ele>137.718</ele>
        <time>2016-09-11T06:52:18Z</time>
      </trkpt>
      <trkpt lat="48.41953" lon="2.6366">
        <ele>137.329</ele>
        <time>2016-09-11T06:52:24Z</time>
      </trkpt>
      <trkpt lat="48.41968" lon="2.63682">
        <ele>137.125</ele>
        <time>2016-09-11T06:52:30Z</time>
      </trkpt>
      <trkpt lat="48.41981" lon="2.63702">
        <ele>138.243</ele>
        <time>2016-09-11T06:52:35Z</time>
      </trkpt>
      <trkpt lat="48.41996" lon="2.63722">
        <ele>139.3</ele>
        <time>2016-09-11T06:52:40Z</time>
      </trkpt>
      <trkpt lat="48.42008" lon="2.63742">
        <ele>139.172</ele>
        <time>2016-09-11T06:52:45Z</time>
      </trkpt>
      <trkpt lat="48.42014" lon="2.6377">
        <ele>139.676</ele>
        <time>2016-09-11T06:52:51Z</time>
      </trkpt>
      <trkpt lat="48.42017" lon="2.63797">
        <ele>140.48</ele>
        <time>2016-09-11T06:52:57Z</time>
      </trkpt>
      <trkpt lat="48.42019" lon="2.63827">
        <ele>140.845</ele>
        <time>2016-09-11T06:53:03Z</time>
      </trkpt>
      <trkpt lat="48.42022" lon="2.63855">
        <ele>140.678</ele>
        <time>2016-09-11T06:53:09Z</time>
      </trkpt>
      <trkpt lat="48.42024" lon="2.63884">
        <ele>139.572</ele>
        <time>2016-09-11T06:53:15Z</time>
      </trkpt>
      <trkpt lat="48.42027" lon="2.63911">
        <ele>139.084</ele>
        <time>2016-09-11T06:53:21Z</time>
      </trkpt>
      <trkpt lat="48.42026" lon="2.63941">
        <ele>139.999</ele>
        <time>2016-09-11T06:53:31Z</time>
      </trkpt>
      <trkpt lat="48.42029" lon="2.63971">
        <ele>140.922</ele>
        <time>2016-09-11T06:53:40Z</time>
      </trkpt>
      <trkpt lat="48.42028" lon="2.63999">
        <ele>141.932</ele>
        <time>2016-09-11T06:53:46Z</time>
      </trkpt>
      <trkpt lat="48.4203" lon="2.64027">
        <ele>142.91</ele>
        <time>2016-09-11T06:53:52Z</time>
      </trkpt>
      <trkpt lat="48.42033" lon="2.64054">
        <ele>142.8</ele>
        <time>2016-09-11T06:53:58Z</time>
      </trkpt>
      <trkpt lat="48.42036" lon="2.64082">
        <ele>142.048</ele>
        <time>2016-09-11T06:54:04Z</time>
      </trkpt>
      <trkpt lat="48.42035" lon="2.64109">
        <ele>141.064</ele>
        <time>2016-09-11T06:54:10Z</time>
      </trkpt>
      <trkpt lat="48.42038" lon="2.64141">
        <ele>139.286</ele>
        <time>2016-09-11T06:54:16Z</time>
      </trkpt>
      <trkpt lat="48.42041" lon="2.64171">
        <ele>138.344</ele>
        <time>2016-09-11T06:54:21Z</time>
      </trkpt>
      <trkpt lat="48.42044" lon="2.64202">
        <ele>137.596</ele>
        <time>2016-09-11T06:54:27Z</time>
      </trkpt>
      <trkpt lat="48.4205" lon="2.64232">
        <ele>138.48</ele>
        <time>2016-09-11T06:54:32Z</time>
      </trkpt>
      <trkpt lat="48.42054" lon="2.64261">
        <ele>140.339</ele>
        <time>2016-09-11T06:54:38Z</time>
      </trkpt>
      <trkpt lat="48.42058" lon="2.64292">
        <ele>141.478</ele>
        <time>2016-09-11T06:54:43Z</time>
      </trkpt>
      <trkpt lat="48.42062" lon="2.6432">
        <ele>141.36</ele>
        <time>2016-09-11T06:54:48Z</time>
      </trkpt>
      <trkpt lat="48.42066" lon="2.64351">
        <ele>141</ele>
        <time>2016-09-11T06:54:53Z</time>
      </trkpt>
      <trkpt lat="48.42067" lon="2.64381">
        <ele>141</ele>
        <time>2016-09-11T06:54:59Z</time>
      </trkpt>
      <trkpt lat="48.42071" lon="2.64414">
        <ele>140.523</ele>
        <time>2016-09-11T06:55:05Z</time>
      </trkpt>
      <trkpt lat="48.42077" lon="2.64443">
        <ele>140.246</ele>
        <time>2016-09-11T06:55:10Z</time>
      </trkpt>
      <trkpt lat="48.42081" lon="2.64476">
        <ele>140.232</ele>
        <time>2016-09-11T06:55:15Z</time>
      </trkpt>
      <trkpt lat="48.42082" lon="2.64505">
        <ele>141.042</ele>
        <time>2016-09-11T06:55:20Z</time>
      </trkpt>
      <trkpt lat="48.42083" lon="2.64532">
        <ele>141.055</ele>
        <time>2016-09-11T06:55:25Z</time>
      </trkpt>
      <trkpt lat="48.42084" lon="2.64564">
        <ele>141</ele>
        <time>2016-09-11T06:55:30Z</time>
      </trkpt>
      <trkpt lat="48.42081" lon="2.64597">
        <ele>141</ele>
        <time>2016-09-11T06:55:35Z</time>
      </trkpt>
      <trkpt lat="48.42078" lon="2.64624">
        <ele>141</ele>
        <time>2016-09-11T06:55:39Z</time>
      </trkpt>
      <trkpt lat="48.42074" lon="2.64655">
        <ele>141</ele>
        <time>2016-09-11T06:55:44Z</time>
      </trkpt>
      <trkpt lat="48.42076" lon="2.64685">
        <ele>141.184</ele>
        <time>2016-09-11T06:55:49Z</time>
      </trkpt>
      <trkpt lat="48.42078" lon="2.64714">
        <ele>141.059</ele>
        <time>2016-09-11T06:55:54Z</time>
      </trkpt>
      <trkpt lat="48.42085" lon="2.64745">
        <ele>140.958</ele>
        <time>2016-09-11T06:55:59Z</time>
      </trkpt>
      <trkpt lat="48.42094" lon="2.64776">
        <ele>139.686</ele>
        <time>2016-09-11T06:56:04Z</time>
      </trkpt>
      <trkpt lat="48.42103" lon="2.64805">
        <ele>139.286</ele>
        <time>2016-09-11T06:56:09Z</time>
      </trkpt>
      <trkpt lat="48.42107" lon="2.64834">
        <ele>140.005</ele>
        <time>2016-09-11T06:56:14Z</time>
      </trkpt>
      <trkpt lat="48.42114" lon="2.64861">
        <ele>140.88</ele>
        <time>2016-09-11T06:56:18Z</time>
      </trkpt>
      <trkpt lat="48.42129" lon="2.64877">
        <ele>140.155</ele>
        <time>2016-09-11T06:56:26Z</time>
      </trkpt>
      <trkpt lat="48.42136" lon="2.64846">
        <ele>139.59</ele>
        <time>2016-09-11T06:56:36Z</time>
      </trkpt>
      <trkpt lat="48.42143" lon="2.64817">
        <ele>138.418</ele>
        <time>2016-09-11T06:56:42Z</time>
      </trkpt>
      <trkpt lat="48.42151" lon="2.64788">
        <ele>138</ele>
        <time>2016-09-11T06:56:47Z</time>
      </trkpt>
      <trkpt lat="48.42157" lon="2.6476">
        <ele>138.215</ele>
        <time>2016-09-11T06:56:51Z</time>
      </trkpt>
      <trkpt lat="48.42162" lon="2.64732">
        <ele>138.18</ele>
        <time>2016-09-11T06:56:56Z</time>
      </trkpt>
      <trkpt lat="48.42168" lon="2.64701">
        <ele>138.036</ele>
        <time>2016-09-11T06:57:02Z</time>
      </trkpt>
      <trkpt lat="48.42174" lon="2.64671">
        <ele>138.896</ele>
        <time>2016-09-11T06:57:08Z</time>
      </trkpt>
      <trkpt lat="48.42182" lon="2.64646">
        <ele>139</ele>
        <time>2016-09-11T06:57:15Z</time>
      </trkpt>
      <trkpt lat="48.42189" lon="2.64621">
        <ele>138.477</ele>
        <time>2016-09-11T06:58:23Z</time>
      </trkpt>
      <trkpt lat="48.42201" lon="2.64593">
        <ele>137.77</ele>
        <time>2016-09-11T06:58:28Z</time>
      </trkpt>
      <trkpt lat="48.42215" lon="2.64568">
        <ele>136.708</ele>
        <time>2016-09-11T06:58:33Z</time>
      </trkpt>
      <trkpt lat="48.42228" lon="2.64542">
        <ele>135.518</ele>
        <time>2016-09-11T06:58:37Z</time>
      </trkpt>
      <trkpt lat="48.42241" lon="2.64521">
        <ele>134.591</ele>
        <time>2016-09-11T06:58:41Z</time>
      </trkpt>
      <trkpt lat="48.42256" lon="2.64498">
        <ele>133.136</ele>
        <time>2016-09-11T06:58:47Z</time>
      </trkpt>
      <trkpt lat="48.42273" lon="2.64484">
        <ele>132.789</ele>
        <time>2016-09-11T06:58:51Z</time>
      </trkpt>
      <trkpt lat="48.42294" lon="2.64471">
        <ele>131.352</ele>
        <time>2016-09-11T06:58:55Z</time>
      </trkpt>
      <trkpt lat="48.42315" lon="2.64459">
        <ele>129.38</ele>
        <time>2016-09-11T06:58:59Z</time>
      </trkpt>
      <trkpt lat="48.42332" lon="2.64451">
        <ele>127.544</ele>
        <time>2016-09-11T06:59:02Z</time>
      </trkpt>
      <trkpt lat="48.42354" lon="2.64444">
        <ele>124.702</ele>
        <time>2016-09-11T06:59:06Z</time>
      </trkpt>
      <trkpt lat="48.42372" lon="2.64438">
        <ele>122.218</ele>
        <time>2016-09-11T06:59:10Z</time>
      </trkpt>
      <trkpt lat="48.42392" lon="2.64428">
        <ele>119.652</ele>
        <time>2016-09-11T06:59:15Z</time>
      </trkpt>
      <trkpt lat="48.42409" lon="2.64408">
        <ele>117.878</ele>
        <time>2016-09-11T06:59:20Z</time>
      </trkpt>
      <trkpt lat="48.42408" lon="2.64378">
        <ele>116.875</ele>
        <time>2016-09-11T06:59:26Z</time>
      </trkpt>
      <trkpt lat="48.42402" lon="2.6435">
        <ele>116.493</ele>
        <time>2016-09-11T06:59:31Z</time>
      </trkpt>
      <trkpt lat="48.42397" lon="2.64322">
        <ele>117.11</ele>
        <time>2016-09-11T06:59:35Z</time>
      </trkpt>
      <trkpt lat="48.42392" lon="2.6429">
        <ele>118.454</ele>
        <time>2016-09-11T06:59:40Z</time>
      </trkpt>
      <trkpt lat="48.42386" lon="2.64263">
        <ele>119.098</ele>
        <time>2016-09-11T06:59:45Z</time>
      </trkpt>
      <trkpt lat="48.42383" lon="2.64233">
        <ele>118.478</ele>
        <time>2016-09-11T06:59:50Z</time>
      </trkpt>
      <trkpt lat="48.4238" lon="2.64206">
        <ele>116.856</ele>
        <time>2016-09-11T06:59:54Z</time>
      </trkpt>
      <trkpt lat="48.42375" lon="2.64179">
        <ele>115.19</ele>
        <time>2016-09-11T06:59:58Z</time>
      </trkpt>
      <trkpt lat="48.42368" lon="2.64154">
        <ele>113.447</ele>
        <time>2016-09-11T07:00:02Z</time>
      </trkpt>
      <trkpt lat="48.42362" lon="2.64127">
        <ele>112.041</ele>
        <time>2016-09-11T07:00:07Z</time>
      </trkpt>
      <trkpt lat="48.42355" lon="2.64101">
        <ele>111.786</ele>
        <time>2016-09-11T07:00:12Z</time>
      </trkpt>
      <trkpt lat="48.42349" lon="2.64071">
        <ele>111.818</ele>
        <time>2016-09-11T07:00:18Z</time>
      </trkpt>
      <trkpt lat="48.42343" lon="2.6404">
        <ele>111.889</ele>
        <time>2016-09-11T07:00:24Z</time>
      </trkpt>
      <trkpt lat="48.42335" lon="2.64011">
        <ele>111.198</ele>
        <time>2016-09-11T07:00:29Z</time>
      </trkpt>
      <trkpt lat="48.42331" lon="2.63982">
        <ele>111.063</ele>
        <time>2016-09-11T07:00:34Z</time>
      </trkpt>
      <trkpt lat="48.42325" lon="2.63951">
        <ele>111.842</ele>
        <time>2016-09-11T07:00:39Z</time>
      </trkpt>
      <trkpt lat="48.42322" lon="2.6392">
        <ele>112</ele>
        <time>2016-09-11T07:00:44Z</time>
      </trkpt>
      <trkpt lat="48.42318" lon="2.63887">
        <ele>111.501</ele>
        <time>2016-09-11T07:00:49Z</time>
      </trkpt>
      <trkpt lat="48.42313" lon="2.6386">
        <ele>111.802</ele>
        <time>2016-09-11T07:00:53Z</time>
      </trkpt>
      <trkpt lat="48.42307" lon="2.63832">
        <ele>110.272</ele>
        <time>2016-09-11T07:00:58Z</time>
      </trkpt>
      <trkpt lat="48.423" lon="2.63802">
        <ele>110.742</ele>
        <time>2016-09-11T07:01:03Z</time>
      </trkpt>
      <trkpt lat="48.42294" lon="2.6377">
        <ele>111.716</ele>
        <time>2016-09-11T07:01:08Z</time>
      </trkpt>
      <trkpt lat="48.42291" lon="2.63743">
        <ele>112</ele>
        <time>2016-09-11T07:01:12Z</time>
      </trkpt>
      <trkpt lat="48.42289" lon="2.6371">
        <ele>112.276</ele>
        <time>2016-09-11T07:01:17Z</time>
      </trkpt>
      <trkpt lat="48.42289" lon="2.63681">
        <ele>112.602</ele>
        <time>2016-09-11T07:01:21Z</time>
      </trkpt>
      <trkpt lat="48.42287" lon="2.63649">
        <ele>113.108</ele>
        <time>2016-09-11T07:01:27Z</time>
      </trkpt>
      <trkpt lat="48.42283" lon="2.63617">
        <ele>112.86</ele>
        <time>2016-09-11T07:01:33Z</time>
      </trkpt>
      <trkpt lat="48.42281" lon="2.63584">
        <ele>111.906</ele>
        <time>2016-09-11T07:01:38Z</time>
      </trkpt>
      <trkpt lat="48.42278" lon="2.63557">
        <ele>111.038</ele>
        <time>2016-09-11T07:01:42Z</time>
      </trkpt>
      <trkpt lat="48.42277" lon="2.63527">
        <ele>111.028</ele>
        <time>2016-09-11T07:01:46Z</time>
      </trkpt>
      <trkpt lat="48.42273" lon="2.63496">
        <ele>111.031</ele>
        <time>2016-09-11T07:01:51Z</time>
      </trkpt>
      <trkpt lat="48.4227" lon="2.63463">
        <ele>110.454</ele>
        <time>2016-09-11T07:01:56Z</time>
      </trkpt>
      <trkpt lat="48.42267" lon="2.63432">
        <ele>110.094</ele>
        <time>2016-09-11T07:02:01Z</time>
      </trkpt>
      <trkpt lat="48.42265" lon="2.63401">
        <ele>109.398</ele>
        <time>2016-09-11T07:02:07Z</time>
      </trkpt>
      <trkpt lat="48.42262" lon="2.63373">
        <ele>109.374</ele>
        <time>2016-09-11T07:02:13Z</time>
      </trkpt>
      <trkpt lat="48.4226" lon="2.63341">
        <ele>109.394</ele>
        <time>2016-09-11T07:02:20Z</time>
      </trkpt>
      <trkpt lat="48.42256" lon="2.63313">
        <ele>108.965</ele>
        <time>2016-09-11T07:02:26Z</time>
      </trkpt>
      <trkpt lat="48.42252" lon="2.63283">
        <ele>108.903</ele>
        <time>2016-09-11T07:02:32Z</time>
      </trkpt>
      <trkpt lat="48.42249" lon="2.63253">
        <ele>108.151</ele>
        <time>2016-09-11T07:02:38Z</time>
      </trkpt>
      <trkpt lat="48.42248" lon="2.63225">
        <ele>107.172</ele>
        <time>2016-09-11T07:02:44Z</time>
      </trkpt>
      <trkpt lat="48.42246" lon="2.63194">
        <ele>106.311</ele>
        <time>2016-09-11T07:02:51Z</time>
      </trkpt>
      <trkpt lat="48.42243" lon="2.63167">
        <ele>106.265</ele>
        <time>2016-09-11T07:02:57Z</time>
      </trkpt>
      <trkpt lat="48.42241" lon="2.6314">
        <ele>106.008</ele>
        <time>2016-09-11T07:03:02Z</time>
      </trkpt>
      <trkpt lat="48.42238" lon="2.63109">
        <ele>106</ele>
        <time>2016-09-11T07:03:09Z</time>
      </trkpt>
      <trkpt lat="48.42249" lon="2.63084">
        <ele>106</ele>
        <time>2016-09-11T07:03:17Z</time>
      </trkpt>
      <trkpt lat="48.42266" lon="2.63072">
        <ele>106.959</ele>
        <time>2016-09-11T07:03:25Z</time>
      </trkpt>
      <trkpt lat="48.42284" lon="2.63062">
        <ele>108.424</ele>
        <time>2016-09-11T07:03:34Z</time>
      </trkpt>
      <trkpt lat="48.42301" lon="2.63053">
        <ele>109.565</ele>
        <time>2016-09-11T07:03:43Z</time>
      </trkpt>
      <trkpt lat="48.42321" lon="2.63047">
        <ele>110.387</ele>
        <time>2016-09-11T07:03:53Z</time>
      </trkpt>
      <trkpt lat="48.4234" lon="2.63042">
        <ele>111.778</ele>
        <time>2016-09-11T07:04:01Z</time>
      </trkpt>
      <trkpt lat="48.42358" lon="2.6304">
        <ele>114.049</ele>
        <time>2016-09-11T07:04:12Z</time>
      </trkpt>
      <trkpt lat="48.42377" lon="2.63037">
        <ele>115.855</ele>
        <time>2016-09-11T07:04:26Z</time>
      </trkpt>
      <trkpt lat="48.42397" lon="2.63035">
        <ele>117.475</ele>
        <time>2016-09-11T07:04:37Z</time>
      </trkpt>
      <trkpt lat="48.42416" lon="2.63032">
        <ele>118.782</ele>
        <time>2016-09-11T07:04:50Z</time>
      </trkpt>
      <trkpt lat="48.42433" lon="2.63027">
        <ele>121.434</ele>
        <time>2016-09-11T07:05:02Z</time>
      </trkpt>
      <trkpt lat="48.42451" lon="2.63022">
        <ele>124.359</ele>
        <time>2016-09-11T07:05:13Z</time>
      </trkpt>
      <trkpt lat="48.4247" lon="2.63019">
        <ele>127.625</ele>
        <time>2016-09-11T07:05:24Z</time>
      </trkpt>
      <trkpt lat="48.4249" lon="2.63016">
        <ele>130.536</ele>
        <time>2016-09-11T07:05:35Z</time>
      </trkpt>
      <trkpt lat="48.4251" lon="2.63012">
        <ele>132.684</ele>
        <time>2016-09-11T07:05:46Z</time>
      </trkpt>
      <trkpt lat="48.42528" lon="2.63007">
        <ele>134.008</ele>
        <time>2016-09-11T07:05:55Z</time>
      </trkpt>
      <trkpt lat="48.42546" lon="2.63005">
        <ele>134.662</ele>
        <time>2016-09-11T07:06:04Z</time>
      </trkpt>
      <trkpt lat="48.42565" lon="2.63004">
        <ele>135.322</ele>
        <time>2016-09-11T07:06:11Z</time>
      </trkpt>
      <trkpt lat="48.42584" lon="2.63">
        <ele>136.012</ele>
        <time>2016-09-11T07:06:18Z</time>
      </trkpt>
      <trkpt lat="48.42604" lon="2.62995">
        <ele>136.744</ele>
        <time>2016-09-11T07:06:25Z</time>
      </trkpt>
      <trkpt lat="48.42623" lon="2.62992">
        <ele>137.285</ele>
        <time>2016-09-11T07:06:31Z</time>
      </trkpt>
      <trkpt lat="48.42643" lon="2.62987">
        <ele>137.668</ele>
        <time>2016-09-11T07:06:37Z</time>
      </trkpt>
      <trkpt lat="48.42663" lon="2.62985">
        <ele>138.304</ele>
        <time>2016-09-11T07:06:43Z</time>
      </trkpt>
      <trkpt lat="48.42682" lon="2.62979">
        <ele>138.808</ele>
        <time>2016-09-11T07:06:49Z</time>
      </trkpt>
      <trkpt lat="48.42701" lon="2.62977">
        <ele>139.625</ele>
        <time>2016-09-11T07:06:55Z</time>
      </trkpt>
      <trkpt lat="48.4272" lon="2.62977">
        <ele>140.843</ele>
        <time>2016-09-11T07:07:01Z</time>
      </trkpt>
      <trkpt lat="48.42738" lon="2.62977">
        <ele>141</ele>
        <time>2016-09-11T07:07:06Z</time>
      </trkpt>
      <trkpt lat="48.42756" lon="2.62972">
        <ele>140.778</ele>
        <time>2016-09-11T07:07:12Z</time>
      </trkpt>
      <trkpt lat="48.42777" lon="2.6297">
        <ele>140.04</ele>
        <time>2016-09-11T07:07:18Z</time>
      </trkpt>
      <trkpt lat="48.42786" lon="2.62994">
        <ele>140.238</ele>
        <time>2016-09-11T07:07:52Z</time>
      </trkpt>
      <trkpt lat="48.42784" lon="2.63024">
        <ele>141.1</ele>
        <time>2016-09-11T07:07:59Z</time>
      </trkpt>
      <trkpt lat="48.4278" lon="2.63051">
        <ele>141.994</ele>
        <time>2016-09-11T07:08:04Z</time>
      </trkpt>
      <trkpt lat="48.42778" lon="2.63084">
        <ele>142.036</ele>
        <time>2016-09-11T07:08:09Z</time>
      </trkpt>
      <trkpt lat="48.42774" lon="2.63112">
        <ele>142.78</ele>
        <time>2016-09-11T07:08:13Z</time>
      </trkpt>
      <trkpt lat="48.42769" lon="2.63142">
        <ele>143.052</ele>
        <time>2016-09-11T07:08:18Z</time>
      </trkpt>
      <trkpt lat="48.42765" lon="2.63171">
        <ele>142.638</ele>
        <time>2016-09-11T07:08:24Z</time>
      </trkpt>
      <trkpt lat="48.42763" lon="2.63198">
        <ele>142.526</ele>
        <time>2016-09-11T07:08:29Z</time>
      </trkpt>
      <trkpt lat="48.4276" lon="2.63229">
        <ele>143.276</ele>
        <time>2016-09-11T07:08:35Z</time>
      </trkpt>
      <trkpt lat="48.42759" lon="2.63259">
        <ele>144.326</ele>
        <time>2016-09-11T07:08:41Z</time>
      </trkpt>
      <trkpt lat="48.42754" lon="2.63287">
        <ele>144.396</ele>
        <time>2016-09-11T07:08:45Z</time>
      </trkpt>
      <trkpt lat="48.42749" lon="2.63317">
        <ele>144.34</ele>
        <time>2016-09-11T07:08:50Z</time>
      </trkpt>
      <trkpt lat="48.42747" lon="2.63346">
        <ele>144.76</ele>
        <time>2016-09-11T07:08:54Z</time>
      </trkpt>
      <trkpt lat="48.42742" lon="2.63378">
        <ele>143.792</ele>
        <time>2016-09-11T07:08:59Z</time>
      </trkpt>
      <trkpt lat="48.42737" lon="2.63409">
        <ele>143.397</ele>
        <time>2016-09-11T07:09:04Z</time>
      </trkpt>
      <trkpt lat="48.42732" lon="2.63438">
        <ele>143.627</ele>
        <time>2016-09-11T07:09:09Z</time>
      </trkpt>
      <trkpt lat="48.42729" lon="2.63469">
        <ele>144.396</ele>
        <time>2016-09-11T07:09:14Z</time>
      </trkpt>
      <trkpt lat="48.42725" lon="2.63497">
        <ele>144.224</ele>
        <time>2016-09-11T07:09:18Z</time>
      </trkpt>
      <trkpt lat="48.42721" lon="2.63528">
        <ele>143.913</ele>
        <time>2016-09-11T07:09:23Z</time>
      </trkpt>
      <trkpt lat="48.42717" lon="2.63555">
        <ele>143.792</ele>
        <time>2016-09-11T07:09:27Z</time>
      </trkpt>
      <trkpt lat="48.42712" lon="2.63586">
        <ele>144.663</ele>
        <time>2016-09-11T07:09:32Z</time>
      </trkpt>
      <trkpt lat="48.42708" lon="2.63614">
        <ele>145.049</ele>
        <time>2016-09-11T07:09:37Z</time>
      </trkpt>
      <trkpt lat="48.42704" lon="2.63646">
        <ele>145.253</ele>
        <time>2016-09-11T07:09:43Z</time>
      </trkpt>
      <trkpt lat="48.427" lon="2.63673">
        <ele>145</ele>
        <time>2016-09-11T07:09:48Z</time>
      </trkpt>
      <trkpt lat="48.42696" lon="2.63705">
        <ele>145</ele>
        <time>2016-09-11T07:09:53Z</time>
      </trkpt>
      <trkpt lat="48.42695" lon="2.63736">
        <ele>145.495</ele>
        <time>2016-09-11T07:09:57Z</time>
      </trkpt>
      <trkpt lat="48.42696" lon="2.63765">
        <ele>145.983</ele>
        <time>2016-09-11T07:10:02Z</time>
      </trkpt>
      <trkpt lat="48.42691" lon="2.63794">
        <ele>145.752</ele>
        <time>2016-09-11T07:10:07Z</time>
      </trkpt>
      <trkpt lat="48.42688" lon="2.63825">
        <ele>144.818</ele>
        <time>2016-09-11T07:10:12Z</time>
      </trkpt>
      <trkpt lat="48.42684" lon="2.63852">
        <ele>143.114</ele>
        <time>2016-09-11T07:10:17Z</time>
      </trkpt>
      <trkpt lat="48.42679" lon="2.63883">
        <ele>141.197</ele>
        <time>2016-09-11T07:10:22Z</time>
      </trkpt>
      <trkpt lat="48.42674" lon="2.63916">
        <ele>139.558</ele>
        <time>2016-09-11T07:10:27Z</time>
      </trkpt>
      <trkpt lat="48.42672" lon="2.63944">
        <ele>138.598</ele>
        <time>2016-09-11T07:10:31Z</time>
      </trkpt>
      <trkpt lat="48.42669" lon="2.63972">
        <ele>138.252</ele>
        <time>2016-09-11T07:10:35Z</time>
      </trkpt>
      <trkpt lat="48.42663" lon="2.64002">
        <ele>138.724</ele>
        <time>2016-09-11T07:10:39Z</time>
      </trkpt>
      <trkpt lat="48.4266" lon="2.6403">
        <ele>139.306</ele>
        <time>2016-09-11T07:10:43Z</time>
      </trkpt>
      <trkpt lat="48.42656" lon="2.64058">
        <ele>139.895</ele>
        <time>2016-09-11T07:10:47Z</time>
      </trkpt>
      <trkpt lat="48.42652" lon="2.64089">
        <ele>140.035</ele>
        <time>2016-09-11T07:10:52Z</time>
      </trkpt>
      <trkpt lat="48.42648" lon="2.64119">
        <ele>140.002</ele>
        <time>2016-09-11T07:10:56Z</time>
      </trkpt>
      <trkpt lat="48.42644" lon="2.64145">
        <ele>139.712</ele>
        <time>2016-09-11T07:10:59Z</time>
      </trkpt>
      <trkpt lat="48.4264" lon="2.64175">
        <ele>140.156</ele>
        <time>2016-09-11T07:11:03Z</time>
      </trkpt>
      <trkpt lat="48.42637" lon="2.64209">
        <ele>139.799</ele>
        <time>2016-09-11T07:11:08Z</time>
      </trkpt>
      <trkpt lat="48.42631" lon="2.64235">
        <ele>138.844</ele>
        <time>2016-09-11T07:11:12Z</time>
      </trkpt>
      <trkpt lat="48.42627" lon="2.64262">
        <ele>138.144</ele>
        <time>2016-09-11T07:11:16Z</time>
      </trkpt>
      <trkpt lat="48.42623" lon="2.64292">
        <ele>137.868</ele>
        <time>2016-09-11T07:11:21Z</time>
      </trkpt>
      <trkpt lat="48.42622" lon="2.6432">
        <ele>138.262</ele>
        <time>2016-09-11T07:11:26Z</time>
      </trkpt>
      <trkpt lat="48.4262" lon="2.64352">
        <ele>138.857</ele>
        <time>2016-09-11T07:11:30Z</time>
      </trkpt>
      <trkpt lat="48.42617" lon="2.64381">
        <ele>139.2</ele>
        <time>2016-09-11T07:11:34Z</time>
      </trkpt>
      <trkpt lat="48.42614" lon="2.64414">
        <ele>138.433</ele>
        <time>2016-09-11T07:11:39Z</time>
      </trkpt>
      <trkpt lat="48.4261" lon="2.64446">
        <ele>136.824</ele>
        <time>2016-09-11T07:11:43Z</time>
      </trkpt>
      <trkpt lat="48.42605" lon="2.64476">
        <ele>135.02</ele>
        <time>2016-09-11T07:11:47Z</time>
      </trkpt>
      <trkpt lat="48.42599" lon="2.64508">
        <ele>132.223</ele>
        <time>2016-09-11T07:11:51Z</time>
      </trkpt>
      <trkpt lat="48.42595" lon="2.64538">
        <ele>130.24</ele>
        <time>2016-09-11T07:11:55Z</time>
      </trkpt>
      <trkpt lat="48.42591" lon="2.64568">
        <ele>128.81</ele>
        <time>2016-09-11T07:11:59Z</time>
      </trkpt>
      <trkpt lat="48.42586" lon="2.646">
        <ele>127.74</ele>
        <time>2016-09-11T07:12:03Z</time>
      </trkpt>
      <trkpt lat="48.42582" lon="2.64631">
        <ele>126.218</ele>
        <time>2016-09-11T07:12:07Z</time>
      </trkpt>
      <trkpt lat="48.42578" lon="2.64663">
        <ele>124.054</ele>
        <time>2016-09-11T07:12:11Z</time>
      </trkpt>
      <trkpt lat="48.42575" lon="2.64692">
        <ele>124.048</ele>
        <time>2016-09-11T07:12:15Z</time>
      </trkpt>
      <trkpt lat="48.42574" lon="2.6472">
        <ele>125.238</ele>
        <time>2016-09-11T07:12:20Z</time>
      </trkpt>
      <trkpt lat="48.42572" lon="2.64749">
        <ele>126.552</ele>
        <time>2016-09-11T07:12:27Z</time>
      </trkpt>
      <trkpt lat="48.42581" lon="2.64776">
        <ele>128.032</ele>
        <time>2016-09-11T07:12:33Z</time>
      </trkpt>
      <trkpt lat="48.42592" lon="2.64804">
        <ele>128.969</ele>
        <time>2016-09-11T07:12:38Z</time>
      </trkpt>
      <trkpt lat="48.42602" lon="2.64833">
        <ele>129.976</ele>
        <time>2016-09-11T07:12:43Z</time>
      </trkpt>
      <trkpt lat="48.42611" lon="2.64859">
        <ele>130.002</ele>
        <time>2016-09-11T07:12:48Z</time>
      </trkpt>
      <trkpt lat="48.42621" lon="2.64884">
        <ele>130.065</ele>
        <time>2016-09-11T07:12:53Z</time>
      </trkpt>
      <trkpt lat="48.42631" lon="2.64908">
        <ele>129.312</ele>
        <time>2016-09-11T07:12:58Z</time>
      </trkpt>
      <trkpt lat="48.42641" lon="2.64935">
        <ele>129.021</ele>
        <time>2016-09-11T07:13:03Z</time>
      </trkpt>
      <trkpt lat="48.4265" lon="2.64963">
        <ele>129.274</ele>
        <time>2016-09-11T07:13:10Z</time>
      </trkpt>
      <trkpt lat="48.4266" lon="2.64988">
        <ele>130.61</ele>
        <time>2016-09-11T07:13:16Z</time>
      </trkpt>
      <trkpt lat="48.42674" lon="2.65011">
        <ele>131.6</ele>
        <time>2016-09-11T07:13:23Z</time>
      </trkpt>
      <trkpt lat="48.42689" lon="2.65032">
        <ele>131.613</ele>
        <time>2016-09-11T07:13:29Z</time>
      </trkpt>
      <trkpt lat="48.427" lon="2.65056">
        <ele>131.598</ele>
        <time>2016-09-11T07:13:35Z</time>
      </trkpt>
      <trkpt lat="48.4271" lon="2.6508">
        <ele>131.742</ele>
        <time>2016-09-11T07:13:41Z</time>
      </trkpt>
      <trkpt lat="48.42722" lon="2.65104">
        <ele>131.778</ele>
        <time>2016-09-11T07:13:48Z</time>
      </trkpt>
      <trkpt lat="48.4273" lon="2.65131">
        <ele>133.299</ele>
        <time>2016-09-11T07:13:56Z</time>
      </trkpt>
      <trkpt lat="48.42733" lon="2.65162">
        <ele>135.252</ele>
        <time>2016-09-11T07:14:04Z</time>
      </trkpt>
      <trkpt lat="48.42736" lon="2.6519">
        <ele>136.777</ele>
        <time>2016-09-11T07:14:11Z</time>
      </trkpt>
      <trkpt lat="48.42736" lon="2.65219">
        <ele>138.344</ele>
        <time>2016-09-11T07:14:21Z</time>
      </trkpt>
      <trkpt lat="48.42732" lon="2.65248">
        <ele>139.57</ele>
        <time>2016-09-11T07:14:30Z</time>
      </trkpt>
      <trkpt lat="48.42732" lon="2.65275">
        <ele>140.56</ele>
        <time>2016-09-11T07:14:37Z</time>
      </trkpt>
      <trkpt lat="48.42731" lon="2.65303">
        <ele>142.5</ele>
        <time>2016-09-11T07:14:43Z</time>
      </trkpt>
      <trkpt lat="48.42734" lon="2.65332">
        <ele>143.144</ele>
        <time>2016-09-11T07:14:49Z</time>
      </trkpt>
      <trkpt lat="48.42732" lon="2.65362">
        <ele>143.244</ele>
        <time>2016-09-11T07:14:55Z</time>
      </trkpt>
      <trkpt lat="48.4273" lon="2.65393">
        <ele>142.59</ele>
        <time>2016-09-11T07:15:00Z</time>
      </trkpt>
      <trkpt lat="48.42729" lon="2.65422">
        <ele>141.558</ele>
        <time>2016-09-11T07:15:05Z</time>
      </trkpt>
      <trkpt lat="48.42731" lon="2.6545">
        <ele>140.702</ele>
        <time>2016-09-11T07:15:11Z</time>
      </trkpt>
      <trkpt lat="48.42732" lon="2.65478">
        <ele>140.783</ele>
        <time>2016-09-11T07:15:18Z</time>
      </trkpt>
      <trkpt lat="48.42735" lon="2.65505">
        <ele>141.157</ele>
        <time>2016-09-11T07:15:25Z</time>
      </trkpt>
      <trkpt lat="48.42742" lon="2.65535">
        <ele>141.374</ele>
        <time>2016-09-11T07:15:33Z</time>
      </trkpt>
      <trkpt lat="48.42746" lon="2.65562">
        <ele>141.295</ele>
        <time>2016-09-11T07:15:39Z</time>
      </trkpt>
      <trkpt lat="48.42749" lon="2.65591">
        <ele>141.176</ele>
        <time>2016-09-11T07:15:44Z</time>
      </trkpt>
      <trkpt lat="48.42755" lon="2.65617">
        <ele>140.697</ele>
        <time>2016-09-11T07:15:49Z</time>
      </trkpt>
      <trkpt lat="48.42763" lon="2.65643">
        <ele>140.617</ele>
        <time>2016-09-11T07:15:55Z</time>
      </trkpt>
      <trkpt lat="48.42767" lon="2.65673">
        <ele>141.149</ele>
        <time>2016-09-11T07:16:01Z</time>
      </trkpt>
      <trkpt lat="48.4277" lon="2.65702">
        <ele>142.094</ele>
        <time>2016-09-11T07:16:06Z</time>
      </trkpt>
      <trkpt lat="48.42777" lon="2.6573">
        <ele>142.411</ele>
        <time>2016-09-11T07:16:10Z</time>
      </trkpt>
      <trkpt lat="48.42783" lon="2.65761">
        <ele>142.49</ele>
        <time>2016-09-11T07:16:15Z</time>
      </trkpt>
      <trkpt lat="48.42786" lon="2.65789">
        <ele>142.226</ele>
        <time>2016-09-11T07:16:20Z</time>
      </trkpt>
      <trkpt lat="48.42786" lon="2.65818">
        <ele>142.88</ele>
        <time>2016-09-11T07:16:25Z</time>
      </trkpt>
      <trkpt lat="48.42788" lon="2.65848">
        <ele>143.804</ele>
        <time>2016-09-11T07:16:31Z</time>
      </trkpt>
      <trkpt lat="48.42793" lon="2.65875">
        <ele>144.428</ele>
        <time>2016-09-11T07:16:36Z</time>
      </trkpt>
      <trkpt lat="48.42797" lon="2.65903">
        <ele>144.774</ele>
        <time>2016-09-11T07:16:41Z</time>
      </trkpt>
      <trkpt lat="48.42798" lon="2.65933">
        <ele>145.076</ele>
        <time>2016-09-11T07:24:30Z</time>
      </trkpt>
      <trkpt lat="48.42812" lon="2.65951">
        <ele>144.375</ele>
        <time>2016-09-11T07:28:38Z</time>
      </trkpt>
      <trkpt lat="48.42831" lon="2.65953">
        <ele>143.172</ele>
        <time>2016-09-11T07:28:49Z</time>
      </trkpt>
      <trkpt lat="48.42848" lon="2.65947">
        <ele>142.466</ele>
        <time>2016-09-11T07:28:56Z</time>
      </trkpt>
      <trkpt lat="48.42868" lon="2.65939">
        <ele>141.746</ele>
        <time>2016-09-11T07:29:03Z</time>
      </trkpt>
      <trkpt lat="48.4289" lon="2.65933">
        <ele>140.932</ele>
        <time>2016-09-11T07:29:09Z</time>
      </trkpt>
      <trkpt lat="48.42909" lon="2.65924">
        <ele>139.576</ele>
        <time>2016-09-11T07:29:14Z</time>
      </trkpt>
      <trkpt lat="48.42926" lon="2.65914">
        <ele>138.682</ele>
        <time>2016-09-11T07:29:19Z</time>
      </trkpt>
      <trkpt lat="48.42942" lon="2.65901">
        <ele>138.088</ele>
        <time>2016-09-11T07:29:25Z</time>
      </trkpt>
      <trkpt lat="48.4295" lon="2.65929">
        <ele>138.188</ele>
        <time>2016-09-11T07:29:41Z</time>
      </trkpt>
      <trkpt lat="48.42952" lon="2.65959">
        <ele>138.421</ele>
        <time>2016-09-11T07:29:49Z</time>
      </trkpt>
      <trkpt lat="48.42954" lon="2.65986">
        <ele>138.712</ele>
        <time>2016-09-11T07:29:55Z</time>
      </trkpt>
      <trkpt lat="48.42949" lon="2.66012">
        <ele>138.34</ele>
        <time>2016-09-11T07:30:01Z</time>
      </trkpt>
      <trkpt lat="48.42941" lon="2.66038">
        <ele>138.48</ele>
        <time>2016-09-11T07:30:08Z</time>
      </trkpt>
      <trkpt lat="48.4293" lon="2.66063">
        <ele>139.912</ele>
        <time>2016-09-11T07:30:16Z</time>
      </trkpt>
      <trkpt lat="48.42945" lon="2.66082">
        <ele>140.914</ele>
        <time>2016-09-11T07:30:37Z</time>
      </trkpt>
      <trkpt lat="48.42965" lon="2.66079">
        <ele>141.558</ele>
        <time>2016-09-11T07:30:43Z</time>
      </trkpt>
      <trkpt lat="48.42987" lon="2.66077">
        <ele>142.397</ele>
        <time>2016-09-11T07:30:49Z</time>
      </trkpt>
      <trkpt lat="48.43005" lon="2.66079">
        <ele>142.855</ele>
        <time>2016-09-11T07:30:54Z</time>
      </trkpt>
      <trkpt lat="48.43025" lon="2.66078">
        <ele>142.284</ele>
        <time>2016-09-11T07:31:00Z</time>
      </trkpt>
      <trkpt lat="48.43044" lon="2.66074">
        <ele>142.342</ele>
        <time>2016-09-11T07:31:05Z</time>
      </trkpt>
      <trkpt lat="48.43063" lon="2.66087">
        <ele>142.032</ele>
        <time>2016-09-11T07:31:11Z</time>
      </trkpt>
      <trkpt lat="48.43074" lon="2.66112">
        <ele>141.317</ele>
        <time>2016-09-11T07:31:17Z</time>
      </trkpt>
      <trkpt lat="48.43091" lon="2.66124">
        <ele>142.846</ele>
        <time>2016-09-11T07:31:24Z</time>
      </trkpt>
      <trkpt lat="48.43109" lon="2.6612">
        <ele>144.79</ele>
        <time>2016-09-11T07:31:29Z</time>
      </trkpt>
      <trkpt lat="48.43128" lon="2.66112">
        <ele>146.219</ele>
        <time>2016-09-11T07:31:35Z</time>
      </trkpt>
      <trkpt lat="48.43148" lon="2.66107">
        <ele>147.348</ele>
        <time>2016-09-11T07:31:42Z</time>
      </trkpt>
      <trkpt lat="48.43166" lon="2.66103">
        <ele>148.332</ele>
        <time>2016-09-11T07:31:48Z</time>
      </trkpt>
      <trkpt lat="48.43185" lon="2.66096">
        <ele>147.222</ele>
        <time>2016-09-11T07:31:54Z</time>
      </trkpt>
      <trkpt lat="48.43205" lon="2.66092">
        <ele>146.1</ele>
        <time>2016-09-11T07:32:01Z</time>
      </trkpt>
      <trkpt lat="48.43224" lon="2.66087">
        <ele>145.126</ele>
        <time>2016-09-11T07:32:08Z</time>
      </trkpt>
      <trkpt lat="48.43243" lon="2.66083">
        <ele>144.986</ele>
        <time>2016-09-11T07:32:14Z</time>
      </trkpt>
      <trkpt lat="48.43264" lon="2.66078">
        <ele>143.83</ele>
        <time>2016-09-11T07:32:20Z</time>
      </trkpt>
      <trkpt lat="48.43283" lon="2.66075">
        <ele>142.336</ele>
        <time>2016-09-11T07:32:26Z</time>
      </trkpt>
      <trkpt lat="48.43304" lon="2.66068">
        <ele>140.59</ele>
        <time>2016-09-11T07:32:32Z</time>
      </trkpt>
      <trkpt lat="48.43323" lon="2.66064">
        <ele>139.415</ele>
        <time>2016-09-11T07:32:37Z</time>
      </trkpt>
      <trkpt lat="48.43341" lon="2.66059">
        <ele>138.651</ele>
        <time>2016-09-11T07:32:42Z</time>
      </trkpt>
      <trkpt lat="48.4336" lon="2.66054">
        <ele>138.951</ele>
        <time>2016-09-11T07:32:47Z</time>
      </trkpt>
      <trkpt lat="48.43379" lon="2.6605">
        <ele>139.638</ele>
        <time>2016-09-11T07:32:52Z</time>
      </trkpt>
      <trkpt lat="48.43398" lon="2.66046">
        <ele>139.684</ele>
        <time>2016-09-11T07:32:57Z</time>
      </trkpt>
      <trkpt lat="48.43419" lon="2.66042">
        <ele>138.922</ele>
        <time>2016-09-11T07:33:02Z</time>
      </trkpt>
      <trkpt lat="48.43441" lon="2.66036">
        <ele>138.136</ele>
        <time>2016-09-11T07:33:07Z</time>
      </trkpt>
      <trkpt lat="48.43459" lon="2.66035">
        <ele>137.488</ele>
        <time>2016-09-11T07:33:11Z</time>
      </trkpt>
      <trkpt lat="48.43479" lon="2.66031">
        <ele>136.768</ele>
        <time>2016-09-11T07:33:16Z</time>
      </trkpt>
      <trkpt lat="48.43497" lon="2.66025">
        <ele>136.102</ele>
        <time>2016-09-11T07:33:21Z</time>
      </trkpt>
      <trkpt lat="48.43517" lon="2.66021">
        <ele>136</ele>
        <time>2016-09-11T07:33:26Z</time>
      </trkpt>
      <trkpt lat="48.43538" lon="2.66015">
        <ele>136</ele>
        <time>2016-09-11T07:33:31Z</time>
      </trkpt>
      <trkpt lat="48.43557" lon="2.66009">
        <ele>136.04</ele>
        <time>2016-09-11T07:33:36Z</time>
      </trkpt>
      <trkpt lat="48.43578" lon="2.66006">
        <ele>136.653</ele>
        <time>2016-09-11T07:33:41Z</time>
      </trkpt>
      <trkpt lat="48.436" lon="2.66002">
        <ele>136.976</ele>
        <time>2016-09-11T07:33:46Z</time>
      </trkpt>
      <trkpt lat="48.43622" lon="2.65999">
        <ele>136.613</ele>
        <time>2016-09-11T07:33:51Z</time>
      </trkpt>
      <trkpt lat="48.43641" lon="2.65999">
        <ele>135.957</ele>
        <time>2016-09-11T07:33:55Z</time>
      </trkpt>
      <trkpt lat="48.43659" lon="2.66">
        <ele>135.281</ele>
        <time>2016-09-11T07:33:59Z</time>
      </trkpt>
      <trkpt lat="48.43677" lon="2.66003">
        <ele>135.096</ele>
        <time>2016-09-11T07:34:04Z</time>
      </trkpt>
      <trkpt lat="48.43678" lon="2.65975">
        <ele>134.639</ele>
        <time>2016-09-11T07:34:43Z</time>
      </trkpt>
      <trkpt lat="48.43662" lon="2.65957">
        <ele>135.36</ele>
        <time>2016-09-11T07:34:50Z</time>
      </trkpt>
      <trkpt lat="48.43645" lon="2.65943">
        <ele>136.548</ele>
        <time>2016-09-11T07:34:57Z</time>
      </trkpt>
      <trkpt lat="48.43628" lon="2.65932">
        <ele>137</ele>
        <time>2016-09-11T07:35:02Z</time>
      </trkpt>
      <trkpt lat="48.43612" lon="2.65918">
        <ele>137</ele>
        <time>2016-09-11T07:35:06Z</time>
      </trkpt>
      <trkpt lat="48.436" lon="2.65894">
        <ele>137.804</ele>
        <time>2016-09-11T07:35:11Z</time>
      </trkpt>
      <trkpt lat="48.43598" lon="2.65865">
        <ele>138.848</ele>
        <time>2016-09-11T07:35:18Z</time>
      </trkpt>
      <trkpt lat="48.43616" lon="2.6585">
        <ele>139</ele>
        <time>2016-09-11T07:35:24Z</time>
      </trkpt>
      <trkpt lat="48.43635" lon="2.65839">
        <ele>139</ele>
        <time>2016-09-11T07:35:31Z</time>
      </trkpt>
      <trkpt lat="48.43654" lon="2.6584">
        <ele>138.474</ele>
        <time>2016-09-11T07:35:37Z</time>
      </trkpt>
      <trkpt lat="48.43671" lon="2.65847">
        <ele>137.626</ele>
        <time>2016-09-11T07:35:42Z</time>
      </trkpt>
      <trkpt lat="48.43691" lon="2.65854">
        <ele>135.579</ele>
        <time>2016-09-11T07:35:48Z</time>
      </trkpt>
      <trkpt lat="48.43711" lon="2.65865">
        <ele>134.872</ele>
        <time>2016-09-11T07:35:54Z</time>
      </trkpt>
      <trkpt lat="48.4373" lon="2.65877">
        <ele>134.72</ele>
        <time>2016-09-11T07:36:00Z</time>
      </trkpt>
      <trkpt lat="48.4375" lon="2.65888">
        <ele>135.044</ele>
        <time>2016-09-11T07:36:06Z</time>
      </trkpt>
      <trkpt lat="48.4377" lon="2.65899">
        <ele>134.888</ele>
        <time>2016-09-11T07:36:11Z</time>
      </trkpt>
      <trkpt lat="48.43788" lon="2.6591">
        <ele>134.21</ele>
        <time>2016-09-11T07:36:17Z</time>
      </trkpt>
      <trkpt lat="48.43806" lon="2.65927">
        <ele>131.544</ele>
        <time>2016-09-11T07:36:22Z</time>
      </trkpt>
      <trkpt lat="48.43824" lon="2.65941">
        <ele>130.68</ele>
        <time>2016-09-11T07:36:27Z</time>
      </trkpt>
      <trkpt lat="48.43844" lon="2.65949">
        <ele>131.062</ele>
        <time>2016-09-11T07:36:32Z</time>
      </trkpt>
      <trkpt lat="48.43863" lon="2.65957">
        <ele>131.007</ele>
        <time>2016-09-11T07:36:37Z</time>
      </trkpt>
      <trkpt lat="48.43882" lon="2.65969">
        <ele>129.429</ele>
        <time>2016-09-11T07:36:42Z</time>
      </trkpt>
      <trkpt lat="48.43898" lon="2.65986">
        <ele>127.849</ele>
        <time>2016-09-11T07:36:47Z</time>
      </trkpt>
      <trkpt lat="48.43918" lon="2.65982">
        <ele>128.642</ele>
        <time>2016-09-11T07:37:25Z</time>
      </trkpt>
      <trkpt lat="48.43933" lon="2.65968">
        <ele>128.905</ele>
        <time>2016-09-11T07:38:00Z</time>
      </trkpt>
      <trkpt lat="48.43942" lon="2.65943">
        <ele>128.031</ele>
        <time>2016-09-11T07:38:10Z</time>
      </trkpt>
      <trkpt lat="48.43947" lon="2.65915">
        <ele>126.896</ele>
        <time>2016-09-11T07:38:17Z</time>
      </trkpt>
      <trkpt lat="48.43947" lon="2.65884">
        <ele>127.059</ele>
        <time>2016-09-11T07:38:23Z</time>
      </trkpt>
      <trkpt lat="48.43944" lon="2.65852">
        <ele>128.707</ele>
        <time>2016-09-11T07:38:29Z</time>
      </trkpt>
      <trkpt lat="48.43943" lon="2.65824">
        <ele>130.822</ele>
        <time>2016-09-11T07:38:34Z</time>
      </trkpt>
      <trkpt lat="48.43942" lon="2.65794">
        <ele>132.255</ele>
        <time>2016-09-11T07:38:39Z</time>
      </trkpt>
      <trkpt lat="48.4394" lon="2.65767">
        <ele>132.48</ele>
        <time>2016-09-11T07:38:45Z</time>
      </trkpt>
      <trkpt lat="48.43939" lon="2.65738">
        <ele>132.642</ele>
        <time>2016-09-11T07:38:51Z</time>
      </trkpt>
      <trkpt lat="48.43936" lon="2.65709">
        <ele>133.286</ele>
        <time>2016-09-11T07:38:58Z</time>
      </trkpt>
      <trkpt lat="48.43952" lon="2.65696">
        <ele>132.671</ele>
        <time>2016-09-11T07:39:11Z</time>
      </trkpt>
      <trkpt lat="48.4397" lon="2.65709">
        <ele>131.126</ele>
        <time>2016-09-11T07:39:18Z</time>
      </trkpt>
      <trkpt lat="48.43986" lon="2.65726">
        <ele>127.946</ele>
        <time>2016-09-11T07:39:24Z</time>
      </trkpt>
      <trkpt lat="48.44002" lon="2.65745">
        <ele>124.838</ele>
        <time>2016-09-11T07:39:28Z</time>
      </trkpt>
      <trkpt lat="48.44018" lon="2.65766">
        <ele>121.153</ele>
        <time>2016-09-11T07:39:32Z</time>
      </trkpt>
      <trkpt lat="48.44032" lon="2.65786">
        <ele>118.728</ele>
        <time>2016-09-11T07:39:36Z</time>
      </trkpt>
      <trkpt lat="48.44048" lon="2.65809">
        <ele>116.301</ele>
        <time>2016-09-11T07:39:41Z</time>
      </trkpt>
      <trkpt lat="48.44063" lon="2.65829">
        <ele>114.178</ele>
        <time>2016-09-11T07:39:45Z</time>
      </trkpt>
      <trkpt lat="48.44079" lon="2.65847">
        <ele>111.613</ele>
        <time>2016-09-11T07:39:49Z</time>
      </trkpt>
      <trkpt lat="48.44097" lon="2.65867">
        <ele>108.635</ele>
        <time>2016-09-11T07:39:54Z</time>
      </trkpt>
      <trkpt lat="48.44114" lon="2.65889">
        <ele>106.829</ele>
        <time>2016-09-11T07:39:59Z</time>
      </trkpt>
      <trkpt lat="48.4413" lon="2.65911">
        <ele>106.692</ele>
        <time>2016-09-11T07:40:04Z</time>
      </trkpt>
      <trkpt lat="48.44146" lon="2.65927">
        <ele>106.23</ele>
        <time>2016-09-11T07:40:09Z</time>
      </trkpt>
      <trkpt lat="48.44164" lon="2.65919">
        <ele>105.278</ele>
        <time>2016-09-11T07:40:17Z</time>
      </trkpt>
      <trkpt lat="48.44164" lon="2.65891">
        <ele>104.166</ele>
        <time>2016-09-11T07:40:24Z</time>
      </trkpt>
      <trkpt lat="48.44169" lon="2.65862">
        <ele>105.055</ele>
        <time>2016-09-11T07:40:29Z</time>
      </trkpt>
      <trkpt lat="48.44175" lon="2.6583">
        <ele>106.091</ele>
        <time>2016-09-11T07:40:34Z</time>
      </trkpt>
      <trkpt lat="48.4418" lon="2.65803">
        <ele>106.508</ele>
        <time>2016-09-11T07:40:38Z</time>
      </trkpt>
      <trkpt lat="48.44185" lon="2.65777">
        <ele>106.343</ele>
        <time>2016-09-11T07:40:42Z</time>
      </trkpt>
      <trkpt lat="48.44191" lon="2.6575">
        <ele>106.282</ele>
        <time>2016-09-11T07:40:46Z</time>
      </trkpt>
      <trkpt lat="48.44196" lon="2.65724">
        <ele>105.07</ele>
        <time>2016-09-11T07:40:50Z</time>
      </trkpt>
      <trkpt lat="48.44202" lon="2.65697">
        <ele>105</ele>
        <time>2016-09-11T07:40:54Z</time>
      </trkpt>
      <trkpt lat="48.44207" lon="2.65669">
        <ele>105</ele>
        <time>2016-09-11T07:40:58Z</time>
      </trkpt>
      <trkpt lat="48.44213" lon="2.65642">
        <ele>105.301</ele>
        <time>2016-09-11T07:41:02Z</time>
      </trkpt>
      <trkpt lat="48.44218" lon="2.65616">
        <ele>104.328</ele>
        <time>2016-09-11T07:41:08Z</time>
      </trkpt>
      <trkpt lat="48.44223" lon="2.65588">
        <ele>103.96</ele>
        <time>2016-09-11T07:41:14Z</time>
      </trkpt>
      <trkpt lat="48.44228" lon="2.65558">
        <ele>102.859</ele>
        <time>2016-09-11T07:41:22Z</time>
      </trkpt>
      <trkpt lat="48.44233" lon="2.65528">
        <ele>102.594</ele>
        <time>2016-09-11T07:41:28Z</time>
      </trkpt>
      <trkpt lat="48.44239" lon="2.65499">
        <ele>102</ele>
        <time>2016-09-11T07:41:33Z</time>
      </trkpt>
      <trkpt lat="48.44242" lon="2.6547">
        <ele>101.942</ele>
        <time>2016-09-11T07:41:38Z</time>
      </trkpt>
      <trkpt lat="48.44248" lon="2.65443">
        <ele>101.026</ele>
        <time>2016-09-11T07:41:43Z</time>
      </trkpt>
      <trkpt lat="48.44254" lon="2.6541">
        <ele>99.862</ele>
        <time>2016-09-11T07:41:48Z</time>
      </trkpt>
      <trkpt lat="48.4426" lon="2.6538">
        <ele>99.658</ele>
        <time>2016-09-11T07:41:53Z</time>
      </trkpt>
      <trkpt lat="48.44265" lon="2.65351">
        <ele>99.114</ele>
        <time>2016-09-11T07:41:58Z</time>
      </trkpt>
      <trkpt lat="48.44271" lon="2.65322">
        <ele>97.854</ele>
        <time>2016-09-11T07:42:03Z</time>
      </trkpt>
      <trkpt lat="48.44276" lon="2.65295">
        <ele>96.666</ele>
        <time>2016-09-11T07:42:08Z</time>
      </trkpt>
      <trkpt lat="48.44281" lon="2.65264">
        <ele>95.644</ele>
        <time>2016-09-11T07:42:13Z</time>
      </trkpt>
      <trkpt lat="48.44287" lon="2.65239">
        <ele>94.918</ele>
        <time>2016-09-11T07:42:17Z</time>
      </trkpt>
      <trkpt lat="48.44293" lon="2.65206">
        <ele>94.491</ele>
        <time>2016-09-11T07:42:22Z</time>
      </trkpt>
      <trkpt lat="48.44299" lon="2.65174">
        <ele>94.797</ele>
        <time>2016-09-11T07:42:27Z</time>
      </trkpt>
      <trkpt lat="48.44305" lon="2.65146">
        <ele>95.734</ele>
        <time>2016-09-11T07:42:32Z</time>
      </trkpt>
      <trkpt lat="48.44325" lon="2.65143">
        <ele>95.953</ele>
        <time>2016-09-11T07:42:42Z</time>
      </trkpt>
      <trkpt lat="48.44342" lon="2.65155">
        <ele>97.076</ele>
        <time>2016-09-11T07:42:47Z</time>
      </trkpt>
      <trkpt lat="48.44358" lon="2.65167">
        <ele>99.576</ele>
        <time>2016-09-11T07:42:52Z</time>
      </trkpt>
      <trkpt lat="48.44377" lon="2.6518">
        <ele>101.698</ele>
        <time>2016-09-11T07:42:59Z</time>
      </trkpt>
      <trkpt lat="48.44395" lon="2.65189">
        <ele>103.232</ele>
        <time>2016-09-11T07:43:07Z</time>
      </trkpt>
      <trkpt lat="48.44412" lon="2.65203">
        <ele>103.844</ele>
        <time>2016-09-11T07:43:13Z</time>
      </trkpt>
      <trkpt lat="48.44428" lon="2.65218">
        <ele>103.937</ele>
        <time>2016-09-11T07:43:19Z</time>
      </trkpt>
      <trkpt lat="48.44442" lon="2.65234">
        <ele>104</ele>
        <time>2016-09-11T07:43:26Z</time>
      </trkpt>
      <trkpt lat="48.44454" lon="2.65255">
        <ele>104.93</ele>
        <time>2016-09-11T07:43:32Z</time>
      </trkpt>
      <trkpt lat="48.44468" lon="2.65274">
        <ele>105.953</ele>
        <time>2016-09-11T07:43:41Z</time>
      </trkpt>
      <trkpt lat="48.44484" lon="2.65291">
        <ele>107.334</ele>
        <time>2016-09-11T07:43:48Z</time>
      </trkpt>
      <trkpt lat="48.44511" lon="2.65295">
        <ele>109.202</ele>
        <time>2016-09-11T07:48:11Z</time>
      </trkpt>
      <trkpt lat="48.4453" lon="2.65305">
        <ele>110.256</ele>
        <time>2016-09-11T07:48:18Z</time>
      </trkpt>
      <trkpt lat="48.44549" lon="2.65316">
        <ele>113.076</ele>
        <time>2016-09-11T07:48:24Z</time>
      </trkpt>
      <trkpt lat="48.44569" lon="2.65325">
        <ele>115.591</ele>
        <time>2016-09-11T07:48:30Z</time>
      </trkpt>
      <trkpt lat="48.44588" lon="2.65338">
        <ele>117.332</ele>
        <time>2016-09-11T07:48:36Z</time>
      </trkpt>
      <trkpt lat="48.44605" lon="2.6535">
        <ele>118.113</ele>
        <time>2016-09-11T07:48:43Z</time>
      </trkpt>
      <trkpt lat="48.44623" lon="2.65364">
        <ele>118.869</ele>
        <time>2016-09-11T07:48:49Z</time>
      </trkpt>
      <trkpt lat="48.44642" lon="2.65373">
        <ele>119.63</ele>
        <time>2016-09-11T07:48:55Z</time>
      </trkpt>
      <trkpt lat="48.44668" lon="2.65396">
        <ele>118.822</ele>
        <time>2016-09-11T07:49:07Z</time>
      </trkpt>
      <trkpt lat="48.44685" lon="2.65408">
        <ele>119.584</ele>
        <time>2016-09-11T07:49:15Z</time>
      </trkpt>
      <trkpt lat="48.44702" lon="2.65417">
        <ele>121.081</ele>
        <time>2016-09-11T07:49:26Z</time>
      </trkpt>
      <trkpt lat="48.44717" lon="2.65431">
        <ele>122.343</ele>
        <time>2016-09-11T07:49:36Z</time>
      </trkpt>
      <trkpt lat="48.44724" lon="2.65457">
        <ele>121.64</ele>
        <time>2016-09-11T07:49:48Z</time>
      </trkpt>
      <trkpt lat="48.44721" lon="2.65486">
        <ele>120.906</ele>
        <time>2016-09-11T07:49:57Z</time>
      </trkpt>
      <trkpt lat="48.44717" lon="2.65514">
        <ele>121.85</ele>
        <time>2016-09-11T07:50:07Z</time>
      </trkpt>
      <trkpt lat="48.44713" lon="2.65541">
        <ele>123.126</ele>
        <time>2016-09-11T07:50:16Z</time>
      </trkpt>
      <trkpt lat="48.44707" lon="2.6557">
        <ele>123.662</ele>
        <time>2016-09-11T07:50:24Z</time>
      </trkpt>
      <trkpt lat="48.44701" lon="2.656">
        <ele>123.436</ele>
        <time>2016-09-11T07:50:32Z</time>
      </trkpt>
      <trkpt lat="48.44695" lon="2.65629">
        <ele>123.04</ele>
        <time>2016-09-11T07:50:38Z</time>
      </trkpt>
      <trkpt lat="48.4469" lon="2.6566">
        <ele>122.367</ele>
        <time>2016-09-11T07:50:44Z</time>
      </trkpt>
      <trkpt lat="48.44686" lon="2.65687">
        <ele>122.084</ele>
        <time>2016-09-11T07:50:50Z</time>
      </trkpt>
      <trkpt lat="48.44678" lon="2.65716">
        <ele>122.633</ele>
        <time>2016-09-11T07:50:57Z</time>
      </trkpt>
      <trkpt lat="48.44675" lon="2.65743">
        <ele>123.336</ele>
        <time>2016-09-11T07:51:03Z</time>
      </trkpt>
      <trkpt lat="48.44671" lon="2.65773">
        <ele>124.828</ele>
        <time>2016-09-11T07:51:18Z</time>
      </trkpt>
      <trkpt lat="48.44666" lon="2.65807">
        <ele>127.182</ele>
        <time>2016-09-11T07:52:05Z</time>
      </trkpt>
      <trkpt lat="48.4466" lon="2.65843">
        <ele>130.64</ele>
        <time>2016-09-11T07:52:31Z</time>
      </trkpt>
      <trkpt lat="48.44651" lon="2.65868">
        <ele>133.188</ele>
        <time>2016-09-11T07:52:51Z</time>
      </trkpt>
      <trkpt lat="48.44643" lon="2.65893">
        <ele>135.33</ele>
        <time>2016-09-11T07:53:08Z</time>
      </trkpt>
      <trkpt lat="48.44632" lon="2.65924">
        <ele>136.75</ele>
        <time>2016-09-11T07:53:36Z</time>
      </trkpt>
      <trkpt lat="48.4462" lon="2.65946">
        <ele>136.744</ele>
        <time>2016-09-11T07:53:57Z</time>
      </trkpt>
      <trkpt lat="48.44609" lon="2.6597">
        <ele>137.811</ele>
        <time>2016-09-11T07:54:27Z</time>
      </trkpt>
      <trkpt lat="48.44597" lon="2.65994">
        <ele>138.766</ele>
        <time>2016-09-11T07:54:36Z</time>
      </trkpt>
      <trkpt lat="48.44585" lon="2.66017">
        <ele>139.624</ele>
        <time>2016-09-11T07:54:43Z</time>
      </trkpt>
      <trkpt lat="48.44575" lon="2.66041">
        <ele>139.682</ele>
        <time>2016-09-11T07:54:49Z</time>
      </trkpt>
      <trkpt lat="48.44564" lon="2.66065">
        <ele>139.388</ele>
        <time>2016-09-11T07:54:55Z</time>
      </trkpt>
      <trkpt lat="48.44553" lon="2.66089">
        <ele>139.216</ele>
        <time>2016-09-11T07:55:01Z</time>
      </trkpt>
      <trkpt lat="48.44542" lon="2.66115">
        <ele>140.182</ele>
        <time>2016-09-11T07:55:07Z</time>
      </trkpt>
      <trkpt lat="48.4453" lon="2.6614">
        <ele>141.12</ele>
        <time>2016-09-11T07:55:14Z</time>
      </trkpt>
      <trkpt lat="48.4453" lon="2.66168">
        <ele>142.134</ele>
        <time>2016-09-11T07:55:24Z</time>
      </trkpt>
      <trkpt lat="48.44546" lon="2.66189">
        <ele>143.46</ele>
        <time>2016-09-11T07:55:31Z</time>
      </trkpt>
      <trkpt lat="48.44562" lon="2.66205">
        <ele>144.093</ele>
        <time>2016-09-11T07:55:37Z</time>
      </trkpt>
      <trkpt lat="48.44582" lon="2.66221">
        <ele>144.893</ele>
        <time>2016-09-11T07:55:43Z</time>
      </trkpt>
      <trkpt lat="48.44598" lon="2.66238">
        <ele>144.703</ele>
        <time>2016-09-11T07:55:48Z</time>
      </trkpt>
      <trkpt lat="48.44615" lon="2.66254">
        <ele>144.118</ele>
        <time>2016-09-11T07:55:53Z</time>
      </trkpt>
      <trkpt lat="48.44631" lon="2.66271">
        <ele>144.173</ele>
        <time>2016-09-11T07:55:58Z</time>
      </trkpt>
      <trkpt lat="48.4465" lon="2.66289">
        <ele>144.236</ele>
        <time>2016-09-11T07:56:03Z</time>
      </trkpt>
      <trkpt lat="48.44665" lon="2.66304">
        <ele>144.059</ele>
        <time>2016-09-11T07:56:08Z</time>
      </trkpt>
      <trkpt lat="48.44681" lon="2.6632">
        <ele>144.247</ele>
        <time>2016-09-11T07:56:13Z</time>
      </trkpt>
      <trkpt lat="48.44699" lon="2.66336">
        <ele>144.406</ele>
        <time>2016-09-11T07:56:18Z</time>
      </trkpt>
      <trkpt lat="48.44715" lon="2.66354">
        <ele>146.236</ele>
        <time>2016-09-11T07:56:23Z</time>
      </trkpt>
      <trkpt lat="48.44732" lon="2.66369">
        <ele>147.334</ele>
        <time>2016-09-11T07:56:28Z</time>
      </trkpt>
      <trkpt lat="48.4475" lon="2.66387">
        <ele>147.988</ele>
        <time>2016-09-11T07:56:33Z</time>
      </trkpt>
      <trkpt lat="48.44766" lon="2.66403">
        <ele>147.214</ele>
        <time>2016-09-11T07:56:38Z</time>
      </trkpt>
      <trkpt lat="48.44781" lon="2.66417">
        <ele>146.759</ele>
        <time>2016-09-11T07:56:43Z</time>
      </trkpt>
      <trkpt lat="48.44801" lon="2.66433">
        <ele>145.823</ele>
        <time>2016-09-11T07:56:49Z</time>
      </trkpt>
      <trkpt lat="48.44819" lon="2.66449">
        <ele>144.344</ele>
        <time>2016-09-11T07:56:54Z</time>
      </trkpt>
      <trkpt lat="48.44835" lon="2.66465">
        <ele>143.252</ele>
        <time>2016-09-11T07:56:59Z</time>
      </trkpt>
      <trkpt lat="48.44852" lon="2.66481">
        <ele>142.538</ele>
        <time>2016-09-11T07:57:04Z</time>
      </trkpt>
      <trkpt lat="48.4487" lon="2.66497">
        <ele>142.7</ele>
        <time>2016-09-11T07:57:09Z</time>
      </trkpt>
      <trkpt lat="48.44888" lon="2.66517">
        <ele>142.32</ele>
        <time>2016-09-11T07:57:14Z</time>
      </trkpt>
      <trkpt lat="48.44906" lon="2.66535">
        <ele>142.719</ele>
        <time>2016-09-11T07:57:19Z</time>
      </trkpt>
      <trkpt lat="48.44921" lon="2.6655">
        <ele>142.956</ele>
        <time>2016-09-11T07:57:23Z</time>
      </trkpt>
      <trkpt lat="48.44938" lon="2.66564">
        <ele>144.15</ele>
        <time>2016-09-11T07:57:28Z</time>
      </trkpt>
      <trkpt lat="48.44956" lon="2.66583">
        <ele>145.398</ele>
        <time>2016-09-11T07:57:33Z</time>
      </trkpt>
      <trkpt lat="48.44974" lon="2.66601">
        <ele>147.176</ele>
        <time>2016-09-11T07:57:38Z</time>
      </trkpt>
      <trkpt lat="48.44992" lon="2.66618">
        <ele>146.949</ele>
        <time>2016-09-11T07:57:43Z</time>
      </trkpt>
      <trkpt lat="48.45011" lon="2.66632">
        <ele>146.736</ele>
        <time>2016-09-11T07:57:50Z</time>
      </trkpt>
      <trkpt lat="48.45027" lon="2.66647">
        <ele>146.616</ele>
        <time>2016-09-11T07:57:55Z</time>
      </trkpt>
      <trkpt lat="48.45045" lon="2.66666">
        <ele>146.128</ele>
        <time>2016-09-11T07:58:01Z</time>
      </trkpt>
      <trkpt lat="48.4506" lon="2.66682">
        <ele>145.736</ele>
        <time>2016-09-11T07:58:06Z</time>
      </trkpt>
      <trkpt lat="48.45075" lon="2.66698">
        <ele>145.914</ele>
        <time>2016-09-11T07:58:12Z</time>
      </trkpt>
      <trkpt lat="48.45091" lon="2.66715">
        <ele>146.261</ele>
        <time>2016-09-11T07:58:18Z</time>
      </trkpt>
      <trkpt lat="48.45109" lon="2.66731">
        <ele>146.137</ele>
        <time>2016-09-11T07:58:22Z</time>
      </trkpt>
      <trkpt lat="48.45125" lon="2.66745">
        <ele>144.978</ele>
        <time>2016-09-11T07:58:26Z</time>
      </trkpt>
      <trkpt lat="48.45142" lon="2.66763">
        <ele>144.002</ele>
        <time>2016-09-11T07:58:31Z</time>
      </trkpt>
      <trkpt lat="48.45157" lon="2.66778">
        <ele>143.369</ele>
        <time>2016-09-11T07:58:35Z</time>
      </trkpt>
      <trkpt lat="48.45174" lon="2.66794">
        <ele>143.021</ele>
        <time>2016-09-11T07:58:40Z</time>
      </trkpt>
      <trkpt lat="48.4519" lon="2.66808">
        <ele>142.668</ele>
        <time>2016-09-11T07:58:44Z</time>
      </trkpt>
      <trkpt lat="48.45206" lon="2.66822">
        <ele>141.486</ele>
        <time>2016-09-11T07:58:48Z</time>
      </trkpt>
      <trkpt lat="48.45221" lon="2.6684">
        <ele>139.189</ele>
        <time>2016-09-11T07:58:52Z</time>
      </trkpt>
      <trkpt lat="48.4524" lon="2.66857">
        <ele>137.833</ele>
        <time>2016-09-11T07:58:57Z</time>
      </trkpt>
      <trkpt lat="48.45257" lon="2.66876">
        <ele>137.522</ele>
        <time>2016-09-11T07:59:02Z</time>
      </trkpt>
      <trkpt lat="48.45275" lon="2.66885">
        <ele>137.212</ele>
        <time>2016-09-11T07:59:08Z</time>
      </trkpt>
      <trkpt lat="48.45283" lon="2.6686">
        <ele>137.84</ele>
        <time>2016-09-11T07:59:15Z</time>
      </trkpt>
      <trkpt lat="48.45296" lon="2.66835">
        <ele>138.308</ele>
        <time>2016-09-11T07:59:20Z</time>
      </trkpt>
      <trkpt lat="48.4531" lon="2.66814">
        <ele>139.404</ele>
        <time>2016-09-11T07:59:24Z</time>
      </trkpt>
      <trkpt lat="48.45326" lon="2.66794">
        <ele>140.3</ele>
        <time>2016-09-11T07:59:28Z</time>
      </trkpt>
      <trkpt lat="48.45346" lon="2.66778">
        <ele>140.084</ele>
        <time>2016-09-11T07:59:32Z</time>
      </trkpt>
      <trkpt lat="48.45366" lon="2.66765">
        <ele>137.959</ele>
        <time>2016-09-11T07:59:36Z</time>
      </trkpt>
      <trkpt lat="48.45386" lon="2.6677">
        <ele>135.342</ele>
        <time>2016-09-11T07:59:40Z</time>
      </trkpt>
      <trkpt lat="48.45405" lon="2.66784">
        <ele>134.308</ele>
        <time>2016-09-11T07:59:44Z</time>
      </trkpt>
      <trkpt lat="48.4542" lon="2.66806">
        <ele>133.002</ele>
        <time>2016-09-11T07:59:48Z</time>
      </trkpt>
      <trkpt lat="48.45436" lon="2.6682">
        <ele>132.498</ele>
        <time>2016-09-11T07:59:52Z</time>
      </trkpt>
      <trkpt lat="48.45453" lon="2.66802">
        <ele>132.745</ele>
        <time>2016-09-11T07:59:57Z</time>
      </trkpt>
      <trkpt lat="48.45451" lon="2.66772">
        <ele>133</ele>
        <time>2016-09-11T08:00:02Z</time>
      </trkpt>
      <trkpt lat="48.45445" lon="2.66745">
        <ele>133.184</ele>
        <time>2016-09-11T08:00:07Z</time>
      </trkpt>
      <trkpt lat="48.45434" lon="2.66721">
        <ele>134</ele>
        <time>2016-09-11T08:00:12Z</time>
      </trkpt>
      <trkpt lat="48.45422" lon="2.667">
        <ele>134</ele>
        <time>2016-09-11T08:00:17Z</time>
      </trkpt>
      <trkpt lat="48.4541" lon="2.66674">
        <ele>134.982</ele>
        <time>2016-09-11T08:00:23Z</time>
      </trkpt>
      <trkpt lat="48.45399" lon="2.66651">
        <ele>135.624</ele>
        <time>2016-09-11T08:00:28Z</time>
      </trkpt>
      <trkpt lat="48.45392" lon="2.66625">
        <ele>135.4</ele>
        <time>2016-09-11T08:00:33Z</time>
      </trkpt>
      <trkpt lat="48.4539" lon="2.66594">
        <ele>134.948</ele>
        <time>2016-09-11T08:00:39Z</time>
      </trkpt>
      <trkpt lat="48.454" lon="2.66567">
        <ele>134.247</ele>
        <time>2016-09-11T08:00:45Z</time>
      </trkpt>
      <trkpt lat="48.45412" lon="2.66543">
        <ele>134</ele>
        <time>2016-09-11T08:00:51Z</time>
      </trkpt>
      <trkpt lat="48.4541" lon="2.66515">
        <ele>133.888</ele>
        <time>2016-09-11T08:00:58Z</time>
      </trkpt>
      <trkpt lat="48.45398" lon="2.66488">
        <ele>133.322</ele>
        <time>2016-09-11T08:01:47Z</time>
      </trkpt>
      <trkpt lat="48.45386" lon="2.66465">
        <ele>132.89</ele>
        <time>2016-09-11T08:01:54Z</time>
      </trkpt>
      <trkpt lat="48.45373" lon="2.66441">
        <ele>132.434</ele>
        <time>2016-09-11T08:02:00Z</time>
      </trkpt>
      <trkpt lat="48.45363" lon="2.66415">
        <ele>132.113</ele>
        <time>2016-09-11T08:02:07Z</time>
      </trkpt>
      <trkpt lat="48.4536" lon="2.66386">
        <ele>133.116</ele>
        <time>2016-09-11T08:02:14Z</time>
      </trkpt>
      <trkpt lat="48.45362" lon="2.66355">
        <ele>134.487</ele>
        <time>2016-09-11T08:02:20Z</time>
      </trkpt>
      <trkpt lat="48.45363" lon="2.66324">
        <ele>136.348</ele>
        <time>2016-09-11T08:02:26Z</time>
      </trkpt>
      <trkpt lat="48.45364" lon="2.66294">
        <ele>137</ele>
        <time>2016-09-11T08:02:32Z</time>
      </trkpt>
      <trkpt lat="48.45364" lon="2.66262">
        <ele>136.942</ele>
        <time>2016-09-11T08:02:38Z</time>
      </trkpt>
      <trkpt lat="48.45363" lon="2.66234">
        <ele>136.396</ele>
        <time>2016-09-11T08:02:44Z</time>
      </trkpt>
      <trkpt lat="48.45372" lon="2.66206">
        <ele>136.233</ele>
        <time>2016-09-11T08:02:51Z</time>
      </trkpt>
      <trkpt lat="48.45392" lon="2.66212">
        <ele>136.356</ele>
        <time>2016-09-11T08:02:58Z</time>
      </trkpt>
      <trkpt lat="48.45405" lon="2.66232">
        <ele>136</ele>
        <time>2016-09-11T08:03:05Z</time>
      </trkpt>
      <trkpt lat="48.45411" lon="2.66261">
        <ele>136.396</ele>
        <time>2016-09-11T08:03:13Z</time>
      </trkpt>
      <trkpt lat="48.45419" lon="2.66286">
        <ele>137.021</ele>
        <time>2016-09-11T08:03:20Z</time>
      </trkpt>
      <trkpt lat="48.45429" lon="2.66309">
        <ele>137.486</ele>
        <time>2016-09-11T08:03:25Z</time>
      </trkpt>
      <trkpt lat="48.4544" lon="2.66332">
        <ele>138.611</ele>
        <time>2016-09-11T08:03:30Z</time>
      </trkpt>
      <trkpt lat="48.45449" lon="2.66356">
        <ele>138.238</ele>
        <time>2016-09-11T08:03:36Z</time>
      </trkpt>
      <trkpt lat="48.45461" lon="2.66379">
        <ele>136.748</ele>
        <time>2016-09-11T08:03:40Z</time>
      </trkpt>
      <trkpt lat="48.45471" lon="2.66402">
        <ele>135.519</ele>
        <time>2016-09-11T08:03:44Z</time>
      </trkpt>
      <trkpt lat="48.45482" lon="2.66425">
        <ele>135.076</ele>
        <time>2016-09-11T08:03:48Z</time>
      </trkpt>
      <trkpt lat="48.45493" lon="2.6645">
        <ele>134.612</ele>
        <time>2016-09-11T08:03:52Z</time>
      </trkpt>
      <trkpt lat="48.45504" lon="2.66475">
        <ele>134.062</ele>
        <time>2016-09-11T08:03:56Z</time>
      </trkpt>
      <trkpt lat="48.45518" lon="2.66499">
        <ele>133.678</ele>
        <time>2016-09-11T08:04:00Z</time>
      </trkpt>
      <trkpt lat="48.4553" lon="2.66523">
        <ele>134.095</ele>
        <time>2016-09-11T08:04:04Z</time>
      </trkpt>
      <trkpt lat="48.45546" lon="2.66546">
        <ele>134.422</ele>
        <time>2016-09-11T08:04:08Z</time>
      </trkpt>
      <trkpt lat="48.45563" lon="2.66563">
        <ele>134.482</ele>
        <time>2016-09-11T08:04:12Z</time>
      </trkpt>
      <trkpt lat="48.45581" lon="2.66581">
        <ele>133.162</ele>
        <time>2016-09-11T08:04:17Z</time>
      </trkpt>
      <trkpt lat="48.456" lon="2.66596">
        <ele>132.45</ele>
        <time>2016-09-11T08:04:23Z</time>
      </trkpt>
      <trkpt lat="48.45617" lon="2.66614">
        <ele>131.052</ele>
        <time>2016-09-11T08:04:28Z</time>
      </trkpt>
      <trkpt lat="48.45634" lon="2.66638">
        <ele>130.686</ele>
        <time>2016-09-11T08:04:33Z</time>
      </trkpt>
      <trkpt lat="48.45648" lon="2.66662">
        <ele>129.624</ele>
        <time>2016-09-11T08:04:38Z</time>
      </trkpt>
      <trkpt lat="48.45662" lon="2.66684">
        <ele>128.476</ele>
        <time>2016-09-11T08:04:44Z</time>
      </trkpt>
      <trkpt lat="48.45677" lon="2.66702">
        <ele>128.456</ele>
        <time>2016-09-11T08:04:49Z</time>
      </trkpt>
      <trkpt lat="48.45696" lon="2.66715">
        <ele>129.552</ele>
        <time>2016-09-11T08:04:55Z</time>
      </trkpt>
      <trkpt lat="48.45715" lon="2.66702">
        <ele>131.154</ele>
        <time>2016-09-11T08:05:01Z</time>
      </trkpt>
      <trkpt lat="48.45728" lon="2.66682">
        <ele>131.052</ele>
        <time>2016-09-11T08:05:10Z</time>
      </trkpt>
      <trkpt lat="48.45735" lon="2.66656">
        <ele>129.968</ele>
        <time>2016-09-11T08:05:17Z</time>
      </trkpt>
      <trkpt lat="48.45734" lon="2.66624">
        <ele>129.692</ele>
        <time>2016-09-11T08:05:23Z</time>
      </trkpt>
      <trkpt lat="48.45731" lon="2.66596">
        <ele>130.016</ele>
        <time>2016-09-11T08:05:27Z</time>
      </trkpt>
      <trkpt lat="48.45719" lon="2.66569">
        <ele>131.4</ele>
        <time>2016-09-11T08:05:32Z</time>
      </trkpt>
      <trkpt lat="48.45711" lon="2.66545">
        <ele>131.285</ele>
        <time>2016-09-11T08:05:36Z</time>
      </trkpt>
      <trkpt lat="48.45708" lon="2.66515">
        <ele>130.581</ele>
        <time>2016-09-11T08:05:40Z</time>
      </trkpt>
      <trkpt lat="48.45704" lon="2.66482">
        <ele>129.34</ele>
        <time>2016-09-11T08:05:45Z</time>
      </trkpt>
      <trkpt lat="48.45701" lon="2.66453">
        <ele>128.436</ele>
        <time>2016-09-11T08:05:50Z</time>
      </trkpt>
      <trkpt lat="48.45698" lon="2.66423">
        <ele>128.464</ele>
        <time>2016-09-11T08:05:55Z</time>
      </trkpt>
      <trkpt lat="48.45692" lon="2.66394">
        <ele>130.071</ele>
        <time>2016-09-11T08:06:00Z</time>
      </trkpt>
      <trkpt lat="48.45685" lon="2.66369">
        <ele>131.056</ele>
        <time>2016-09-11T08:06:05Z</time>
      </trkpt>
      <trkpt lat="48.45677" lon="2.66341">
        <ele>132.196</ele>
        <time>2016-09-11T08:06:11Z</time>
      </trkpt>
      <trkpt lat="48.45669" lon="2.66316">
        <ele>133.425</ele>
        <time>2016-09-11T08:06:16Z</time>
      </trkpt>
      <trkpt lat="48.45661" lon="2.6629">
        <ele>133.022</ele>
        <time>2016-09-11T08:06:21Z</time>
      </trkpt>
      <trkpt lat="48.45653" lon="2.66264">
        <ele>131.481</ele>
        <time>2016-09-11T08:06:26Z</time>
      </trkpt>
      <trkpt lat="48.45645" lon="2.66236">
        <ele>130.653</ele>
        <time>2016-09-11T08:06:33Z</time>
      </trkpt>
      <trkpt lat="48.45636" lon="2.66208">
        <ele>130.966</ele>
        <time>2016-09-11T08:06:40Z</time>
      </trkpt>
      <trkpt lat="48.45628" lon="2.66183">
        <ele>131.796</ele>
        <time>2016-09-11T08:06:46Z</time>
      </trkpt>
      <trkpt lat="48.45621" lon="2.66156">
        <ele>132.415</ele>
        <time>2016-09-11T08:06:53Z</time>
      </trkpt>
      <trkpt lat="48.45614" lon="2.66131">
        <ele>132.912</ele>
        <time>2016-09-11T08:07:00Z</time>
      </trkpt>
      <trkpt lat="48.45614" lon="2.66101">
        <ele>131.695</ele>
        <time>2016-09-11T08:07:05Z</time>
      </trkpt>
      <trkpt lat="48.45618" lon="2.6607">
        <ele>131.64</ele>
        <time>2016-09-11T08:07:10Z</time>
      </trkpt>
      <trkpt lat="48.45618" lon="2.66041">
        <ele>132.414</ele>
        <time>2016-09-11T08:07:17Z</time>
      </trkpt>
      <trkpt lat="48.45624" lon="2.6601">
        <ele>133.297</ele>
        <time>2016-09-11T08:07:24Z</time>
      </trkpt>
      <trkpt lat="48.45631" lon="2.6598">
        <ele>133.919</ele>
        <time>2016-09-11T08:07:30Z</time>
      </trkpt>
      <trkpt lat="48.45637" lon="2.65948">
        <ele>133.052</ele>
        <time>2016-09-11T08:07:37Z</time>
      </trkpt>
      <trkpt lat="48.45643" lon="2.65917">
        <ele>132.024</ele>
        <time>2016-09-11T08:07:42Z</time>
      </trkpt>
      <trkpt lat="48.4565" lon="2.65891">
        <ele>132</ele>
        <time>2016-09-11T08:07:46Z</time>
      </trkpt>
      <trkpt lat="48.45655" lon="2.65865">
        <ele>131.642</ele>
        <time>2016-09-11T08:07:50Z</time>
      </trkpt>
      <trkpt lat="48.45665" lon="2.65839">
        <ele>131.171</ele>
        <time>2016-09-11T08:07:55Z</time>
      </trkpt>
      <trkpt lat="48.45675" lon="2.65813">
        <ele>129.471</ele>
        <time>2016-09-11T08:08:01Z</time>
      </trkpt>
      <trkpt lat="48.45691" lon="2.65794">
        <ele>129</ele>
        <time>2016-09-11T08:08:06Z</time>
      </trkpt>
      <trkpt lat="48.45709" lon="2.65783">
        <ele>128.476</ele>
        <time>2016-09-11T08:08:10Z</time>
      </trkpt>
      <trkpt lat="48.45728" lon="2.65774">
        <ele>128.106</ele>
        <time>2016-09-11T08:08:14Z</time>
      </trkpt>
      <trkpt lat="48.45748" lon="2.65766">
        <ele>128.039</ele>
        <time>2016-09-11T08:08:18Z</time>
      </trkpt>
      <trkpt lat="48.45768" lon="2.65755">
        <ele>128</ele>
        <time>2016-09-11T08:08:23Z</time>
      </trkpt>
      <trkpt lat="48.45786" lon="2.65749">
        <ele>128.332</ele>
        <time>2016-09-11T08:08:27Z</time>
      </trkpt>
      <trkpt lat="48.45805" lon="2.65742">
        <ele>129.262</ele>
        <time>2016-09-11T08:08:32Z</time>
      </trkpt>
      <trkpt lat="48.45824" lon="2.65734">
        <ele>130.234</ele>
        <time>2016-09-11T08:08:37Z</time>
      </trkpt>
      <trkpt lat="48.4584" lon="2.6572">
        <ele>131.086</ele>
        <time>2016-09-11T08:08:44Z</time>
      </trkpt>
      <trkpt lat="48.45855" lon="2.65696">
        <ele>131.938</ele>
        <time>2016-09-11T08:08:51Z</time>
      </trkpt>
      <trkpt lat="48.45868" lon="2.65671">
        <ele>131.797</ele>
        <time>2016-09-11T08:08:56Z</time>
      </trkpt>
      <trkpt lat="48.4588" lon="2.65651">
        <ele>131.141</ele>
        <time>2016-09-11T08:09:00Z</time>
      </trkpt>
      <trkpt lat="48.45893" lon="2.65628">
        <ele>130.232</ele>
        <time>2016-09-11T08:09:04Z</time>
      </trkpt>
      <trkpt lat="48.45909" lon="2.65604">
        <ele>128.984</ele>
        <time>2016-09-11T08:09:08Z</time>
      </trkpt>
      <trkpt lat="48.45922" lon="2.65582">
        <ele>129.707</ele>
        <time>2016-09-11T08:09:12Z</time>
      </trkpt>
      <trkpt lat="48.45933" lon="2.65556">
        <ele>131.415</ele>
        <time>2016-09-11T08:09:17Z</time>
      </trkpt>
      <trkpt lat="48.45941" lon="2.65526">
        <ele>133</ele>
        <time>2016-09-11T08:09:22Z</time>
      </trkpt>
      <trkpt lat="48.45948" lon="2.65501">
        <ele>132.626</ele>
        <time>2016-09-11T08:09:26Z</time>
      </trkpt>
      <trkpt lat="48.45955" lon="2.65471">
        <ele>131.278</ele>
        <time>2016-09-11T08:09:31Z</time>
      </trkpt>
      <trkpt lat="48.4596" lon="2.65443">
        <ele>131.42</ele>
        <time>2016-09-11T08:09:35Z</time>
      </trkpt>
      <trkpt lat="48.45964" lon="2.65412">
        <ele>130.526</ele>
        <time>2016-09-11T08:09:40Z</time>
      </trkpt>
      <trkpt lat="48.45957" lon="2.65385">
        <ele>130.384</ele>
        <time>2016-09-11T08:09:45Z</time>
      </trkpt>
      <trkpt lat="48.45941" lon="2.65364">
        <ele>130.098</ele>
        <time>2016-09-11T08:09:49Z</time>
      </trkpt>
      <trkpt lat="48.45922" lon="2.6535">
        <ele>129.594</ele>
        <time>2016-09-11T08:09:53Z</time>
      </trkpt>
      <trkpt lat="48.45904" lon="2.65349">
        <ele>129.57</ele>
        <time>2016-09-11T08:09:57Z</time>
      </trkpt>
      <trkpt lat="48.45882" lon="2.65351">
        <ele>129.953</ele>
        <time>2016-09-11T08:10:01Z</time>
      </trkpt>
      <trkpt lat="48.45859" lon="2.65351">
        <ele>131</ele>
        <time>2016-09-11T08:10:06Z</time>
      </trkpt>
      <trkpt lat="48.45839" lon="2.65351">
        <ele>131</ele>
        <time>2016-09-11T08:10:11Z</time>
      </trkpt>
      <trkpt lat="48.45818" lon="2.65344">
        <ele>131</ele>
        <time>2016-09-11T08:10:16Z</time>
      </trkpt>
      <trkpt lat="48.45797" lon="2.65332">
        <ele>131</ele>
        <time>2016-09-11T08:10:21Z</time>
      </trkpt>
      <trkpt lat="48.45782" lon="2.65313">
        <ele>131</ele>
        <time>2016-09-11T08:10:26Z</time>
      </trkpt>
      <trkpt lat="48.4577" lon="2.65291">
        <ele>131.652</ele>
        <time>2016-09-11T08:10:32Z</time>
      </trkpt>
      <trkpt lat="48.45772" lon="2.65261">
        <ele>132</ele>
        <time>2016-09-11T08:10:40Z</time>
      </trkpt>
      <trkpt lat="48.45782" lon="2.65237">
        <ele>131.732</ele>
        <time>2016-09-11T08:10:45Z</time>
      </trkpt>
      <trkpt lat="48.45794" lon="2.65213">
        <ele>131.046</ele>
        <time>2016-09-11T08:10:50Z</time>
      </trkpt>
      <trkpt lat="48.4581" lon="2.65197">
        <ele>130.582</ele>
        <time>2016-09-11T08:10:55Z</time>
      </trkpt>
      <trkpt lat="48.45828" lon="2.65191">
        <ele>129.482</ele>
        <time>2016-09-11T08:10:59Z</time>
      </trkpt>
      <trkpt lat="48.45848" lon="2.65185">
        <ele>127.934</ele>
        <time>2016-09-11T08:11:03Z</time>
      </trkpt>
      <trkpt lat="48.4587" lon="2.65178">
        <ele>125.928</ele>
        <time>2016-09-11T08:11:07Z</time>
      </trkpt>
      <trkpt lat="48.45892" lon="2.65174">
        <ele>123.012</ele>
        <time>2016-09-11T08:11:10Z</time>
      </trkpt>
      <trkpt lat="48.45915" lon="2.65169">
        <ele>120.143</ele>
        <time>2016-09-11T08:11:14Z</time>
      </trkpt>
      <trkpt lat="48.45932" lon="2.65162">
        <ele>117.54</ele>
        <time>2016-09-11T08:11:17Z</time>
      </trkpt>
      <trkpt lat="48.45955" lon="2.65154">
        <ele>114.318</ele>
        <time>2016-09-11T08:11:20Z</time>
      </trkpt>
      <trkpt lat="48.45975" lon="2.65144">
        <ele>111.546</ele>
        <time>2016-09-11T08:11:23Z</time>
      </trkpt>
      <trkpt lat="48.45995" lon="2.65135">
        <ele>109.425</ele>
        <time>2016-09-11T08:11:26Z</time>
      </trkpt>
      <trkpt lat="48.46014" lon="2.65126">
        <ele>107.467</ele>
        <time>2016-09-11T08:11:29Z</time>
      </trkpt>
      <trkpt lat="48.46033" lon="2.65116">
        <ele>106.35</ele>
        <time>2016-09-11T08:11:32Z</time>
      </trkpt>
      <trkpt lat="48.4605" lon="2.65107">
        <ele>104.569</ele>
        <time>2016-09-11T08:11:35Z</time>
      </trkpt>
      <trkpt lat="48.46068" lon="2.65097">
        <ele>103.298</ele>
        <time>2016-09-11T08:11:38Z</time>
      </trkpt>
      <trkpt lat="48.46087" lon="2.65086">
        <ele>101.964</ele>
        <time>2016-09-11T08:11:41Z</time>
      </trkpt>
      <trkpt lat="48.46105" lon="2.65075">
        <ele>101.208</ele>
        <time>2016-09-11T08:11:44Z</time>
      </trkpt>
      <trkpt lat="48.46123" lon="2.65067">
        <ele>101.422</ele>
        <time>2016-09-11T08:11:47Z</time>
      </trkpt>
      <trkpt lat="48.46145" lon="2.6507">
        <ele>102.428</ele>
        <time>2016-09-11T08:11:51Z</time>
      </trkpt>
      <trkpt lat="48.46162" lon="2.65079">
        <ele>103.688</ele>
        <time>2016-09-11T08:11:59Z</time>
      </trkpt>
      <trkpt lat="48.46184" lon="2.65081">
        <ele>105.121</ele>
        <time>2016-09-11T08:12:06Z</time>
      </trkpt>
      <trkpt lat="48.46204" lon="2.65082">
        <ele>105.904</ele>
        <time>2016-09-11T08:12:11Z</time>
      </trkpt>
      <trkpt lat="48.46223" lon="2.65085">
        <ele>106.096</ele>
        <time>2016-09-11T08:12:16Z</time>
      </trkpt>
      <trkpt lat="48.46242" lon="2.65096">
        <ele>106.9</ele>
        <time>2016-09-11T08:12:22Z</time>
      </trkpt>
      <trkpt lat="48.46259" lon="2.65108">
        <ele>107.776</ele>
        <time>2016-09-11T08:12:27Z</time>
      </trkpt>
      <trkpt lat="48.46277" lon="2.65123">
        <ele>109.26</ele>
        <time>2016-09-11T08:12:34Z</time>
      </trkpt>
      <trkpt lat="48.46296" lon="2.65136">
        <ele>109.452</ele>
        <time>2016-09-11T08:12:39Z</time>
      </trkpt>
      <trkpt lat="48.46311" lon="2.65152">
        <ele>107.914</ele>
        <time>2016-09-11T08:13:01Z</time>
      </trkpt>
      <trkpt lat="48.46328" lon="2.65167">
        <ele>103.692</ele>
        <time>2016-09-11T08:13:06Z</time>
      </trkpt>
      <trkpt lat="48.46344" lon="2.65179">
        <ele>99.26</ele>
        <time>2016-09-11T08:13:11Z</time>
      </trkpt>
      <trkpt lat="48.46354" lon="2.65202">
        <ele>97.725</ele>
        <time>2016-09-11T08:13:16Z</time>
      </trkpt>
      <trkpt lat="48.46356" lon="2.65229">
        <ele>99.338</ele>
        <time>2016-09-11T08:13:20Z</time>
      </trkpt>
      <trkpt lat="48.46355" lon="2.65258">
        <ele>100.922</ele>
        <time>2016-09-11T08:13:25Z</time>
      </trkpt>
      <trkpt lat="48.46354" lon="2.65286">
        <ele>101.222</ele>
        <time>2016-09-11T08:13:29Z</time>
      </trkpt>
      <trkpt lat="48.46348" lon="2.65314">
        <ele>101.105</ele>
        <time>2016-09-11T08:13:35Z</time>
      </trkpt>
      <trkpt lat="48.46341" lon="2.65343">
        <ele>101.718</ele>
        <time>2016-09-11T08:13:41Z</time>
      </trkpt>
      <trkpt lat="48.46331" lon="2.6537">
        <ele>102.566</ele>
        <time>2016-09-11T08:13:46Z</time>
      </trkpt>
      <trkpt lat="48.46321" lon="2.65394">
        <ele>103.353</ele>
        <time>2016-09-11T08:13:50Z</time>
      </trkpt>
      <trkpt lat="48.46313" lon="2.6542">
        <ele>102.951</ele>
        <time>2016-09-11T08:13:54Z</time>
      </trkpt>
      <trkpt lat="48.46301" lon="2.65448">
        <ele>102.541</ele>
        <time>2016-09-11T08:13:59Z</time>
      </trkpt>
      <trkpt lat="48.4629" lon="2.65473">
        <ele>103.539</ele>
        <time>2016-09-11T08:14:03Z</time>
      </trkpt>
      <trkpt lat="48.4628" lon="2.65498">
        <ele>103.846</ele>
        <time>2016-09-11T08:14:07Z</time>
      </trkpt>
      <trkpt lat="48.46274" lon="2.65525">
        <ele>104.476</ele>
        <time>2016-09-11T08:14:11Z</time>
      </trkpt>
      <trkpt lat="48.46268" lon="2.65555">
        <ele>104.728</ele>
        <time>2016-09-11T08:14:16Z</time>
      </trkpt>
      <trkpt lat="48.46266" lon="2.6559">
        <ele>104.772</ele>
        <time>2016-09-11T08:14:21Z</time>
      </trkpt>
      <trkpt lat="48.46266" lon="2.65623">
        <ele>103.799</ele>
        <time>2016-09-11T08:14:26Z</time>
      </trkpt>
      <trkpt lat="48.46268" lon="2.65653">
        <ele>102.157</ele>
        <time>2016-09-11T08:14:30Z</time>
      </trkpt>
      <trkpt lat="48.46268" lon="2.65682">
        <ele>100.806</ele>
        <time>2016-09-11T08:14:34Z</time>
      </trkpt>
      <trkpt lat="48.46264" lon="2.65712">
        <ele>99.888</ele>
        <time>2016-09-11T08:14:38Z</time>
      </trkpt>
      <trkpt lat="48.46263" lon="2.65743">
        <ele>99.526</ele>
        <time>2016-09-11T08:14:43Z</time>
      </trkpt>
      <trkpt lat="48.46262" lon="2.65775">
        <ele>99.562</ele>
        <time>2016-09-11T08:14:48Z</time>
      </trkpt>
      <trkpt lat="48.46256" lon="2.65807">
        <ele>98.772</ele>
        <time>2016-09-11T08:14:53Z</time>
      </trkpt>
      <trkpt lat="48.46248" lon="2.65838">
        <ele>99.06</ele>
        <time>2016-09-11T08:14:58Z</time>
      </trkpt>
      <trkpt lat="48.46247" lon="2.65871">
        <ele>98.752</ele>
        <time>2016-09-11T08:15:03Z</time>
      </trkpt>
      <trkpt lat="48.46244" lon="2.65901">
        <ele>98.027</ele>
        <time>2016-09-11T08:15:08Z</time>
      </trkpt>
      <trkpt lat="48.46237" lon="2.65929">
        <ele>97.526</ele>
        <time>2016-09-11T08:15:13Z</time>
      </trkpt>
      <trkpt lat="48.4623" lon="2.6596">
        <ele>97.974</ele>
        <time>2016-09-11T08:15:19Z</time>
      </trkpt>
      <trkpt lat="48.46226" lon="2.65988">
        <ele>98.87</ele>
        <time>2016-09-11T08:15:25Z</time>
      </trkpt>
      <trkpt lat="48.46233" lon="2.66015">
        <ele>99.882</ele>
        <time>2016-09-11T08:15:35Z</time>
      </trkpt>
      <trkpt lat="48.4625" lon="2.66003">
        <ele>100.923</ele>
        <time>2016-09-11T08:16:14Z</time>
      </trkpt>
      <trkpt lat="48.46267" lon="2.65986">
        <ele>101.434</ele>
        <time>2016-09-11T08:16:20Z</time>
      </trkpt>
      <trkpt lat="48.46285" lon="2.65973">
        <ele>102.248</ele>
        <time>2016-09-11T08:16:25Z</time>
      </trkpt>
      <trkpt lat="48.46301" lon="2.65958">
        <ele>102.33</ele>
        <time>2016-09-11T08:16:29Z</time>
      </trkpt>
      <trkpt lat="48.46317" lon="2.65944">
        <ele>102.41</ele>
        <time>2016-09-11T08:16:33Z</time>
      </trkpt>
      <trkpt lat="48.46334" lon="2.65932">
        <ele>102.964</ele>
        <time>2016-09-11T08:16:37Z</time>
      </trkpt>
      <trkpt lat="48.46353" lon="2.65921">
        <ele>102.298</ele>
        <time>2016-09-11T08:16:40Z</time>
      </trkpt>
      <trkpt lat="48.46371" lon="2.65907">
        <ele>102</ele>
        <time>2016-09-11T08:16:44Z</time>
      </trkpt>
      <trkpt lat="48.46389" lon="2.6589">
        <ele>102</ele>
        <time>2016-09-11T08:16:49Z</time>
      </trkpt>
      <trkpt lat="48.46409" lon="2.65874">
        <ele>101.614</ele>
        <time>2016-09-11T08:16:54Z</time>
      </trkpt>
      <trkpt lat="48.46428" lon="2.65861">
        <ele>100.598</ele>
        <time>2016-09-11T08:16:59Z</time>
      </trkpt>
      <trkpt lat="48.4645" lon="2.65856">
        <ele>99.839</ele>
        <time>2016-09-11T08:17:04Z</time>
      </trkpt>
      <trkpt lat="48.4647" lon="2.65857">
        <ele>99.205</ele>
        <time>2016-09-11T08:17:08Z</time>
      </trkpt>
      <trkpt lat="48.4649" lon="2.65851">
        <ele>99.986</ele>
        <time>2016-09-11T08:17:12Z</time>
      </trkpt>
      <trkpt lat="48.46508" lon="2.65848">
        <ele>100.629</ele>
        <time>2016-09-11T08:17:16Z</time>
      </trkpt>
      <trkpt lat="48.46528" lon="2.65843">
        <ele>100.998</ele>
        <time>2016-09-11T08:17:21Z</time>
      </trkpt>
      <trkpt lat="48.46546" lon="2.65846">
        <ele>100.344</ele>
        <time>2016-09-11T08:17:26Z</time>
      </trkpt>
      <trkpt lat="48.46565" lon="2.65838">
        <ele>99.32</ele>
        <time>2016-09-11T08:17:30Z</time>
      </trkpt>
      <trkpt lat="48.46583" lon="2.65829">
        <ele>98</ele>
        <time>2016-09-11T08:17:35Z</time>
      </trkpt>
      <trkpt lat="48.46606" lon="2.65827">
        <ele>97.196</ele>
        <time>2016-09-11T08:17:40Z</time>
      </trkpt>
      <trkpt lat="48.46627" lon="2.65826">
        <ele>97</ele>
        <time>2016-09-11T08:17:45Z</time>
      </trkpt>
      <trkpt lat="48.46649" lon="2.65828">
        <ele>97.074</ele>
        <time>2016-09-11T08:17:50Z</time>
      </trkpt>
      <trkpt lat="48.46669" lon="2.6583">
        <ele>97.272</ele>
        <time>2016-09-11T08:17:55Z</time>
      </trkpt>
      <trkpt lat="48.46689" lon="2.65832">
        <ele>98.582</ele>
        <time>2016-09-11T08:18:00Z</time>
      </trkpt>
      <trkpt lat="48.46708" lon="2.65835">
        <ele>98.482</ele>
        <time>2016-09-11T08:18:06Z</time>
      </trkpt>
      <trkpt lat="48.46732" lon="2.65845">
        <ele>96.998</ele>
        <time>2016-09-11T08:18:11Z</time>
      </trkpt>
      <trkpt lat="48.4675" lon="2.65855">
        <ele>94.994</ele>
        <time>2016-09-11T08:18:14Z</time>
      </trkpt>
      <trkpt lat="48.46771" lon="2.65863">
        <ele>94.244</ele>
        <time>2016-09-11T08:18:18Z</time>
      </trkpt>
      <trkpt lat="48.46794" lon="2.65865">
        <ele>94.091</ele>
        <time>2016-09-11T08:18:23Z</time>
      </trkpt>
      <trkpt lat="48.46812" lon="2.65866">
        <ele>94.182</ele>
        <time>2016-09-11T08:18:26Z</time>
      </trkpt>
      <trkpt lat="48.46834" lon="2.65864">
        <ele>94.137</ele>
        <time>2016-09-11T08:18:30Z</time>
      </trkpt>
      <trkpt lat="48.46853" lon="2.65863">
        <ele>94.726</ele>
        <time>2016-09-11T08:18:33Z</time>
      </trkpt>
      <trkpt lat="48.46873" lon="2.65863">
        <ele>94.578</ele>
        <time>2016-09-11T08:18:36Z</time>
      </trkpt>
      <trkpt lat="48.46893" lon="2.65862">
        <ele>93.858</ele>
        <time>2016-09-11T08:18:39Z</time>
      </trkpt>
      <trkpt lat="48.46916" lon="2.65863">
        <ele>93.012</ele>
        <time>2016-09-11T08:18:43Z</time>
      </trkpt>
      <trkpt lat="48.46935" lon="2.65865">
        <ele>91.704</ele>
        <time>2016-09-11T08:18:46Z</time>
      </trkpt>
      <trkpt lat="48.46956" lon="2.65868">
        <ele>90.303</ele>
        <time>2016-09-11T08:18:50Z</time>
      </trkpt>
      <trkpt lat="48.46975" lon="2.65869">
        <ele>89.378</ele>
        <time>2016-09-11T08:18:54Z</time>
      </trkpt>
      <trkpt lat="48.46995" lon="2.65871">
        <ele>90.164</ele>
        <time>2016-09-11T08:18:58Z</time>
      </trkpt>
      <trkpt lat="48.47013" lon="2.65873">
        <ele>90.696</ele>
        <time>2016-09-11T08:19:03Z</time>
      </trkpt>
      <trkpt lat="48.47033" lon="2.65874">
        <ele>90.796</ele>
        <time>2016-09-11T08:19:07Z</time>
      </trkpt>
      <trkpt lat="48.47055" lon="2.65874">
        <ele>89.913</ele>
        <time>2016-09-11T08:19:12Z</time>
      </trkpt>
      <trkpt lat="48.47075" lon="2.65876">
        <ele>88.392</ele>
        <time>2016-09-11T08:19:16Z</time>
      </trkpt>
      <trkpt lat="48.47091" lon="2.65889">
        <ele>88.224</ele>
        <time>2016-09-11T08:19:20Z</time>
      </trkpt>
      <trkpt lat="48.47109" lon="2.65909">
        <ele>89.112</ele>
        <time>2016-09-11T08:19:25Z</time>
      </trkpt>
      <trkpt lat="48.47123" lon="2.65928">
        <ele>89.638</ele>
        <time>2016-09-11T08:19:29Z</time>
      </trkpt>
      <trkpt lat="48.47137" lon="2.65948">
        <ele>88.453</ele>
        <time>2016-09-11T08:19:33Z</time>
      </trkpt>
      <trkpt lat="48.47154" lon="2.65974">
        <ele>85.984</ele>
        <time>2016-09-11T08:19:38Z</time>
      </trkpt>
      <trkpt lat="48.47169" lon="2.65997">
        <ele>84.612</ele>
        <time>2016-09-11T08:19:42Z</time>
      </trkpt>
      <trkpt lat="48.47183" lon="2.66017">
        <ele>84.705</ele>
        <time>2016-09-11T08:19:47Z</time>
      </trkpt>
      <trkpt lat="48.472" lon="2.66037">
        <ele>85.191</ele>
        <time>2016-09-11T08:19:52Z</time>
      </trkpt>
      <trkpt lat="48.47214" lon="2.66058">
        <ele>87.573</ele>
        <time>2016-09-11T08:19:57Z</time>
      </trkpt>
      <trkpt lat="48.47234" lon="2.66067">
        <ele>88.022</ele>
        <time>2016-09-11T08:20:02Z</time>
      </trkpt>
      <trkpt lat="48.47252" lon="2.66071">
        <ele>88.3</ele>
        <time>2016-09-11T08:20:07Z</time>
      </trkpt>
      <trkpt lat="48.4727" lon="2.66075">
        <ele>90.078</ele>
        <time>2016-09-11T08:20:12Z</time>
      </trkpt>
      <trkpt lat="48.47291" lon="2.6608">
        <ele>92.236</ele>
        <time>2016-09-11T08:20:17Z</time>
      </trkpt>
      <trkpt lat="48.4731" lon="2.66083">
        <ele>94.122</ele>
        <time>2016-09-11T08:20:22Z</time>
      </trkpt>
      <trkpt lat="48.47329" lon="2.66085">
        <ele>94.873</ele>
        <time>2016-09-11T08:20:27Z</time>
      </trkpt>
      <trkpt lat="48.4735" lon="2.66087">
        <ele>95.05</ele>
        <time>2016-09-11T08:20:32Z</time>
      </trkpt>
      <trkpt lat="48.47375" lon="2.66094">
        <ele>93.988</ele>
        <time>2016-09-11T08:20:36Z</time>
      </trkpt>
      <trkpt lat="48.47393" lon="2.66091">
        <ele>92.846</ele>
        <time>2016-09-11T08:20:40Z</time>
      </trkpt>
      <trkpt lat="48.47413" lon="2.66074">
        <ele>91.814</ele>
        <time>2016-09-11T08:20:45Z</time>
      </trkpt>
      <trkpt lat="48.47427" lon="2.66057">
        <ele>90.29</ele>
        <time>2016-09-11T08:20:49Z</time>
      </trkpt>
      <trkpt lat="48.4744" lon="2.66036">
        <ele>88.777</ele>
        <time>2016-09-11T08:20:53Z</time>
      </trkpt>
      <trkpt lat="48.47453" lon="2.66015">
        <ele>87.826</ele>
        <time>2016-09-11T08:20:57Z</time>
      </trkpt>
      <trkpt lat="48.47466" lon="2.65996">
        <ele>87.552</ele>
        <time>2016-09-11T08:21:01Z</time>
      </trkpt>
      <trkpt lat="48.47483" lon="2.65972">
        <ele>87.232</ele>
        <time>2016-09-11T08:21:06Z</time>
      </trkpt>
      <trkpt lat="48.47501" lon="2.65953">
        <ele>86.724</ele>
        <time>2016-09-11T08:21:10Z</time>
      </trkpt>
      <trkpt lat="48.47517" lon="2.65932">
        <ele>87</ele>
        <time>2016-09-11T08:21:15Z</time>
      </trkpt>
      <trkpt lat="48.47534" lon="2.65918">
        <ele>87.007</ele>
        <time>2016-09-11T08:21:21Z</time>
      </trkpt>
      <trkpt lat="48.47554" lon="2.6592">
        <ele>87.119</ele>
        <time>2016-09-11T08:21:27Z</time>
      </trkpt>
      <trkpt lat="48.47572" lon="2.65909">
        <ele>87.544</ele>
        <time>2016-09-11T08:21:33Z</time>
      </trkpt>
      <trkpt lat="48.47586" lon="2.6589">
        <ele>87.136</ele>
        <time>2016-09-11T08:21:38Z</time>
      </trkpt>
      <trkpt lat="48.47591" lon="2.65864">
        <ele>87.695</ele>
        <time>2016-09-11T08:21:43Z</time>
      </trkpt>
      <trkpt lat="48.47587" lon="2.65835">
        <ele>88.814</ele>
        <time>2016-09-11T08:21:48Z</time>
      </trkpt>
      <trkpt lat="48.47575" lon="2.65814">
        <ele>89.636</ele>
        <time>2016-09-11T08:21:53Z</time>
      </trkpt>
      <trkpt lat="48.47556" lon="2.6581">
        <ele>91</ele>
        <time>2016-09-11T08:21:58Z</time>
      </trkpt>
      <trkpt lat="48.47538" lon="2.6582">
        <ele>90.677</ele>
        <time>2016-09-11T08:22:03Z</time>
      </trkpt>
      <trkpt lat="48.47527" lon="2.65846">
        <ele>89.488</ele>
        <time>2016-09-11T08:22:10Z</time>
      </trkpt>
      <trkpt lat="48.47509" lon="2.65852">
        <ele>87.94</ele>
        <time>2016-09-11T08:22:16Z</time>
      </trkpt>
      <trkpt lat="48.47488" lon="2.65851">
        <ele>87.21</ele>
        <time>2016-09-11T08:22:21Z</time>
      </trkpt>
      <trkpt lat="48.47469" lon="2.65851">
        <ele>87</ele>
        <time>2016-09-11T08:22:26Z</time>
      </trkpt>
      <trkpt lat="48.47449" lon="2.6585">
        <ele>87</ele>
        <time>2016-09-11T08:22:32Z</time>
      </trkpt>
      <trkpt lat="48.47428" lon="2.65848">
        <ele>87.586</ele>
        <time>2016-09-11T08:22:37Z</time>
      </trkpt>
      <trkpt lat="48.4741" lon="2.65847">
        <ele>88.246</ele>
        <time>2016-09-11T08:22:41Z</time>
      </trkpt>
      <trkpt lat="48.4739" lon="2.65844">
        <ele>88.972</ele>
        <time>2016-09-11T08:22:45Z</time>
      </trkpt>
      <trkpt lat="48.47371" lon="2.65843">
        <ele>89.228</ele>
        <time>2016-09-11T08:22:49Z</time>
      </trkpt>
      <trkpt lat="48.47353" lon="2.65837">
        <ele>89.132</ele>
        <time>2016-09-11T08:22:54Z</time>
      </trkpt>
      <trkpt lat="48.47351" lon="2.65809">
        <ele>87.778</ele>
        <time>2016-09-11T08:23:00Z</time>
      </trkpt>
      <trkpt lat="48.47354" lon="2.65781">
        <ele>86.86</ele>
        <time>2016-09-11T08:23:04Z</time>
      </trkpt>
      <trkpt lat="48.47357" lon="2.65753">
        <ele>86.708</ele>
        <time>2016-09-11T08:23:08Z</time>
      </trkpt>
      <trkpt lat="48.4736" lon="2.65724">
        <ele>85.948</ele>
        <time>2016-09-11T08:23:12Z</time>
      </trkpt>
      <trkpt lat="48.47364" lon="2.65696">
        <ele>86.196</ele>
        <time>2016-09-11T08:23:16Z</time>
      </trkpt>
      <trkpt lat="48.47353" lon="2.65674">
        <ele>84.668</ele>
        <time>2016-09-11T08:23:23Z</time>
      </trkpt>
      <trkpt lat="48.47334" lon="2.65656">
        <ele>83.45</ele>
        <time>2016-09-11T08:23:29Z</time>
      </trkpt>
      <trkpt lat="48.47318" lon="2.65636">
        <ele>83.43</ele>
        <time>2016-09-11T08:23:33Z</time>
      </trkpt>
      <trkpt lat="48.47301" lon="2.65611">
        <ele>82.818</ele>
        <time>2016-09-11T08:23:37Z</time>
      </trkpt>
      <trkpt lat="48.47284" lon="2.65588">
        <ele>82.034</ele>
        <time>2016-09-11T08:23:41Z</time>
      </trkpt>
      <trkpt lat="48.47268" lon="2.65571">
        <ele>81.556</ele>
        <time>2016-09-11T08:23:44Z</time>
      </trkpt>
      <trkpt lat="48.47248" lon="2.65551">
        <ele>80.988</ele>
        <time>2016-09-11T08:23:48Z</time>
      </trkpt>
      <trkpt lat="48.47232" lon="2.65535">
        <ele>80.516</ele>
        <time>2016-09-11T08:23:51Z</time>
      </trkpt>
      <trkpt lat="48.47217" lon="2.65518">
        <ele>80.128</ele>
        <time>2016-09-11T08:23:54Z</time>
      </trkpt>
      <trkpt lat="48.47201" lon="2.65502">
        <ele>80.055</ele>
        <time>2016-09-11T08:23:57Z</time>
      </trkpt>
      <trkpt lat="48.47186" lon="2.65486">
        <ele>80.151</ele>
        <time>2016-09-11T08:24:00Z</time>
      </trkpt>
      <trkpt lat="48.47166" lon="2.65466">
        <ele>80.042</ele>
        <time>2016-09-11T08:24:04Z</time>
      </trkpt>
      <trkpt lat="48.4715" lon="2.65447">
        <ele>80.594</ele>
        <time>2016-09-11T08:24:08Z</time>
      </trkpt>
      <trkpt lat="48.47149" lon="2.65418">
        <ele>80.982</ele>
        <time>2016-09-11T08:24:13Z</time>
      </trkpt>
      <trkpt lat="48.47152" lon="2.65387">
        <ele>80.926</ele>
        <time>2016-09-11T08:24:18Z</time>
      </trkpt>
      <trkpt lat="48.47155" lon="2.65357">
        <ele>80</ele>
        <time>2016-09-11T08:24:24Z</time>
      </trkpt>
      <trkpt lat="48.47155" lon="2.65323">
        <ele>79.774</ele>
        <time>2016-09-11T08:24:30Z</time>
      </trkpt>
      <trkpt lat="48.47158" lon="2.65293">
        <ele>79.318</ele>
        <time>2016-09-11T08:24:34Z</time>
      </trkpt>
      <trkpt lat="48.47162" lon="2.65265">
        <ele>79.168</ele>
        <time>2016-09-11T08:24:38Z</time>
      </trkpt>
      <trkpt lat="48.47165" lon="2.65233">
        <ele>79.652</ele>
        <time>2016-09-11T08:24:43Z</time>
      </trkpt>
      <trkpt lat="48.47166" lon="2.65201">
        <ele>80.721</ele>
        <time>2016-09-11T08:24:48Z</time>
      </trkpt>
      <trkpt lat="48.47167" lon="2.65173">
        <ele>81.778</ele>
        <time>2016-09-11T08:24:52Z</time>
      </trkpt>
      <trkpt lat="48.4717" lon="2.65142">
        <ele>83.788</ele>
        <time>2016-09-11T08:24:57Z</time>
      </trkpt>
      <trkpt lat="48.47167" lon="2.65115">
        <ele>85.756</ele>
        <time>2016-09-11T08:25:04Z</time>
      </trkpt>
      <trkpt lat="48.47149" lon="2.65107">
        <ele>86.296</ele>
        <time>2016-09-11T08:25:10Z</time>
      </trkpt>
      <trkpt lat="48.4713" lon="2.651">
        <ele>86.307</ele>
        <time>2016-09-11T08:25:16Z</time>
      </trkpt>
      <trkpt lat="48.47111" lon="2.65095">
        <ele>85.784</ele>
        <time>2016-09-11T08:25:20Z</time>
      </trkpt>
      <trkpt lat="48.47092" lon="2.65091">
        <ele>85.514</ele>
        <time>2016-09-11T08:25:24Z</time>
      </trkpt>
      <trkpt lat="48.4707" lon="2.65086">
        <ele>85.757</ele>
        <time>2016-09-11T08:25:29Z</time>
      </trkpt>
      <trkpt lat="48.47049" lon="2.65081">
        <ele>85.933</ele>
        <time>2016-09-11T08:25:34Z</time>
      </trkpt>
      <trkpt lat="48.4703" lon="2.65076">
        <ele>85.361</ele>
        <time>2016-09-11T08:25:39Z</time>
      </trkpt>
      <trkpt lat="48.47009" lon="2.65072">
        <ele>85.124</ele>
        <time>2016-09-11T08:25:45Z</time>
      </trkpt>
      <trkpt lat="48.46989" lon="2.65069">
        <ele>85.406</ele>
        <time>2016-09-11T08:25:50Z</time>
      </trkpt>
      <trkpt lat="48.46969" lon="2.65064">
        <ele>86.419</ele>
        <time>2016-09-11T08:25:54Z</time>
      </trkpt>
      <trkpt lat="48.46948" lon="2.6506">
        <ele>86.838</ele>
        <time>2016-09-11T08:25:58Z</time>
      </trkpt>
      <trkpt lat="48.4693" lon="2.65056">
        <ele>87.004</ele>
        <time>2016-09-11T08:26:02Z</time>
      </trkpt>
      <trkpt lat="48.4691" lon="2.65052">
        <ele>87.022</ele>
        <time>2016-09-11T08:26:07Z</time>
      </trkpt>
      <trkpt lat="48.46887" lon="2.65048">
        <ele>86.576</ele>
        <time>2016-09-11T08:26:11Z</time>
      </trkpt>
      <trkpt lat="48.46867" lon="2.65045">
        <ele>87.542</ele>
        <time>2016-09-11T08:26:15Z</time>
      </trkpt>
      <trkpt lat="48.46848" lon="2.65042">
        <ele>88.92</ele>
        <time>2016-09-11T08:26:19Z</time>
      </trkpt>
      <trkpt lat="48.46826" lon="2.65038">
        <ele>90.498</ele>
        <time>2016-09-11T08:26:24Z</time>
      </trkpt>
      <trkpt lat="48.46807" lon="2.65034">
        <ele>91.518</ele>
        <time>2016-09-11T08:26:30Z</time>
      </trkpt>
      <trkpt lat="48.46789" lon="2.6503">
        <ele>91.349</ele>
        <time>2016-09-11T08:26:37Z</time>
      </trkpt>
      <trkpt lat="48.46769" lon="2.65025">
        <ele>90.611</ele>
        <time>2016-09-11T08:26:44Z</time>
      </trkpt>
      <trkpt lat="48.46751" lon="2.6502">
        <ele>90.034</ele>
        <time>2016-09-11T08:26:51Z</time>
      </trkpt>
      <trkpt lat="48.4673" lon="2.65015">
        <ele>90.72</ele>
        <time>2016-09-11T08:26:58Z</time>
      </trkpt>
      <trkpt lat="48.4671" lon="2.65014">
        <ele>91</ele>
        <time>2016-09-11T08:27:04Z</time>
      </trkpt>
      <trkpt lat="48.46691" lon="2.65013">
        <ele>90.959</ele>
        <time>2016-09-11T08:27:09Z</time>
      </trkpt>
      <trkpt lat="48.46673" lon="2.65011">
        <ele>90.896</ele>
        <time>2016-09-11T08:27:13Z</time>
      </trkpt>
      <trkpt lat="48.46654" lon="2.65009">
        <ele>90.632</ele>
        <time>2016-09-11T08:27:17Z</time>
      </trkpt>
      <trkpt lat="48.46633" lon="2.65005">
        <ele>89.901</ele>
        <time>2016-09-11T08:27:22Z</time>
      </trkpt>
      <trkpt lat="48.46612" lon="2.65002">
        <ele>88.019</ele>
        <time>2016-09-11T08:27:25Z</time>
      </trkpt>
      <trkpt lat="48.46593" lon="2.64997">
        <ele>88.16</ele>
        <time>2016-09-11T08:27:30Z</time>
      </trkpt>
      <trkpt lat="48.46583" lon="2.64972">
        <ele>89.042</ele>
        <time>2016-09-11T08:27:40Z</time>
      </trkpt>
      <trkpt lat="48.46582" lon="2.64944">
        <ele>91.98</ele>
        <time>2016-09-11T08:27:55Z</time>
      </trkpt>
      <trkpt lat="48.46586" lon="2.64913">
        <ele>93.234</ele>
        <time>2016-09-11T08:28:03Z</time>
      </trkpt>
      <trkpt lat="48.46588" lon="2.64885">
        <ele>94.29</ele>
        <time>2016-09-11T08:28:11Z</time>
      </trkpt>
      <trkpt lat="48.46591" lon="2.64854">
        <ele>95.106</ele>
        <time>2016-09-11T08:28:18Z</time>
      </trkpt>
      <trkpt lat="48.46596" lon="2.64825">
        <ele>94.639</ele>
        <time>2016-09-11T08:28:24Z</time>
      </trkpt>
      <trkpt lat="48.46599" lon="2.64793">
        <ele>92.85</ele>
        <time>2016-09-11T08:28:30Z</time>
      </trkpt>
      <trkpt lat="48.46603" lon="2.64765">
        <ele>91.32</ele>
        <time>2016-09-11T08:28:35Z</time>
      </trkpt>
      <trkpt lat="48.46605" lon="2.64737">
        <ele>89.942</ele>
        <time>2016-09-11T08:28:39Z</time>
      </trkpt>
      <trkpt lat="48.46609" lon="2.64707">
        <ele>88.682</ele>
        <time>2016-09-11T08:28:44Z</time>
      </trkpt>
      <trkpt lat="48.46611" lon="2.64679">
        <ele>88.054</ele>
        <time>2016-09-11T08:28:50Z</time>
      </trkpt>
      <trkpt lat="48.46613" lon="2.64652">
        <ele>87.852</ele>
        <time>2016-09-11T08:28:55Z</time>
      </trkpt>
      <trkpt lat="48.46618" lon="2.64624">
        <ele>88.04</ele>
        <time>2016-09-11T08:29:00Z</time>
      </trkpt>
      <trkpt lat="48.46625" lon="2.64595">
        <ele>88.598</ele>
        <time>2016-09-11T08:29:05Z</time>
      </trkpt>
      <trkpt lat="48.46628" lon="2.64566">
        <ele>89.628</ele>
        <time>2016-09-11T08:29:11Z</time>
      </trkpt>
      <trkpt lat="48.46642" lon="2.64546">
        <ele>89.068</ele>
        <time>2016-09-11T08:29:16Z</time>
      </trkpt>
      <trkpt lat="48.46658" lon="2.64529">
        <ele>87.934</ele>
        <time>2016-09-11T08:29:22Z</time>
      </trkpt>
      <trkpt lat="48.46674" lon="2.64517">
        <ele>87.401</ele>
        <time>2016-09-11T08:29:27Z</time>
      </trkpt>
      <trkpt lat="48.46694" lon="2.64515">
        <ele>86.474</ele>
        <time>2016-09-11T08:29:33Z</time>
      </trkpt>
      <trkpt lat="48.46712" lon="2.64522">
        <ele>86.08</ele>
        <time>2016-09-11T08:29:39Z</time>
      </trkpt>
      <trkpt lat="48.46729" lon="2.64534">
        <ele>86.026</ele>
        <time>2016-09-11T08:29:43Z</time>
      </trkpt>
      <trkpt lat="48.46746" lon="2.64546">
        <ele>86.2</ele>
        <time>2016-09-11T08:29:47Z</time>
      </trkpt>
      <trkpt lat="48.46763" lon="2.64568">
        <ele>86.245</ele>
        <time>2016-09-11T08:29:51Z</time>
      </trkpt>
      <trkpt lat="48.46781" lon="2.64584">
        <ele>87.098</ele>
        <time>2016-09-11T08:29:55Z</time>
      </trkpt>
      <trkpt lat="48.46797" lon="2.64602">
        <ele>87.704</ele>
        <time>2016-09-11T08:29:59Z</time>
      </trkpt>
      <trkpt lat="48.46814" lon="2.64619">
        <ele>88.414</ele>
        <time>2016-09-11T08:30:03Z</time>
      </trkpt>
      <trkpt lat="48.4683" lon="2.64634">
        <ele>88.26</ele>
        <time>2016-09-11T08:30:07Z</time>
      </trkpt>
      <trkpt lat="48.46848" lon="2.64649">
        <ele>87.805</ele>
        <time>2016-09-11T08:30:12Z</time>
      </trkpt>
      <trkpt lat="48.46863" lon="2.64666">
        <ele>87.085</ele>
        <time>2016-09-11T08:30:16Z</time>
      </trkpt>
      <trkpt lat="48.4688" lon="2.64687">
        <ele>87.181</ele>
        <time>2016-09-11T08:30:21Z</time>
      </trkpt>
      <trkpt lat="48.46899" lon="2.64699">
        <ele>87.2</ele>
        <time>2016-09-11T08:30:26Z</time>
      </trkpt>
      <trkpt lat="48.46919" lon="2.64693">
        <ele>88.142</ele>
        <time>2016-09-11T08:30:31Z</time>
      </trkpt>
      <trkpt lat="48.46938" lon="2.64673">
        <ele>89.552</ele>
        <time>2016-09-11T08:30:36Z</time>
      </trkpt>
      <trkpt lat="48.46959" lon="2.64658">
        <ele>90.33</ele>
        <time>2016-09-11T08:30:40Z</time>
      </trkpt>
      <trkpt lat="48.46974" lon="2.64641">
        <ele>90.935</ele>
        <time>2016-09-11T08:30:44Z</time>
      </trkpt>
      <trkpt lat="48.4699" lon="2.64622">
        <ele>90.775</ele>
        <time>2016-09-11T08:30:49Z</time>
      </trkpt>
      <trkpt lat="48.47005" lon="2.64603">
        <ele>90.696</ele>
        <time>2016-09-11T08:30:53Z</time>
      </trkpt>
      <trkpt lat="48.4702" lon="2.64582">
        <ele>90</ele>
        <time>2016-09-11T08:30:57Z</time>
      </trkpt>
      <trkpt lat="48.47034" lon="2.64561">
        <ele>90</ele>
        <time>2016-09-11T08:31:02Z</time>
      </trkpt>
      <trkpt lat="48.47049" lon="2.64536">
        <ele>90</ele>
        <time>2016-09-11T08:31:07Z</time>
      </trkpt>
      <trkpt lat="48.47062" lon="2.64517">
        <ele>90.079</ele>
        <time>2016-09-11T08:31:11Z</time>
      </trkpt>
      <trkpt lat="48.47076" lon="2.64495">
        <ele>89.528</ele>
        <time>2016-09-11T08:31:15Z</time>
      </trkpt>
      <trkpt lat="48.47095" lon="2.64475">
        <ele>87.74</ele>
        <time>2016-09-11T08:31:19Z</time>
      </trkpt>
      <trkpt lat="48.47112" lon="2.64458">
        <ele>86.538</ele>
        <time>2016-09-11T08:31:23Z</time>
      </trkpt>
      <trkpt lat="48.47127" lon="2.64437">
        <ele>88.09</ele>
        <time>2016-09-11T08:31:28Z</time>
      </trkpt>
      <trkpt lat="48.47142" lon="2.64413">
        <ele>90.458</ele>
        <time>2016-09-11T08:31:33Z</time>
      </trkpt>
      <trkpt lat="48.47159" lon="2.64392">
        <ele>91.934</ele>
        <time>2016-09-11T08:31:38Z</time>
      </trkpt>
      <trkpt lat="48.47175" lon="2.64371">
        <ele>91.813</ele>
        <time>2016-09-11T08:31:43Z</time>
      </trkpt>
      <trkpt lat="48.47193" lon="2.64352">
        <ele>91.07</ele>
        <time>2016-09-11T08:31:48Z</time>
      </trkpt>
      <trkpt lat="48.4721" lon="2.64335">
        <ele>89.892</ele>
        <time>2016-09-11T08:31:52Z</time>
      </trkpt>
      <trkpt lat="48.47228" lon="2.6432">
        <ele>88.804</ele>
        <time>2016-09-11T08:31:56Z</time>
      </trkpt>
      <trkpt lat="48.47246" lon="2.64303">
        <ele>88.248</ele>
        <time>2016-09-11T08:32:01Z</time>
      </trkpt>
      <trkpt lat="48.47262" lon="2.64286">
        <ele>89.154</ele>
        <time>2016-09-11T08:32:06Z</time>
      </trkpt>
      <trkpt lat="48.47279" lon="2.64268">
        <ele>90.026</ele>
        <time>2016-09-11T08:32:11Z</time>
      </trkpt>
      <trkpt lat="48.47293" lon="2.64247">
        <ele>90.586</ele>
        <time>2016-09-11T08:32:16Z</time>
      </trkpt>
      <trkpt lat="48.47308" lon="2.64221">
        <ele>91.056</ele>
        <time>2016-09-11T08:32:21Z</time>
      </trkpt>
      <trkpt lat="48.4732" lon="2.64199">
        <ele>90.69</ele>
        <time>2016-09-11T08:32:26Z</time>
      </trkpt>
      <trkpt lat="48.47331" lon="2.64177">
        <ele>90.382</ele>
        <time>2016-09-11T08:32:30Z</time>
      </trkpt>
      <trkpt lat="48.47348" lon="2.64148">
        <ele>89.66</ele>
        <time>2016-09-11T08:32:34Z</time>
      </trkpt>
      <trkpt lat="48.47363" lon="2.64123">
        <ele>88.917</ele>
        <time>2016-09-11T08:32:38Z</time>
      </trkpt>
      <trkpt lat="48.47368" lon="2.64096">
        <ele>88.659</ele>
        <time>2016-09-11T08:32:43Z</time>
      </trkpt>
      <trkpt lat="48.47353" lon="2.64075">
        <ele>89.827</ele>
        <time>2016-09-11T08:32:50Z</time>
      </trkpt>
      <trkpt lat="48.47339" lon="2.64057">
        <ele>90.807</ele>
        <time>2016-09-11T08:32:56Z</time>
      </trkpt>
      <trkpt lat="48.47322" lon="2.64038">
        <ele>91.931</ele>
        <time>2016-09-11T08:33:04Z</time>
      </trkpt>
      <trkpt lat="48.47308" lon="2.64021">
        <ele>92</ele>
        <time>2016-09-11T08:33:10Z</time>
      </trkpt>
      <trkpt lat="48.47292" lon="2.64006">
        <ele>92.488</ele>
        <time>2016-09-11T08:33:20Z</time>
      </trkpt>
      <trkpt lat="48.47274" lon="2.63993">
        <ele>92.635</ele>
        <time>2016-09-11T08:33:27Z</time>
      </trkpt>
      <trkpt lat="48.47258" lon="2.63979">
        <ele>92.068</ele>
        <time>2016-09-11T08:33:34Z</time>
      </trkpt>
      <trkpt lat="48.47237" lon="2.63963">
        <ele>91.088</ele>
        <time>2016-09-11T08:33:39Z</time>
      </trkpt>
      <trkpt lat="48.47222" lon="2.63947">
        <ele>90.008</ele>
        <time>2016-09-11T08:33:43Z</time>
      </trkpt>
      <trkpt lat="48.47204" lon="2.6393">
        <ele>89.821</ele>
        <time>2016-09-11T08:33:47Z</time>
      </trkpt>
      <trkpt lat="48.47189" lon="2.63914">
        <ele>90.184</ele>
        <time>2016-09-11T08:33:51Z</time>
      </trkpt>
      <trkpt lat="48.4718" lon="2.63888">
        <ele>90.489</ele>
        <time>2016-09-11T08:33:56Z</time>
      </trkpt>
      <trkpt lat="48.47179" lon="2.63857">
        <ele>90</ele>
        <time>2016-09-11T08:34:02Z</time>
      </trkpt>
      <trkpt lat="48.4718" lon="2.63825">
        <ele>89.838</ele>
        <time>2016-09-11T08:34:08Z</time>
      </trkpt>
      <trkpt lat="48.47184" lon="2.63794">
        <ele>89.88</ele>
        <time>2016-09-11T08:34:13Z</time>
      </trkpt>
      <trkpt lat="48.4719" lon="2.63768">
        <ele>91.044</ele>
        <time>2016-09-11T08:34:17Z</time>
      </trkpt>
      <trkpt lat="48.47196" lon="2.63739">
        <ele>92.038</ele>
        <time>2016-09-11T08:34:22Z</time>
      </trkpt>
      <trkpt lat="48.47199" lon="2.63709">
        <ele>92.146</ele>
        <time>2016-09-11T08:34:27Z</time>
      </trkpt>
      <trkpt lat="48.47205" lon="2.63675">
        <ele>92.386</ele>
        <time>2016-09-11T08:34:32Z</time>
      </trkpt>
      <trkpt lat="48.47211" lon="2.63645">
        <ele>92.608</ele>
        <time>2016-09-11T08:34:37Z</time>
      </trkpt>
      <trkpt lat="48.47217" lon="2.63617">
        <ele>92.687</ele>
        <time>2016-09-11T08:34:41Z</time>
      </trkpt>
      <trkpt lat="48.47222" lon="2.63589">
        <ele>92.134</ele>
        <time>2016-09-11T08:34:45Z</time>
      </trkpt>
      <trkpt lat="48.47227" lon="2.63559">
        <ele>91.426</ele>
        <time>2016-09-11T08:34:49Z</time>
      </trkpt>
      <trkpt lat="48.4723" lon="2.63529">
        <ele>90.321</ele>
        <time>2016-09-11T08:34:54Z</time>
      </trkpt>
      <trkpt lat="48.47235" lon="2.63499">
        <ele>89.399</ele>
        <time>2016-09-11T08:34:59Z</time>
      </trkpt>
      <trkpt lat="48.47241" lon="2.63467">
        <ele>87.4</ele>
        <time>2016-09-11T08:35:03Z</time>
      </trkpt>
      <trkpt lat="48.47251" lon="2.6344">
        <ele>84.508</ele>
        <time>2016-09-11T08:35:08Z</time>
      </trkpt>
      <trkpt lat="48.4726" lon="2.63411">
        <ele>81.946</ele>
        <time>2016-09-11T08:35:13Z</time>
      </trkpt>
      <trkpt lat="48.47269" lon="2.63384">
        <ele>80.17</ele>
        <time>2016-09-11T08:35:18Z</time>
      </trkpt>
      <trkpt lat="48.47277" lon="2.63358">
        <ele>77.995</ele>
        <time>2016-09-11T08:35:23Z</time>
      </trkpt>
      <trkpt lat="48.47286" lon="2.63329">
        <ele>77.856</ele>
        <time>2016-09-11T08:35:28Z</time>
      </trkpt>
      <trkpt lat="48.47297" lon="2.63301">
        <ele>77</ele>
        <time>2016-09-11T08:35:33Z</time>
      </trkpt>
      <trkpt lat="48.47308" lon="2.63272">
        <ele>76.737</ele>
        <time>2016-09-11T08:35:38Z</time>
      </trkpt>
      <trkpt lat="48.47317" lon="2.63249">
        <ele>76</ele>
        <time>2016-09-11T08:35:42Z</time>
      </trkpt>
      <trkpt lat="48.47329" lon="2.63221">
        <ele>76.007</ele>
        <time>2016-09-11T08:35:47Z</time>
      </trkpt>
      <trkpt lat="48.47341" lon="2.63194">
        <ele>76.304</ele>
        <time>2016-09-11T08:35:52Z</time>
      </trkpt>
      <trkpt lat="48.47354" lon="2.63168">
        <ele>77.702</ele>
        <time>2016-09-11T08:35:57Z</time>
      </trkpt>
      <trkpt lat="48.47366" lon="2.63143">
        <ele>78.025</ele>
        <time>2016-09-11T08:36:02Z</time>
      </trkpt>
      <trkpt lat="48.47378" lon="2.63118">
        <ele>78</ele>
        <time>2016-09-11T08:36:07Z</time>
      </trkpt>
      <trkpt lat="48.4739" lon="2.63092">
        <ele>77.964</ele>
        <time>2016-09-11T08:36:12Z</time>
      </trkpt>
      <trkpt lat="48.47404" lon="2.63066">
        <ele>77.175</ele>
        <time>2016-09-11T08:36:17Z</time>
      </trkpt>
      <trkpt lat="48.47416" lon="2.63041">
        <ele>76.487</ele>
        <time>2016-09-11T08:36:22Z</time>
      </trkpt>
      <trkpt lat="48.47428" lon="2.63017">
        <ele>76.247</ele>
        <time>2016-09-11T08:36:28Z</time>
      </trkpt>
      <trkpt lat="48.4744" lon="2.62992">
        <ele>76</ele>
        <time>2016-09-11T08:38:00Z</time>
      </trkpt>
      <trkpt lat="48.47451" lon="2.62967">
        <ele>75.958</ele>
        <time>2016-09-11T08:38:06Z</time>
      </trkpt>
      <trkpt lat="48.47461" lon="2.62943">
        <ele>75.392</ele>
        <time>2016-09-11T08:38:24Z</time>
      </trkpt>
      <trkpt lat="48.4747" lon="2.62913">
        <ele>75.092</ele>
        <time>2016-09-11T08:38:29Z</time>
      </trkpt>
      <trkpt lat="48.47479" lon="2.62887">
        <ele>74.957</ele>
        <time>2016-09-11T08:38:33Z</time>
      </trkpt>
      <trkpt lat="48.47487" lon="2.62862">
        <ele>74.55</ele>
        <time>2016-09-11T08:38:37Z</time>
      </trkpt>
      <trkpt lat="48.47496" lon="2.62836">
        <ele>75.766</ele>
        <time>2016-09-11T08:38:41Z</time>
      </trkpt>
      <trkpt lat="48.47506" lon="2.62812">
        <ele>77.241</ele>
        <time>2016-09-11T08:38:45Z</time>
      </trkpt>
      <trkpt lat="48.47517" lon="2.62789">
        <ele>78.451</ele>
        <time>2016-09-11T08:38:49Z</time>
      </trkpt>
      <trkpt lat="48.47516" lon="2.62762">
        <ele>78.57</ele>
        <time>2016-09-11T08:38:54Z</time>
      </trkpt>
      <trkpt lat="48.47501" lon="2.6274">
        <ele>78.018</ele>
        <time>2016-09-11T08:38:59Z</time>
      </trkpt>
      <trkpt lat="48.47486" lon="2.62722">
        <ele>77.496</ele>
        <time>2016-09-11T08:39:03Z</time>
      </trkpt>
      <trkpt lat="48.47471" lon="2.62704">
        <ele>76.987</ele>
        <time>2016-09-11T08:39:07Z</time>
      </trkpt>
      <trkpt lat="48.47456" lon="2.62685">
        <ele>77.139</ele>
        <time>2016-09-11T08:39:11Z</time>
      </trkpt>
      <trkpt lat="48.4744" lon="2.62666">
        <ele>76.846</ele>
        <time>2016-09-11T08:39:15Z</time>
      </trkpt>
      <trkpt lat="48.47425" lon="2.62648">
        <ele>76.282</ele>
        <time>2016-09-11T08:39:19Z</time>
      </trkpt>
      <trkpt lat="48.47409" lon="2.6263">
        <ele>76.338</ele>
        <time>2016-09-11T08:39:23Z</time>
      </trkpt>
      <trkpt lat="48.47395" lon="2.62611">
        <ele>77.001</ele>
        <time>2016-09-11T08:39:27Z</time>
      </trkpt>
      <trkpt lat="48.4738" lon="2.62592">
        <ele>77.091</ele>
        <time>2016-09-11T08:39:31Z</time>
      </trkpt>
      <trkpt lat="48.47367" lon="2.62572">
        <ele>77.086</ele>
        <time>2016-09-11T08:39:35Z</time>
      </trkpt>
      <trkpt lat="48.47353" lon="2.62545">
        <ele>76.817</ele>
        <time>2016-09-11T08:39:40Z</time>
      </trkpt>
      <trkpt lat="48.4734" lon="2.62517">
        <ele>77.29</ele>
        <time>2016-09-11T08:39:45Z</time>
      </trkpt>
      <trkpt lat="48.4733" lon="2.62493">
        <ele>78.108</ele>
        <time>2016-09-11T08:39:49Z</time>
      </trkpt>
      <trkpt lat="48.4732" lon="2.62469">
        <ele>78.43</ele>
        <time>2016-09-11T08:39:53Z</time>
      </trkpt>
      <trkpt lat="48.4731" lon="2.62445">
        <ele>78.708</ele>
        <time>2016-09-11T08:39:57Z</time>
      </trkpt>
      <trkpt lat="48.473" lon="2.62421">
        <ele>79.218</ele>
        <time>2016-09-11T08:40:01Z</time>
      </trkpt>
      <trkpt lat="48.4729" lon="2.62396">
        <ele>79.566</ele>
        <time>2016-09-11T08:40:05Z</time>
      </trkpt>
      <trkpt lat="48.4728" lon="2.62371">
        <ele>79.858</ele>
        <time>2016-09-11T08:40:09Z</time>
      </trkpt>
      <trkpt lat="48.47271" lon="2.62346">
        <ele>80.176</ele>
        <time>2016-09-11T08:40:13Z</time>
      </trkpt>
      <trkpt lat="48.47262" lon="2.62321">
        <ele>80.296</ele>
        <time>2016-09-11T08:40:17Z</time>
      </trkpt>
      <trkpt lat="48.47253" lon="2.62297">
        <ele>80.45</ele>
        <time>2016-09-11T08:40:21Z</time>
      </trkpt>
      <trkpt lat="48.47241" lon="2.62268">
        <ele>80.162</ele>
        <time>2016-09-11T08:40:26Z</time>
      </trkpt>
      <trkpt lat="48.47233" lon="2.62243">
        <ele>79.46</ele>
        <time>2016-09-11T08:40:30Z</time>
      </trkpt>
      <trkpt lat="48.47225" lon="2.62218">
        <ele>78.848</ele>
        <time>2016-09-11T08:40:34Z</time>
      </trkpt>
      <trkpt lat="48.47215" lon="2.62194">
        <ele>78</ele>
        <time>2016-09-11T08:40:38Z</time>
      </trkpt>
      <trkpt lat="48.47205" lon="2.6217">
        <ele>78</ele>
        <time>2016-09-11T08:40:42Z</time>
      </trkpt>
      <trkpt lat="48.47195" lon="2.62145">
        <ele>78.774</ele>
        <time>2016-09-11T08:40:46Z</time>
      </trkpt>
      <trkpt lat="48.47185" lon="2.6212">
        <ele>79.577</ele>
        <time>2016-09-11T08:40:50Z</time>
      </trkpt>
      <trkpt lat="48.47176" lon="2.62096">
        <ele>80.373</ele>
        <time>2016-09-11T08:40:54Z</time>
      </trkpt>
      <trkpt lat="48.47167" lon="2.62069">
        <ele>80.985</ele>
        <time>2016-09-11T08:40:59Z</time>
      </trkpt>
      <trkpt lat="48.47156" lon="2.62044">
        <ele>79.162</ele>
        <time>2016-09-11T08:41:04Z</time>
      </trkpt>
      <trkpt lat="48.47145" lon="2.62016">
        <ele>77.356</ele>
        <time>2016-09-11T08:41:09Z</time>
      </trkpt>
      <trkpt lat="48.47134" lon="2.61989">
        <ele>76.69</ele>
        <time>2016-09-11T08:41:14Z</time>
      </trkpt>
      <trkpt lat="48.47122" lon="2.61963">
        <ele>76.841</ele>
        <time>2016-09-11T08:41:19Z</time>
      </trkpt>
      <trkpt lat="48.4711" lon="2.61937">
        <ele>78.046</ele>
        <time>2016-09-11T08:41:25Z</time>
      </trkpt>
      <trkpt lat="48.47099" lon="2.61916">
        <ele>78.454</ele>
        <time>2016-09-11T08:41:32Z</time>
      </trkpt>
      <trkpt lat="48.47086" lon="2.61892">
        <ele>78.898</ele>
        <time>2016-09-11T08:41:40Z</time>
      </trkpt>
      <trkpt lat="48.47075" lon="2.6187">
        <ele>79.3</ele>
        <time>2016-09-11T08:41:46Z</time>
      </trkpt>
      <trkpt lat="48.47064" lon="2.61848">
        <ele>79.846</ele>
        <time>2016-09-11T08:41:52Z</time>
      </trkpt>
      <trkpt lat="48.47053" lon="2.61825">
        <ele>79.621</ele>
        <time>2016-09-11T08:41:58Z</time>
      </trkpt>
      <trkpt lat="48.47042" lon="2.61797">
        <ele>78.85</ele>
        <time>2016-09-11T08:42:04Z</time>
      </trkpt>
      <trkpt lat="48.4703" lon="2.61776">
        <ele>78.08</ele>
        <time>2016-09-11T08:42:08Z</time>
      </trkpt>
      <trkpt lat="48.47018" lon="2.61754">
        <ele>77.707</ele>
        <time>2016-09-11T08:42:12Z</time>
      </trkpt>
      <trkpt lat="48.47007" lon="2.61731">
        <ele>77.258</ele>
        <time>2016-09-11T08:42:16Z</time>
      </trkpt>
      <trkpt lat="48.46996" lon="2.61708">
        <ele>76.479</ele>
        <time>2016-09-11T08:42:20Z</time>
      </trkpt>
      <trkpt lat="48.46985" lon="2.61685">
        <ele>76.358</ele>
        <time>2016-09-11T08:42:24Z</time>
      </trkpt>
      <trkpt lat="48.46973" lon="2.61661">
        <ele>76.21</ele>
        <time>2016-09-11T08:42:28Z</time>
      </trkpt>
      <trkpt lat="48.46961" lon="2.61637">
        <ele>77.398</ele>
        <time>2016-09-11T08:42:32Z</time>
      </trkpt>
      <trkpt lat="48.46949" lon="2.61612">
        <ele>77.824</ele>
        <time>2016-09-11T08:42:36Z</time>
      </trkpt>
      <trkpt lat="48.46938" lon="2.61587">
        <ele>78.25</ele>
        <time>2016-09-11T08:42:40Z</time>
      </trkpt>
      <trkpt lat="48.46927" lon="2.61564">
        <ele>79.065</ele>
        <time>2016-09-11T08:42:44Z</time>
      </trkpt>
      <trkpt lat="48.46916" lon="2.61542">
        <ele>79.532</ele>
        <time>2016-09-11T08:42:48Z</time>
      </trkpt>
      <trkpt lat="48.46903" lon="2.61522">
        <ele>79.611</ele>
        <time>2016-09-11T08:42:52Z</time>
      </trkpt>
      <trkpt lat="48.46888" lon="2.61505">
        <ele>80.792</ele>
        <time>2016-09-11T08:42:56Z</time>
      </trkpt>
      <trkpt lat="48.46869" lon="2.6149">
        <ele>80.444</ele>
        <time>2016-09-11T08:43:01Z</time>
      </trkpt>
      <trkpt lat="48.46856" lon="2.61468">
        <ele>80.867</ele>
        <time>2016-09-11T08:43:07Z</time>
      </trkpt>
      <trkpt lat="48.46866" lon="2.61441">
        <ele>79.876</ele>
        <time>2016-09-11T08:43:12Z</time>
      </trkpt>
      <trkpt lat="48.46875" lon="2.61417">
        <ele>79.012</ele>
        <time>2016-09-11T08:43:16Z</time>
      </trkpt>
      <trkpt lat="48.46885" lon="2.61392">
        <ele>78.124</ele>
        <time>2016-09-11T08:43:20Z</time>
      </trkpt>
      <trkpt lat="48.46893" lon="2.61367">
        <ele>77.194</ele>
        <time>2016-09-11T08:43:24Z</time>
      </trkpt>
      <trkpt lat="48.469" lon="2.6134">
        <ele>77.46</ele>
        <time>2016-09-11T08:43:28Z</time>
      </trkpt>
      <trkpt lat="48.46906" lon="2.61312">
        <ele>77.378</ele>
        <time>2016-09-11T08:43:32Z</time>
      </trkpt>
      <trkpt lat="48.46912" lon="2.61284">
        <ele>77.806</ele>
        <time>2016-09-11T08:43:36Z</time>
      </trkpt>
      <trkpt lat="48.46918" lon="2.61257">
        <ele>78.036</ele>
        <time>2016-09-11T08:43:40Z</time>
      </trkpt>
      <trkpt lat="48.46918" lon="2.61224">
        <ele>78.946</ele>
        <time>2016-09-11T08:43:45Z</time>
      </trkpt>
      <trkpt lat="48.46902" lon="2.61211">
        <ele>79.215</ele>
        <time>2016-09-11T08:43:49Z</time>
      </trkpt>
      <trkpt lat="48.46884" lon="2.61206">
        <ele>79.602</ele>
        <time>2016-09-11T08:43:53Z</time>
      </trkpt>
      <trkpt lat="48.46865" lon="2.612">
        <ele>79.818</ele>
        <time>2016-09-11T08:43:57Z</time>
      </trkpt>
      <trkpt lat="48.46847" lon="2.61192">
        <ele>79.474</ele>
        <time>2016-09-11T08:44:01Z</time>
      </trkpt>
      <trkpt lat="48.46825" lon="2.61185">
        <ele>79.11</ele>
        <time>2016-09-11T08:44:06Z</time>
      </trkpt>
      <trkpt lat="48.46803" lon="2.61177">
        <ele>79.658</ele>
        <time>2016-09-11T08:44:11Z</time>
      </trkpt>
      <trkpt lat="48.46788" lon="2.61157">
        <ele>80.342</ele>
        <time>2016-09-11T08:44:16Z</time>
      </trkpt>
      <trkpt lat="48.46776" lon="2.61131">
        <ele>81</ele>
        <time>2016-09-11T08:44:21Z</time>
      </trkpt>
      <trkpt lat="48.46765" lon="2.61103">
        <ele>80.872</ele>
        <time>2016-09-11T08:44:26Z</time>
      </trkpt>
      <trkpt lat="48.46756" lon="2.61075">
        <ele>80.161</ele>
        <time>2016-09-11T08:44:31Z</time>
      </trkpt>
      <trkpt lat="48.4675" lon="2.61047">
        <ele>80</ele>
        <time>2016-09-11T08:44:36Z</time>
      </trkpt>
      <trkpt lat="48.46743" lon="2.61021">
        <ele>79.822</ele>
        <time>2016-09-11T08:44:42Z</time>
      </trkpt>
      <trkpt lat="48.46726" lon="2.61009">
        <ele>79.915</ele>
        <time>2016-09-11T08:44:49Z</time>
      </trkpt>
      <trkpt lat="48.46707" lon="2.60996">
        <ele>80.617</ele>
        <time>2016-09-11T08:44:55Z</time>
      </trkpt>
      <trkpt lat="48.4669" lon="2.60985">
        <ele>81.54</ele>
        <time>2016-09-11T08:45:00Z</time>
      </trkpt>
      <trkpt lat="48.46672" lon="2.60972">
        <ele>81.996</ele>
        <time>2016-09-11T08:45:05Z</time>
      </trkpt>
      <trkpt lat="48.46654" lon="2.6096">
        <ele>81.972</ele>
        <time>2016-09-11T08:45:10Z</time>
      </trkpt>
      <trkpt lat="48.46637" lon="2.6095">
        <ele>81.818</ele>
        <time>2016-09-11T08:45:15Z</time>
      </trkpt>
      <trkpt lat="48.46619" lon="2.60934">
        <ele>82.103</ele>
        <time>2016-09-11T08:45:21Z</time>
      </trkpt>
      <trkpt lat="48.46613" lon="2.60906">
        <ele>82.434</ele>
        <time>2016-09-11T08:45:27Z</time>
      </trkpt>
      <trkpt lat="48.46614" lon="2.60877">
        <ele>83.526</ele>
        <time>2016-09-11T08:45:33Z</time>
      </trkpt>
      <trkpt lat="48.46614" lon="2.60848">
        <ele>84.098</ele>
        <time>2016-09-11T08:45:40Z</time>
      </trkpt>
      <trkpt lat="48.46597" lon="2.60828">
        <ele>83.27</ele>
        <time>2016-09-11T08:45:47Z</time>
      </trkpt>
      <trkpt lat="48.46582" lon="2.6081">
        <ele>82.16</ele>
        <time>2016-09-11T08:45:52Z</time>
      </trkpt>
      <trkpt lat="48.46581" lon="2.60781">
        <ele>82</ele>
        <time>2016-09-11T08:45:59Z</time>
      </trkpt>
      <trkpt lat="48.46583" lon="2.60754">
        <ele>81.995</ele>
        <time>2016-09-11T08:46:08Z</time>
      </trkpt>
      <trkpt lat="48.46591" lon="2.6073">
        <ele>82</ele>
        <time>2016-09-11T08:46:16Z</time>
      </trkpt>
      <trkpt lat="48.46579" lon="2.60708">
        <ele>81.838</ele>
        <time>2016-09-11T08:46:40Z</time>
      </trkpt>
      <trkpt lat="48.4656" lon="2.60711">
        <ele>81.172</ele>
        <time>2016-09-11T08:46:46Z</time>
      </trkpt>
      <trkpt lat="48.46542" lon="2.60715">
        <ele>80.524</ele>
        <time>2016-09-11T08:46:52Z</time>
      </trkpt>
      <trkpt lat="48.46524" lon="2.60715">
        <ele>80</ele>
        <time>2016-09-11T08:47:00Z</time>
      </trkpt>
      <trkpt lat="48.46519" lon="2.60685">
        <ele>80</ele>
        <time>2016-09-11T08:47:08Z</time>
      </trkpt>
      <trkpt lat="48.46516" lon="2.60657">
        <ele>80.366</ele>
        <time>2016-09-11T08:47:13Z</time>
      </trkpt>
      <trkpt lat="48.46507" lon="2.60627">
        <ele>81</ele>
        <time>2016-09-11T08:47:18Z</time>
      </trkpt>
      <trkpt lat="48.4649" lon="2.60614">
        <ele>81</ele>
        <time>2016-09-11T08:47:23Z</time>
      </trkpt>
      <trkpt lat="48.4647" lon="2.60608">
        <ele>80.734</ele>
        <time>2016-09-11T08:47:29Z</time>
      </trkpt>
      <trkpt lat="48.46451" lon="2.60602">
        <ele>78.941</ele>
        <time>2016-09-11T08:47:34Z</time>
      </trkpt>
      <trkpt lat="48.46438" lon="2.60578">
        <ele>78.764</ele>
        <time>2016-09-11T08:47:41Z</time>
      </trkpt>
      <trkpt lat="48.46436" lon="2.60548">
        <ele>79.495</ele>
        <time>2016-09-11T08:47:47Z</time>
      </trkpt>
      <trkpt lat="48.46431" lon="2.6052">
        <ele>79.498</ele>
        <time>2016-09-11T08:47:55Z</time>
      </trkpt>
    </trkseg>
  </trk>
</gpx>